Darstellungsparameter: Aktuell verwendete Einstellungen:
Skalierung der Graphiken ... ?
xyx+y,   Skalierungsfaktor:      Skalierung: Modus: x, Faktor: 1
Darstellungszeitraum ... ?
Vom - - bis: - -   Zeitraum: 07.01.2014 - 07.07.2014
Min/Max/Avg-Anzeige ... ?
Zeige MMA aktuell
Zeige MMA Monat
Zeige MMA alles
Zeige --A aktuell
Zeige --A Monat
Zeige --A alles
Keine MMA-Anzeige
MMA:
Keine MMA-Graphiken
MMA-Basis: 07.01.2014 - 07.07.2014
Quicknavigation für Darstellung... ?
Tage:      1T, 2T, 3T, 5T -1T -2T -3T -5T +1T +2T +3T +5T
Wochen: 1W, 2W, 3W -1W -2W -3W +1W +2W +3W
Monate: 1M, 3M, 6M -1M -3M -6M +1M +3M +6M
Jahre:    1J, 3J, 5J, 10J -1J -3J -5J -10J +1J +3J +5J +10J
Nutze für die Darstellung ... ?
Originaldaten oder Mittelwerte auf ...
Stundenbasis Tagesbasis Wochenbasis
Monatsbasis Jahresbasis      Datenbasis: Original-Daten
Darstellen als:
Statistik (Auto) Statistik J:M      Darstellung:
Zur Graphik,    zurück zur Übersicht aller Sensoren.
 
Tabellarische Datenbersicht: ?
 
Sensor: Nr:Datum:Temp:Abs-Feuchte:Windchill:Wind:
Aussen-T/F 1 07-01-2014 00:00:00 10.1 C 8.89 g/m*3 9.1 C 8.1 km/h
2 07-01-2014 00:05:00 10.2 C 8.95 g/m*3 8.66 C 11.3 km/h
3 07-01-2014 00:10:00 10.3 C 9 g/m*3 9.04 C 9.7 km/h
4 07-01-2014 00:15:00 10.5 C 9.02 g/m*3 9.02 C 11.3 km/h
5 07-01-2014 00:20:00 10.7 C 9.13 g/m*3 8.65 C 16.1 km/h
6 07-01-2014 00:25:00 10.9 C 9.15 g/m*3 8.9 C 16.1 km/h
7 07-01-2014 00:30:00 10.9 C 9.15 g/m*3 9.76 C 9.7 km/h
8 07-01-2014 00:35:00 11.1 C 9.17 g/m*3 11.1 C 12.9 km/h
9 07-01-2014 00:40:00 11.2 C 9.12 g/m*3 11.2 C 24.1 km/h
10 07-01-2014 00:45:00 11.2 C 9.12 g/m*3 11.2 C 24.1 km/h
11 07-01-2014 00:50:00 11.1 C 8.96 g/m*3 11.1 C 29 km/h
12 07-01-2014 00:55:00 11 C 8.81 g/m*3 8.3 C 24.1 km/h
13 07-01-2014 01:00:00 10.9 C 8.65 g/m*3 9.51 C 11.3 km/h
14 07-01-2014 01:05:00 11 C 8.71 g/m*3 9.63 C 11.3 km/h
15 07-01-2014 01:10:00 11 C 8.61 g/m*3 9.4 C 12.9 km/h
16 07-01-2014 01:15:00 11 C 8.71 g/m*3 8.56 C 20.9 km/h
17 07-01-2014 01:20:00 10.8 C 8.6 g/m*3 9.93 C 8.1 km/h
18 07-01-2014 01:25:00 10.6 C 8.59 g/m*3 9.4 C 9.7 km/h
19 07-01-2014 01:30:00 10.6 C 8.69 g/m*3 9.4 C 9.7 km/h
20 07-01-2014 01:35:00 10.6 C 8.69 g/m*3 9.4 C 9.7 km/h
21 07-01-2014 01:40:00 10.7 C 8.74 g/m*3 9.52 C 9.7 km/h
22 07-01-2014 01:45:00 10.6 C 8.78 g/m*3 10.06 C 6.4 km/h
23 07-01-2014 01:50:00 10.5 C 8.73 g/m*3 9.95 C 6.4 km/h
24 07-01-2014 01:55:00 10.2 C 8.66 g/m*3 10.2 C 3.2 km/h
25 07-01-2014 02:00:00 10.1 C 8.7 g/m*3 9.48 C 6.4 km/h
Sensor: Nr:Datum:Temp:Abs-Feuchte:Windchill:Wind:
Aussen-T/F 26 07-01-2014 02:05:00 10 C 8.74 g/m*3 10 C 4.8 km/h
27 07-01-2014 02:10:00 10.1 C 8.79 g/m*3 8.8 C 9.7 km/h
28 07-01-2014 02:15:00 10.2 C 8.76 g/m*3 10.2 C 4.8 km/h
29 07-01-2014 02:20:00 10.3 C 8.81 g/m*3 9.34 C 8.1 km/h
30 07-01-2014 02:25:00 10.5 C 8.83 g/m*3 9.02 C 11.3 km/h
31 07-01-2014 02:30:00 10.6 C 8.78 g/m*3 8.92 C 12.9 km/h
32 07-01-2014 02:35:00 10.6 C 8.78 g/m*3 10.06 C 6.4 km/h
33 07-01-2014 02:40:00 10.4 C 8.77 g/m*3 9.46 C 8.1 km/h
34 07-01-2014 02:45:00 10.4 C 8.67 g/m*3 9.16 C 9.7 km/h
35 07-01-2014 02:50:00 10.4 C 8.67 g/m*3 9.83 C 6.4 km/h
36 07-01-2014 02:55:00 10.3 C 8.62 g/m*3 9.34 C 8.1 km/h
37 07-01-2014 03:00:00 10.1 C 8.51 g/m*3 8.54 C 11.3 km/h
38 07-01-2014 03:05:00 10.2 C 8.56 g/m*3 9.6 C 6.4 km/h
39 07-01-2014 03:10:00 9.9 C 8.5 g/m*3 9.9 C 3.2 km/h
40 07-01-2014 03:15:00 9.7 C 8.48 g/m*3 9.7 C 4.8 km/h
41 07-01-2014 03:20:00 9.8 C 8.44 g/m*3 9.8 C 4.8 km/h
42 07-01-2014 03:25:00 9.9 C 8.5 g/m*3 9.9 C 4.8 km/h
43 07-01-2014 03:30:00 10 C 8.55 g/m*3 9.37 C 6.4 km/h
44 07-01-2014 03:35:00 10 C 8.46 g/m*3 10 C 4.8 km/h
45 07-01-2014 03:40:00 10.1 C 8.51 g/m*3 9.48 C 6.4 km/h
46 07-01-2014 03:45:00 9.8 C 8.35 g/m*3 9.8 C 4.8 km/h
47 07-01-2014 03:50:00 9.7 C 8.39 g/m*3 9.02 C 6.4 km/h
48 07-01-2014 03:55:00 9.8 C 8.44 g/m*3 9.8 C 4.8 km/h
49 07-01-2014 04:00:00 9.6 C 8.43 g/m*3 9.6 C 1.6 km/h
50 07-01-2014 04:05:00 9.4 C 8.32 g/m*3 9.4 C 4.8 km/h
Sensor: Nr:Datum:Temp:Abs-Feuchte:Windchill:Wind:
Aussen-T/F 51 07-01-2014 04:10:00 9.3 C 8.36 g/m*3 9.3 C 3.2 km/h
52 07-01-2014 04:15:00 9.2 C 8.3 g/m*3 9.2 C 3.2 km/h
53 07-01-2014 04:20:00 8.9 C 8.15 g/m*3 8.9 C 3.2 km/h
54 07-01-2014 04:25:00 8.9 C 8.23 g/m*3 8.9 C 3.2 km/h
55 07-01-2014 04:30:00 8.8 C 8.18 g/m*3 8.8 C 4.8 km/h
56 07-01-2014 04:35:00 9.1 C 8.43 g/m*3 9.1 C 4.8 km/h
57 07-01-2014 04:40:00 9.3 C 8.45 g/m*3 8.16 C 8.1 km/h
58 07-01-2014 04:45:00 9.5 C 8.47 g/m*3 9.5 C 3.2 km/h
59 07-01-2014 04:50:00 9.6 C 8.52 g/m*3 9.6 C 1.6 km/h
60 07-01-2014 04:55:00 9.8 C 8.44 g/m*3 9.8 C 3.2 km/h
61 07-01-2014 05:00:00 10 C 8.46 g/m*3 9.37 C 6.4 km/h
62 07-01-2014 05:05:00 10.2 C 8.47 g/m*3 9.6 C 6.4 km/h
63 07-01-2014 05:10:00 10.2 C 8.37 g/m*3 10.2 C 3.2 km/h
64 07-01-2014 05:15:00 10.2 C 8.37 g/m*3 9.6 C 6.4 km/h
65 07-01-2014 05:20:00 10.3 C 8.33 g/m*3 9.34 C 8.1 km/h
66 07-01-2014 05:25:00 10.4 C 8.29 g/m*3 10.4 C 3.2 km/h
67 07-01-2014 05:30:00 10.3 C 8.24 g/m*3 9.72 C 6.4 km/h
68 07-01-2014 05:35:00 10.4 C 8.1 g/m*3 8.47 C 14.5 km/h
69 07-01-2014 05:40:00 10.5 C 8.15 g/m*3 9.28 C 9.7 km/h
70 07-01-2014 05:45:00 10.5 C 8.05 g/m*3 9.02 C 11.3 km/h
71 07-01-2014 05:50:00 10.4 C 8.1 g/m*3 10.4 C 4.8 km/h
72 07-01-2014 05:55:00 10.3 C 8.04 g/m*3 8.78 C 11.3 km/h
73 07-01-2014 06:00:00 10.3 C 8.04 g/m*3 8.78 C 11.3 km/h
74 07-01-2014 06:05:00 10.3 C 8.14 g/m*3 10.3 C 1.6 km/h
75 07-01-2014 06:10:00 10.1 C 8.23 g/m*3 10.1 C 3.2 km/h
Sensor: Nr:Datum:Temp:Abs-Feuchte:Windchill:Wind:
Aussen-T/F 76 07-01-2014 06:15:00 10.1 C 8.13 g/m*3 9.48 C 6.4 km/h
77 07-01-2014 06:20:00 10.2 C 8.09 g/m*3 8.92 C 9.7 km/h
78 07-01-2014 06:25:00 10.4 C 8 g/m*3 9.83 C 6.4 km/h
79 07-01-2014 06:30:00 10.5 C 8.05 g/m*3 8.8 C 12.9 km/h
80 07-01-2014 06:35:00 10.4 C 8.1 g/m*3 10.4 C 1.6 km/h
81 07-01-2014 06:40:00 10.3 C 8.04 g/m*3 10.3 C 1.6 km/h
82 07-01-2014 06:45:00 10.3 C 8.04 g/m*3 10.3 C 4.8 km/h
83 07-01-2014 06:50:00 10.4 C 8 g/m*3 10.4 C 4.8 km/h
84 07-01-2014 06:55:00 10.5 C 7.95 g/m*3 9.57 C 8.1 km/h
85 07-01-2014 07:00:00 10.4 C 8 g/m*3 10.4 C 4.8 km/h
86 07-01-2014 07:05:00 10.1 C 7.94 g/m*3 10.1 C 3.2 km/h
87 07-01-2014 07:10:00 9.6 C 7.88 g/m*3 9.6 C 4.8 km/h
88 07-01-2014 07:15:00 9.4 C 7.87 g/m*3 8.68 C 6.4 km/h
89 07-01-2014 07:20:00 9.3 C 7.91 g/m*3 9.3 C 4.8 km/h
90 07-01-2014 07:25:00 9.4 C 7.96 g/m*3 9.4 C 4.8 km/h
91 07-01-2014 07:30:00 9.4 C 7.87 g/m*3 9.4 C 4.8 km/h
92 07-01-2014 07:35:00 9.5 C 7.92 g/m*3 8.79 C 6.4 km/h
93 07-01-2014 07:40:00 9.6 C 7.97 g/m*3 8.91 C 6.4 km/h
94 07-01-2014 07:45:00 9.6 C 7.97 g/m*3 9.6 C 3.2 km/h
95 07-01-2014 07:50:00 9.7 C 7.84 g/m*3 9.7 C 4.8 km/h
96 07-01-2014 07:55:00 9.7 C 7.84 g/m*3 9.7 C 3.2 km/h
97 07-01-2014 08:00:00 9.6 C 7.88 g/m*3 8.52 C 8.1 km/h
98 07-01-2014 08:05:00 9.4 C 7.78 g/m*3 9.4 C 4.8 km/h
99 07-01-2014 08:10:00 9.3 C 7.73 g/m*3 9.3 C 4.8 km/h
100 07-01-2014 08:15:00 9.6 C 7.79 g/m*3 8.52 C 8.1 km/h
Sensor: Nr:Datum:Temp:Abs-Feuchte:Windchill:Wind:
Aussen-T/F 101 07-01-2014 08:20:00 9.6 C 7.88 g/m*3 9.6 C 4.8 km/h
102 07-01-2014 08:25:00 9.6 C 7.97 g/m*3 9.6 C 4.8 km/h
103 07-01-2014 08:30:00 9.4 C 7.96 g/m*3 9.4 C 3.2 km/h
104 07-01-2014 08:35:00 9.4 C 7.87 g/m*3 9.4 C 3.2 km/h
105 07-01-2014 08:40:00 9.7 C 7.93 g/m*3 9.02 C 6.4 km/h
106 07-01-2014 08:45:00 9.9 C 7.94 g/m*3 9.9 C 4.8 km/h
107 07-01-2014 08:50:00 10.2 C 7.9 g/m*3 10.2 C 4.8 km/h
108 07-01-2014 08:55:00 10.3 C 7.85 g/m*3 9.72 C 6.4 km/h
109 07-01-2014 09:00:00 10.4 C 7.9 g/m*3 9.46 C 8.1 km/h
110 07-01-2014 09:05:00 10.5 C 7.86 g/m*3 9.02 C 11.3 km/h
111 07-01-2014 09:10:00 10.7 C 7.86 g/m*3 8.84 C 14.5 km/h
112 07-01-2014 09:15:00 10.8 C 7.91 g/m*3 10.29 C 6.4 km/h
113 07-01-2014 09:20:00 10.7 C 7.96 g/m*3 9.81 C 8.1 km/h
114 07-01-2014 09:25:00 10.6 C 7.81 g/m*3 9.4 C 9.7 km/h
115 07-01-2014 09:30:00 10.7 C 7.86 g/m*3 9.26 C 11.3 km/h
116 07-01-2014 09:35:00 10.7 C 7.96 g/m*3 10.18 C 6.4 km/h
117 07-01-2014 09:40:00 10.7 C 7.96 g/m*3 10.18 C 6.4 km/h
118 07-01-2014 09:45:00 10.8 C 8.01 g/m*3 10.29 C 6.4 km/h
119 07-01-2014 09:50:00 10.8 C 7.91 g/m*3 9.64 C 9.7 km/h
120 07-01-2014 09:55:00 10.9 C 7.96 g/m*3 10.04 C 8.1 km/h
121 07-01-2014 10:00:00 11 C 8.11 g/m*3 10.16 C 8.1 km/h
122 07-01-2014 10:05:00 11.1 C 8.06 g/m*3 11.1 C 4.8 km/h
123 07-01-2014 10:10:00 11.1 C 8.06 g/m*3 11.1 C 12.9 km/h
124 07-01-2014 10:15:00 11.1 C 8.16 g/m*3 11.1 C 4.8 km/h
125 07-01-2014 10:20:00 11.1 C 8.06 g/m*3 11.1 C 11.3 km/h
Sensor: Nr:Datum:Temp:Abs-Feuchte:Windchill:Wind:
Aussen-T/F 126 07-01-2014 10:25:00 11.3 C 8.06 g/m*3 11.3 C 20.9 km/h
127 07-01-2014 10:30:00 11.4 C 8.01 g/m*3 11.4 C 17.7 km/h
128 07-01-2014 10:35:00 11.6 C 8.11 g/m*3 11.6 C 6.4 km/h
129 07-01-2014 10:40:00 11.6 C 8.11 g/m*3 11.6 C 12.9 km/h
130 07-01-2014 10:45:00 11.7 C 8.26 g/m*3 11.7 C 11.3 km/h
131 07-01-2014 10:50:00 11.6 C 8.21 g/m*3 11.6 C 6.4 km/h
132 07-01-2014 10:55:00 11.7 C 8.26 g/m*3 11.7 C 8.1 km/h
133 07-01-2014 11:00:00 11.7 C 8.16 g/m*3 11.7 C 14.5 km/h
134 07-01-2014 11:05:00 11.7 C 8.16 g/m*3 11.7 C 11.3 km/h
135 07-01-2014 11:10:00 11.7 C 8.16 g/m*3 11.7 C 4.8 km/h
136 07-01-2014 11:15:00 11.7 C 8.16 g/m*3 11.7 C 11.3 km/h
137 07-01-2014 11:20:00 11.7 C 8.26 g/m*3 11.7 C 3.2 km/h
138 07-01-2014 11:25:00 11.8 C 8.31 g/m*3 11.8 C 12.9 km/h
139 07-01-2014 11:30:00 11.8 C 8.31 g/m*3 11.8 C 8.1 km/h
140 07-01-2014 11:35:00 11.9 C 8.37 g/m*3 11.9 C 6.4 km/h
141 07-01-2014 11:40:00 11.9 C 8.26 g/m*3 11.9 C 6.4 km/h
142 07-01-2014 11:45:00 12 C 8.31 g/m*3 12 C 11.3 km/h
143 07-01-2014 11:50:00 12 C 8.21 g/m*3 12 C 11.3 km/h
144 07-01-2014 11:55:00 11.9 C 8.26 g/m*3 11.9 C 1.6 km/h
145 07-01-2014 12:00:00 11.9 C 8.26 g/m*3 11.9 C 8.1 km/h
146 07-01-2014 12:05:00 11.9 C 8.15 g/m*3 11.9 C 8.1 km/h
147 07-01-2014 12:10:00 11.9 C 8.26 g/m*3 11.9 C 9.7 km/h
148 07-01-2014 12:15:00 11.9 C 8.26 g/m*3 11.9 C 9.7 km/h
149 07-01-2014 12:20:00 11.9 C 8.37 g/m*3 11.9 C 6.4 km/h
150 07-01-2014 12:25:00 11.9 C 8.26 g/m*3 11.9 C 9.7 km/h
Sensor: Nr:Datum:Temp:Abs-Feuchte:Windchill:Wind:
Aussen-T/F 151 07-01-2014 12:30:00 11.9 C 8.47 g/m*3 11.9 C 6.4 km/h
152 07-01-2014 12:35:00 11.8 C 8.31 g/m*3 11.8 C 4.8 km/h
153 07-01-2014 12:40:00 11.8 C 8.53 g/m*3 11.8 C 4.8 km/h
154 07-01-2014 12:45:00 11.8 C 8.53 g/m*3 11.8 C 6.4 km/h
155 07-01-2014 12:50:00 11.7 C 8.47 g/m*3 11.7 C 4.8 km/h
156 07-01-2014 12:55:00 11.7 C 8.79 g/m*3 11.7 C 3.2 km/h
157 07-01-2014 13:00:00 11.5 C 8.57 g/m*3 11.5 C 1.6 km/h
158 07-01-2014 13:05:00 11.4 C 8.62 g/m*3 11.4 C 1.6 km/h
159 07-01-2014 13:10:00 11.5 C 8.68 g/m*3 11.5 C 3.2 km/h
160 07-01-2014 13:15:00 11.6 C 8.52 g/m*3 11.6 C 1.6 km/h
161 07-01-2014 13:20:00 11.6 C 8.63 g/m*3 11.6 C 4.8 km/h
162 07-01-2014 13:25:00 11.7 C 8.79 g/m*3 11.7 C 8.1 km/h
163 07-01-2014 13:30:00 11.6 C 8.83 g/m*3 11.6 C 1.6 km/h
164 07-01-2014 13:35:00 11.4 C 8.62 g/m*3 11.4 C 4.8 km/h
165 07-01-2014 13:40:00 11.4 C 8.52 g/m*3 11.4 C 1.6 km/h
166 07-01-2014 13:45:00 11.5 C 8.57 g/m*3 11.5 C 1.6 km/h
167 07-01-2014 13:50:00 11.7 C 8.79 g/m*3 11.7 C 3.2 km/h
168 07-01-2014 13:55:00 11.7 C 8.79 g/m*3 11.7 C 6.4 km/h
169 07-01-2014 14:00:00 11.7 C 8.79 g/m*3 11.7 C 4.8 km/h
170 07-01-2014 14:05:00 11.9 C 8.9 g/m*3 11.9 C 6.4 km/h
171 07-01-2014 14:10:00 12.3 C 8.36 g/m*3 12.3 C 9.7 km/h
172 07-01-2014 14:15:00 12.7 C 8.46 g/m*3 12.7 C 6.4 km/h
173 07-01-2014 14:20:00 12.9 C 8.23 g/m*3 12.9 C 6.4 km/h
174 07-01-2014 14:25:00 13.3 C 8.66 g/m*3 13.3 C 8.1 km/h
175 07-01-2014 14:30:00 13.4 C 8.14 g/m*3 13.4 C 8.1 km/h
Sensor: Nr:Datum:Temp:Abs-Feuchte:Windchill:Wind:
Aussen-T/F 176 07-01-2014 14:35:00 13.4 C 8.02 g/m*3 13.4 C 4.8 km/h
177 07-01-2014 14:40:00 13.6 C 8.12 g/m*3 13.6 C 6.4 km/h
178 07-01-2014 14:45:00 13.6 C 8.24 g/m*3 13.6 C 11.3 km/h
179 07-01-2014 14:50:00 13.3 C 8.66 g/m*3 13.3 C 3.2 km/h
180 07-01-2014 14:55:00 13.1 C 7.87 g/m*3 13.1 C 8.1 km/h
181 07-01-2014 15:00:00 13.2 C 7.81 g/m*3 13.2 C 9.7 km/h
182 07-01-2014 15:05:00 13.2 C 8.15 g/m*3 13.2 C 6.4 km/h
183 07-01-2014 15:10:00 13.1 C 8.33 g/m*3 13.1 C 6.4 km/h
184 07-01-2014 15:15:00 13.1 C 8.1 g/m*3 13.1 C 6.4 km/h
185 07-01-2014 15:20:00 13.1 C 8.33 g/m*3 13.1 C 4.8 km/h
186 07-01-2014 15:25:00 13.1 C 7.99 g/m*3 13.1 C 8.1 km/h
187 07-01-2014 15:30:00 13.3 C 7.97 g/m*3 13.3 C 9.7 km/h
188 07-01-2014 15:35:00 13.4 C 7.9 g/m*3 13.4 C 11.3 km/h
189 07-01-2014 15:40:00 13.6 C 8.36 g/m*3 13.6 C 3.2 km/h
190 07-01-2014 15:45:00 13.4 C 8.14 g/m*3 13.4 C 4.8 km/h
191 07-01-2014 15:50:00 13.3 C 8.2 g/m*3 13.3 C 4.8 km/h
192 07-01-2014 15:55:00 13.2 C 8.04 g/m*3 13.2 C 4.8 km/h
193 07-01-2014 16:00:00 13.2 C 8.61 g/m*3 13.2 C 4.8 km/h
194 07-01-2014 16:05:00 12.9 C 8.11 g/m*3 12.9 C 1.6 km/h
195 07-01-2014 16:10:00 12.9 C 8.11 g/m*3 12.9 C 1.6 km/h
196 07-01-2014 16:15:00 12.8 C 8.06 g/m*3 12.8 C 3.2 km/h
197 07-01-2014 16:20:00 12.6 C 8.63 g/m*3 12.6 C 4.8 km/h
198 07-01-2014 16:25:00 12.1 C 8.58 g/m*3 12.1 C 3.2 km/h
199 07-01-2014 16:30:00 11.6 C 8.42 g/m*3 11.6 C 1.6 km/h
200 07-01-2014 16:35:00 11.2 C 8.21 g/m*3 11.2 C 3.2 km/h
Sensor: Nr:Datum:Temp:Abs-Feuchte:Windchill:Wind:
Aussen-T/F 201 07-01-2014 16:40:00 10.9 C 8.16 g/m*3 10.9 C 3.2 km/h
202 07-01-2014 16:45:00 10.8 C 8.3 g/m*3 10.8 C 3.2 km/h
203 07-01-2014 16:50:00 10.7 C 8.35 g/m*3 10.7 C 1.6 km/h
204 07-01-2014 16:55:00 10.6 C 8.3 g/m*3 10.6 C 4.8 km/h
205 07-01-2014 17:00:00 10.6 C 8.39 g/m*3 10.6 C 3.2 km/h
206 07-01-2014 17:05:00 10.6 C 8.49 g/m*3 10.6 C 0 km/h
207 07-01-2014 17:10:00 10.6 C 8.39 g/m*3 10.6 C 3.2 km/h
208 07-01-2014 17:15:00 10.6 C 8.39 g/m*3 10.6 C 3.2 km/h
209 07-01-2014 17:20:00 10.7 C 8.15 g/m*3 10.7 C 1.6 km/h
210 07-01-2014 17:25:00 10.8 C 8.4 g/m*3 10.8 C 1.6 km/h
211 07-01-2014 17:30:00 10.7 C 8.45 g/m*3 10.7 C 0 km/h
212 07-01-2014 17:35:00 10.6 C 8.39 g/m*3 10.6 C 0 km/h
213 07-01-2014 17:40:00 10.6 C 8.39 g/m*3 10.6 C 3.2 km/h
214 07-01-2014 17:45:00 10.6 C 8.39 g/m*3 10.6 C 1.6 km/h
215 07-01-2014 17:50:00 10.6 C 8.39 g/m*3 10.6 C 3.2 km/h
216 07-01-2014 17:55:00 10.6 C 8.39 g/m*3 10.6 C 3.2 km/h
217 07-01-2014 18:00:00 10.6 C 8.39 g/m*3 10.6 C 3.2 km/h
218 07-01-2014 18:05:00 10.4 C 8.29 g/m*3 10.4 C 4.8 km/h
219 07-01-2014 18:10:00 10.3 C 8.24 g/m*3 10.3 C 1.6 km/h
220 07-01-2014 18:15:00 10.2 C 8.28 g/m*3 10.2 C 3.2 km/h
221 07-01-2014 18:20:00 10.2 C 8.28 g/m*3 10.2 C 3.2 km/h
222 07-01-2014 18:25:00 10.1 C 8.32 g/m*3 10.1 C 1.6 km/h
223 07-01-2014 18:30:00 10.1 C 8.42 g/m*3 10.1 C 3.2 km/h
224 07-01-2014 18:35:00 10.1 C 8.42 g/m*3 10.1 C 3.2 km/h
225 07-01-2014 18:40:00 10.1 C 8.32 g/m*3 10.1 C 3.2 km/h
Sensor: Nr:Datum:Temp:Abs-Feuchte:Windchill:Wind:
Aussen-T/F 226 07-01-2014 18:45:00 10.2 C 8.37 g/m*3 10.2 C 4.8 km/h
227 07-01-2014 18:50:00 10.3 C 8.43 g/m*3 10.3 C 3.2 km/h
228 07-01-2014 18:55:00 10.4 C 8.48 g/m*3 10.4 C 1.6 km/h
229 07-01-2014 19:00:00 10.5 C 8.53 g/m*3 10.5 C 3.2 km/h
230 07-01-2014 19:05:00 10.5 C 8.53 g/m*3 10.5 C 3.2 km/h
231 07-01-2014 19:10:00 10.4 C 8.58 g/m*3 10.4 C 0 km/h
232 07-01-2014 19:15:00 10.4 C 8.58 g/m*3 10.4 C 0 km/h
233 07-01-2014 19:20:00 10.4 C 8.48 g/m*3 10.4 C 1.6 km/h
234 07-01-2014 19:25:00 10.5 C 8.63 g/m*3 10.5 C 1.6 km/h
235 07-01-2014 19:30:00 10.4 C 8.67 g/m*3 10.4 C 4.8 km/h
236 07-01-2014 19:35:00 10.4 C 8.67 g/m*3 10.4 C 1.6 km/h
237 07-01-2014 19:40:00 10.4 C 8.77 g/m*3 10.4 C 3.2 km/h
238 07-01-2014 19:45:00 10.3 C 8.81 g/m*3 10.3 C 1.6 km/h
239 07-01-2014 19:50:00 10.3 C 8.81 g/m*3 10.3 C 3.2 km/h
240 07-01-2014 19:55:00 10.3 C 8.81 g/m*3 10.3 C 1.6 km/h
241 07-01-2014 20:00:00 10.3 C 8.91 g/m*3 10.3 C 3.2 km/h
242 07-01-2014 20:05:00 10.2 C 8.85 g/m*3 10.2 C 1.6 km/h
243 07-01-2014 20:10:00 10 C 8.74 g/m*3 10 C 0 km/h
244 07-01-2014 20:15:00 9.9 C 8.68 g/m*3 9.9 C 3.2 km/h
245 07-01-2014 20:20:00 9.7 C 8.57 g/m*3 9.7 C 1.6 km/h
246 07-01-2014 20:25:00 9.6 C 8.52 g/m*3 9.6 C 3.2 km/h
247 07-01-2014 20:30:00 9.5 C 8.56 g/m*3 9.5 C 0 km/h
248 07-01-2014 20:35:00 9.4 C 8.5 g/m*3 9.4 C 1.6 km/h
249 07-01-2014 20:40:00 9.3 C 8.45 g/m*3 9.3 C 3.2 km/h
250 07-01-2014 20:45:00 9.2 C 8.39 g/m*3 9.2 C 1.6 km/h
Sensor: Nr:Datum:Temp:Abs-Feuchte:Windchill:Wind:
Aussen-T/F 251 07-01-2014 20:50:00 9.2 C 8.48 g/m*3 9.2 C 3.2 km/h
252 07-01-2014 20:55:00 9.3 C 8.54 g/m*3 9.3 C 0 km/h
253 07-01-2014 21:00:00 9.4 C 8.59 g/m*3 9.4 C 1.6 km/h
254 07-01-2014 21:05:00 9.6 C 8.7 g/m*3 9.6 C 3.2 km/h
255 07-01-2014 21:10:00 9.6 C 8.7 g/m*3 8.91 C 6.4 km/h
256 07-01-2014 21:15:00 9.7 C 8.76 g/m*3 9.7 C 1.6 km/h
257 07-01-2014 21:20:00 9.7 C 8.76 g/m*3 9.7 C 3.2 km/h
258 07-01-2014 21:25:00 9.8 C 8.81 g/m*3 9.8 C 1.6 km/h
259 07-01-2014 21:30:00 9.8 C 8.81 g/m*3 9.8 C 0 km/h
260 07-01-2014 21:35:00 9.8 C 8.72 g/m*3 9.8 C 1.6 km/h
261 07-01-2014 21:40:00 9.9 C 8.87 g/m*3 9.9 C 3.2 km/h
262 07-01-2014 21:45:00 10 C 8.83 g/m*3 10 C 3.2 km/h
263 07-01-2014 21:50:00 10.1 C 8.89 g/m*3 10.1 C 3.2 km/h
264 07-01-2014 21:55:00 10.1 C 8.89 g/m*3 10.1 C 3.2 km/h
265 07-01-2014 22:00:00 10.1 C 8.79 g/m*3 10.1 C 3.2 km/h
266 07-01-2014 22:05:00 10.2 C 8.85 g/m*3 10.2 C 4.8 km/h
267 07-01-2014 22:10:00 10.2 C 8.76 g/m*3 10.2 C 1.6 km/h
268 07-01-2014 22:15:00 10.1 C 8.7 g/m*3 10.1 C 0 km/h
269 07-01-2014 22:20:00 10 C 8.74 g/m*3 10 C 1.6 km/h
270 07-01-2014 22:25:00 10 C 8.74 g/m*3 10 C 0 km/h
271 07-01-2014 22:30:00 10 C 8.74 g/m*3 10 C 0 km/h
272 07-01-2014 22:35:00 10.1 C 8.89 g/m*3 10.1 C 3.2 km/h
273 07-01-2014 22:40:00 10.2 C 8.85 g/m*3 10.2 C 3.2 km/h
274 07-01-2014 22:45:00 10.2 C 8.85 g/m*3 10.2 C 3.2 km/h
275 07-01-2014 22:50:00 10.3 C 8.91 g/m*3 10.3 C 3.2 km/h
Sensor: Nr:Datum:Temp:Abs-Feuchte:Windchill:Wind:
Aussen-T/F 276 07-01-2014 22:55:00 10.3 C 8.81 g/m*3 10.3 C 3.2 km/h
277 07-01-2014 23:00:00 10.3 C 8.81 g/m*3 10.3 C 3.2 km/h
278 07-01-2014 23:05:00 10.2 C 8.76 g/m*3 10.2 C 3.2 km/h
279 07-01-2014 23:10:00 10.2 C 8.85 g/m*3 10.2 C 3.2 km/h
280 07-01-2014 23:15:00 10.2 C 8.85 g/m*3 10.2 C 1.6 km/h
281 07-01-2014 23:20:00 10.3 C 8.91 g/m*3 10.3 C 1.6 km/h
282 07-01-2014 23:25:00 10.3 C 8.91 g/m*3 10.3 C 3.2 km/h
283 07-01-2014 23:30:00 10.3 C 8.91 g/m*3 10.3 C 3.2 km/h
284 07-01-2014 23:35:00 10.3 C 8.91 g/m*3 10.3 C 1.6 km/h
285 07-01-2014 23:40:00 10.4 C 8.96 g/m*3 10.4 C 3.2 km/h
286 07-01-2014 23:45:00 10.6 C 9.08 g/m*3 10.6 C 3.2 km/h
287 07-01-2014 23:50:00 10.8 C 9.09 g/m*3 10.8 C 4.8 km/h
288 07-01-2014 23:55:00 11 C 9.01 g/m*3 11 C 3.2 km/h
289 08-01-2014 00:00:00 11.1 C 9.07 g/m*3 11.1 C 1.6 km/h
290 08-01-2014 00:05:00 11.3 C 9.08 g/m*3 11.3 C 6.4 km/h
291 08-01-2014 00:10:00 11.3 C 9.08 g/m*3 11.3 C 12.9 km/h
292 08-01-2014 00:15:00 11.4 C 9.14 g/m*3 11.4 C 4.8 km/h
293 08-01-2014 00:20:00 11.5 C 9.09 g/m*3 11.5 C 3.2 km/h
294 08-01-2014 00:25:00 11.4 C 9.03 g/m*3 11.4 C 4.8 km/h
295 08-01-2014 00:30:00 11.2 C 9.02 g/m*3 11.2 C 1.6 km/h
296 08-01-2014 00:35:00 11.1 C 9.07 g/m*3 11.1 C 6.4 km/h
297 08-01-2014 00:40:00 11.3 C 9.08 g/m*3 11.3 C 4.8 km/h
298 08-01-2014 00:45:00 11.3 C 9.08 g/m*3 11.3 C 6.4 km/h
299 08-01-2014 00:50:00 11.3 C 8.98 g/m*3 11.3 C 8.1 km/h
300 08-01-2014 00:55:00 11.4 C 9.03 g/m*3 11.4 C 4.8 km/h
Sensor: Nr:Datum:Temp:Abs-Feuchte:Windchill:Wind:
Aussen-T/F 301 08-01-2014 01:00:00 11.3 C 8.98 g/m*3 11.3 C 3.2 km/h
302 08-01-2014 01:05:00 11.2 C 8.92 g/m*3 11.2 C 6.4 km/h
303 08-01-2014 01:10:00 10.9 C 8.85 g/m*3 10.9 C 1.6 km/h
304 08-01-2014 01:15:00 10.9 C 8.95 g/m*3 9.28 C 12.9 km/h
305 08-01-2014 01:20:00 11.3 C 9.08 g/m*3 11.3 C 8.1 km/h
306 08-01-2014 01:25:00 11.6 C 9.04 g/m*3 11.6 C 9.7 km/h
307 08-01-2014 01:30:00 11.9 C 9.11 g/m*3 11.9 C 16.1 km/h
308 08-01-2014 01:35:00 12.1 C 9.22 g/m*3 12.1 C 9.7 km/h
309 08-01-2014 01:40:00 11.9 C 9.11 g/m*3 11.9 C 4.8 km/h
310 08-01-2014 01:45:00 11.8 C 9.16 g/m*3 11.8 C 1.6 km/h
311 08-01-2014 01:50:00 11.7 C 9.1 g/m*3 11.7 C 8.1 km/h
312 08-01-2014 01:55:00 11.7 C 9.2 g/m*3 11.7 C 6.4 km/h
313 08-01-2014 02:00:00 11.7 C 9.2 g/m*3 11.7 C 1.6 km/h
314 08-01-2014 02:05:00 11.7 C 9.2 g/m*3 11.7 C 4.8 km/h
315 08-01-2014 02:10:00 11.8 C 9.16 g/m*3 11.8 C 12.9 km/h
316 08-01-2014 02:15:00 11.9 C 9.21 g/m*3 11.9 C 3.2 km/h
317 08-01-2014 02:20:00 11.8 C 9.05 g/m*3 11.8 C 4.8 km/h
318 08-01-2014 02:25:00 11.6 C 9.15 g/m*3 11.6 C 8.1 km/h
319 08-01-2014 02:30:00 11.6 C 9.15 g/m*3 11.6 C 6.4 km/h
320 08-01-2014 02:35:00 11.4 C 9.03 g/m*3 11.4 C 6.4 km/h
321 08-01-2014 02:40:00 11.3 C 8.98 g/m*3 11.3 C 4.8 km/h
322 08-01-2014 02:45:00 11.2 C 8.92 g/m*3 11.2 C 4.8 km/h
323 08-01-2014 02:50:00 11.2 C 9.02 g/m*3 11.2 C 3.2 km/h
324 08-01-2014 02:55:00 11.1 C 8.96 g/m*3 11.1 C 3.2 km/h
325 08-01-2014 03:00:00 10.9 C 8.95 g/m*3 10.9 C 3.2 km/h
Sensor: Nr:Datum:Temp:Abs-Feuchte:Windchill:Wind:
Aussen-T/F 326 08-01-2014 03:05:00 10.9 C 8.95 g/m*3 10.9 C 1.6 km/h
327 08-01-2014 03:10:00 10.8 C 8.9 g/m*3 10.29 C 6.4 km/h
328 08-01-2014 03:15:00 10.9 C 9.05 g/m*3 10.41 C 6.4 km/h
329 08-01-2014 03:20:00 11.3 C 9.08 g/m*3 11.3 C 8.1 km/h
330 08-01-2014 03:25:00 11.3 C 9.08 g/m*3 11.3 C 1.6 km/h
331 08-01-2014 03:30:00 11.1 C 8.96 g/m*3 11.1 C 4.8 km/h
332 08-01-2014 03:35:00 11.2 C 9.12 g/m*3 11.2 C 8.1 km/h
333 08-01-2014 03:40:00 11.3 C 9.18 g/m*3 11.3 C 3.2 km/h
334 08-01-2014 03:45:00 11.3 C 9.18 g/m*3 11.3 C 1.6 km/h
335 08-01-2014 03:50:00 11.1 C 9.17 g/m*3 11.1 C 3.2 km/h
336 08-01-2014 03:55:00 10.9 C 9.05 g/m*3 10.9 C 3.2 km/h
337 08-01-2014 04:00:00 10.9 C 9.15 g/m*3 10.9 C 3.2 km/h
338 08-01-2014 04:05:00 10.9 C 9.15 g/m*3 10.9 C 0 km/h
339 08-01-2014 04:10:00 10.8 C 9.09 g/m*3 10.8 C 1.6 km/h
340 08-01-2014 04:15:00 10.8 C 9.19 g/m*3 10.8 C 4.8 km/h
341 08-01-2014 04:20:00 10.9 C 9.15 g/m*3 10.9 C 4.8 km/h
342 08-01-2014 04:25:00 10.9 C 9.05 g/m*3 10.04 C 8.1 km/h
343 08-01-2014 04:30:00 10.9 C 9.05 g/m*3 10.9 C 4.8 km/h
344 08-01-2014 04:35:00 10.9 C 9.05 g/m*3 10.9 C 1.6 km/h
345 08-01-2014 04:40:00 10.8 C 8.99 g/m*3 10.8 C 3.2 km/h
346 08-01-2014 04:45:00 10.8 C 9.09 g/m*3 10.8 C 1.6 km/h
347 08-01-2014 04:50:00 10.7 C 9.04 g/m*3 10.7 C 1.6 km/h
348 08-01-2014 04:55:00 10.8 C 9.09 g/m*3 10.8 C 4.8 km/h
349 08-01-2014 05:00:00 10.9 C 9.15 g/m*3 10.41 C 6.4 km/h
350 08-01-2014 05:05:00 11.1 C 9.17 g/m*3 11.1 C 9.7 km/h
Sensor: Nr:Datum:Temp:Abs-Feuchte:Windchill:Wind:
Aussen-T/F 351 08-01-2014 05:10:00 11.2 C 9.12 g/m*3 11.2 C 3.2 km/h
352 08-01-2014 05:15:00 11.3 C 9.18 g/m*3 11.3 C 6.4 km/h
353 08-01-2014 05:20:00 11.3 C 9.08 g/m*3 11.3 C 12.9 km/h
354 08-01-2014 05:25:00 11.4 C 9.14 g/m*3 11.4 C 8.1 km/h
355 08-01-2014 05:30:00 11.5 C 9.09 g/m*3 11.5 C 8.1 km/h
356 08-01-2014 05:35:00 11.6 C 9.04 g/m*3 11.6 C 6.4 km/h
357 08-01-2014 05:40:00 11.8 C 9.16 g/m*3 11.8 C 12.9 km/h
358 08-01-2014 05:45:00 11.9 C 9.11 g/m*3 11.9 C 11.3 km/h
359 08-01-2014 05:50:00 12.1 C 9.12 g/m*3 12.1 C 24.1 km/h
360 08-01-2014 05:55:00 12.1 C 9.12 g/m*3 12.1 C 11.3 km/h
361 08-01-2014 06:00:00 12.2 C 9.06 g/m*3 12.2 C 27.4 km/h
362 08-01-2014 06:05:00 12.3 C 9.12 g/m*3 12.3 C 16.1 km/h
363 08-01-2014 06:10:00 12.2 C 9.06 g/m*3 12.2 C 12.9 km/h
364 08-01-2014 06:15:00 12.2 C 9.17 g/m*3 12.2 C 9.7 km/h
365 08-01-2014 06:20:00 12.2 C 9.06 g/m*3 12.2 C 12.9 km/h
366 08-01-2014 06:25:00 12.1 C 9.01 g/m*3 12.1 C 12.9 km/h
367 08-01-2014 06:30:00 12.1 C 9.01 g/m*3 12.1 C 11.3 km/h
368 08-01-2014 06:35:00 12.1 C 9.01 g/m*3 12.1 C 12.9 km/h
369 08-01-2014 06:40:00 12.2 C 8.96 g/m*3 12.2 C 12.9 km/h
370 08-01-2014 06:45:00 12.2 C 8.96 g/m*3 12.2 C 12.9 km/h
371 08-01-2014 06:50:00 12.2 C 8.96 g/m*3 12.2 C 6.4 km/h
372 08-01-2014 06:55:00 12.1 C 8.9 g/m*3 12.1 C 14.5 km/h
373 08-01-2014 07:00:00 12.1 C 8.9 g/m*3 12.1 C 11.3 km/h
374 08-01-2014 07:05:00 12.1 C 8.9 g/m*3 12.1 C 9.7 km/h
375 08-01-2014 07:10:00 12.1 C 8.9 g/m*3 12.1 C 9.7 km/h
Sensor: Nr:Datum:Temp:Abs-Feuchte:Windchill:Wind:
Aussen-T/F 376 08-01-2014 07:15:00 12.1 C 8.9 g/m*3 12.1 C 12.9 km/h
377 08-01-2014 07:20:00 12 C 8.85 g/m*3 12 C 12.9 km/h
378 08-01-2014 07:25:00 11.9 C 8.79 g/m*3 11.9 C 8.1 km/h
379 08-01-2014 07:30:00 11.9 C 8.79 g/m*3 11.9 C 11.3 km/h
380 08-01-2014 07:35:00 11.8 C 8.74 g/m*3 11.8 C 9.7 km/h
381 08-01-2014 07:40:00 11.8 C 8.74 g/m*3 11.8 C 12.9 km/h
382 08-01-2014 07:45:00 11.9 C 8.79 g/m*3 11.9 C 11.3 km/h
383 08-01-2014 07:50:00 11.9 C 8.79 g/m*3 11.9 C 9.7 km/h
384 08-01-2014 07:55:00 11.9 C 8.79 g/m*3 11.9 C 11.3 km/h
385 08-01-2014 08:00:00 11.7 C 8.68 g/m*3 11.7 C 12.9 km/h
386 08-01-2014 08:05:00 11.7 C 8.68 g/m*3 11.7 C 9.7 km/h
387 08-01-2014 08:10:00 11.7 C 8.68 g/m*3 11.7 C 8.1 km/h
388 08-01-2014 08:15:00 11.5 C 8.68 g/m*3 11.5 C 4.8 km/h
389 08-01-2014 08:20:00 11.4 C 8.62 g/m*3 11.4 C 4.8 km/h
390 08-01-2014 08:25:00 11.3 C 8.57 g/m*3 11.3 C 12.9 km/h
391 08-01-2014 08:30:00 11.3 C 8.57 g/m*3 11.3 C 8.1 km/h
392 08-01-2014 08:35:00 11.3 C 8.57 g/m*3 11.3 C 9.7 km/h
393 08-01-2014 08:40:00 11.3 C 8.57 g/m*3 11.3 C 9.7 km/h
394 08-01-2014 08:45:00 11.4 C 8.62 g/m*3 11.4 C 9.7 km/h
395 08-01-2014 08:50:00 11.4 C 8.62 g/m*3 11.4 C 9.7 km/h
396 08-01-2014 08:55:00 11.4 C 8.52 g/m*3 11.4 C 11.3 km/h
397 08-01-2014 09:00:00 11.4 C 8.52 g/m*3 11.4 C 11.3 km/h
398 08-01-2014 09:05:00 11.3 C 8.47 g/m*3 11.3 C 8.1 km/h
399 08-01-2014 09:10:00 11.3 C 8.47 g/m*3 11.3 C 4.8 km/h
400 08-01-2014 10:35:00 11.4 C 8.52 g/m*3 11.4 C 12.9 km/h
Sensor: Nr:Datum:Temp:Abs-Feuchte:Windchill:Wind:
Aussen-T/F 401 08-01-2014 10:40:00 11.4 C 8.42 g/m*3 11.4 C 11.3 km/h
402 08-01-2014 10:45:00 11.6 C 8.52 g/m*3 11.6 C 9.7 km/h
403 08-01-2014 10:50:00 11.6 C 8.42 g/m*3 11.6 C 6.4 km/h
404 08-01-2014 10:55:00 11.6 C 8.42 g/m*3 11.6 C 8.1 km/h
405 08-01-2014 11:00:00 11.4 C 8.42 g/m*3 11.4 C 12.9 km/h
406 08-01-2014 11:05:00 11.4 C 8.42 g/m*3 11.4 C 12.9 km/h
407 08-01-2014 11:10:00 11.4 C 8.42 g/m*3 11.4 C 6.4 km/h
408 08-01-2014 11:15:00 11.3 C 8.36 g/m*3 11.3 C 8.1 km/h
409 08-01-2014 11:20:00 11.2 C 8.31 g/m*3 11.2 C 9.7 km/h
410 08-01-2014 11:25:00 11 C 8.31 g/m*3 11 C 4.8 km/h
411 08-01-2014 11:30:00 11.1 C 8.36 g/m*3 11.1 C 6.4 km/h
412 08-01-2014 11:35:00 11.1 C 8.26 g/m*3 11.1 C 8.1 km/h
413 08-01-2014 11:40:00 11.1 C 8.36 g/m*3 11.1 C 6.4 km/h
414 08-01-2014 11:45:00 11.1 C 8.26 g/m*3 11.1 C 6.4 km/h
415 08-01-2014 11:50:00 11.1 C 8.36 g/m*3 11.1 C 3.2 km/h
416 08-01-2014 11:55:00 10.9 C 8.36 g/m*3 10.9 C 3.2 km/h
417 08-01-2014 12:00:00 10.6 C 8.2 g/m*3 10.06 C 6.4 km/h
418 08-01-2014 12:05:00 10.8 C 8.2 g/m*3 10.8 C 4.8 km/h
419 08-01-2014 12:10:00 10.8 C 8.3 g/m*3 10.8 C 1.6 km/h
420 08-01-2014 12:15:00 10.7 C 8.35 g/m*3 10.7 C 3.2 km/h
421 08-01-2014 12:20:00 10.7 C 8.35 g/m*3 10.7 C 4.8 km/h
422 08-01-2014 12:25:00 11.2 C 8.11 g/m*3 11.2 C 6.4 km/h
423 08-01-2014 12:30:00 11.4 C 8.11 g/m*3 11.4 C 8.1 km/h
424 08-01-2014 12:35:00 11.7 C 8.37 g/m*3 11.7 C 8.1 km/h
425 08-01-2014 12:40:00 11.8 C 8.31 g/m*3 11.8 C 6.4 km/h
Sensor: Nr:Datum:Temp:Abs-Feuchte:Windchill:Wind:
Aussen-T/F 426 08-01-2014 12:45:00 11.8 C 8.31 g/m*3 11.8 C 1.6 km/h
427 08-01-2014 12:50:00 11.8 C 8.31 g/m*3 11.8 C 11.3 km/h
428 08-01-2014 12:55:00 11.8 C 8.31 g/m*3 11.8 C 14.5 km/h
429 08-01-2014 13:00:00 12.4 C 8.3 g/m*3 12.4 C 16.1 km/h
430 08-01-2014 13:05:00 12.5 C 8.36 g/m*3 12.5 C 11.3 km/h
431 08-01-2014 13:10:00 12.6 C 8.41 g/m*3 12.6 C 9.7 km/h
432 08-01-2014 13:15:00 12.5 C 8.36 g/m*3 12.5 C 4.8 km/h
433 08-01-2014 13:20:00 12.5 C 8.36 g/m*3 12.5 C 11.3 km/h
434 08-01-2014 13:25:00 12.5 C 8.36 g/m*3 12.5 C 11.3 km/h
435 08-01-2014 13:30:00 12.6 C 8.52 g/m*3 12.6 C 4.8 km/h
436 08-01-2014 13:35:00 12.5 C 8.36 g/m*3 12.5 C 6.4 km/h
437 08-01-2014 13:40:00 12.4 C 8.3 g/m*3 12.4 C 11.3 km/h
438 08-01-2014 13:45:00 12.4 C 8.3 g/m*3 12.4 C 16.1 km/h
439 08-01-2014 13:50:00 12.3 C 8.25 g/m*3 12.3 C 12.9 km/h
440 08-01-2014 13:55:00 12.3 C 8.25 g/m*3 12.3 C 4.8 km/h
441 08-01-2014 14:00:00 12.2 C 8.31 g/m*3 12.2 C 4.8 km/h
442 08-01-2014 14:05:00 12.2 C 8.42 g/m*3 12.2 C 8.1 km/h
443 08-01-2014 14:10:00 12.2 C 8.42 g/m*3 12.2 C 6.4 km/h
444 08-01-2014 14:15:00 12.2 C 8.42 g/m*3 12.2 C 3.2 km/h
445 08-01-2014 14:20:00 12.2 C 8.52 g/m*3 12.2 C 6.4 km/h
446 08-01-2014 14:25:00 12.1 C 8.47 g/m*3 12.1 C 12.9 km/h
447 08-01-2014 14:30:00 12.1 C 8.36 g/m*3 12.1 C 14.5 km/h
448 08-01-2014 14:35:00 12.1 C 8.36 g/m*3 12.1 C 6.4 km/h
449 08-01-2014 14:40:00 11.9 C 8.26 g/m*3 11.9 C 6.4 km/h
450 08-01-2014 14:45:00 11.9 C 8.37 g/m*3 11.9 C 11.3 km/h
Sensor: Nr:Datum:Temp:Abs-Feuchte:Windchill:Wind:
Aussen-T/F 451 08-01-2014 14:50:00 11.7 C 8.26 g/m*3 11.7 C 12.9 km/h
452 08-01-2014 14:55:00 11.6 C 8.42 g/m*3 11.6 C 3.2 km/h
453 08-01-2014 15:00:00 11.4 C 8.21 g/m*3 11.4 C 12.9 km/h
454 08-01-2014 15:05:00 11.6 C 8.32 g/m*3 11.6 C 14.5 km/h
455 08-01-2014 15:10:00 11.7 C 8.37 g/m*3 11.7 C 9.7 km/h
456 08-01-2014 15:15:00 11.7 C 8.37 g/m*3 11.7 C 4.8 km/h
457 08-01-2014 15:20:00 11.7 C 8.26 g/m*3 11.7 C 8.1 km/h
458 08-01-2014 15:25:00 11.6 C 8.32 g/m*3 11.6 C 6.4 km/h
459 08-01-2014 15:30:00 11.4 C 8.31 g/m*3 11.4 C 12.9 km/h
460 08-01-2014 15:35:00 11.3 C 8.16 g/m*3 11.3 C 8.1 km/h
461 08-01-2014 15:40:00 11.4 C 8.21 g/m*3 11.4 C 4.8 km/h
462 08-01-2014 15:45:00 11.4 C 8.21 g/m*3 11.4 C 6.4 km/h
463 08-01-2014 15:50:00 11.3 C 8.16 g/m*3 11.3 C 4.8 km/h
464 08-01-2014 15:55:00 11.4 C 8.11 g/m*3 11.4 C 8.1 km/h
465 08-01-2014 16:00:00 11.3 C 8.06 g/m*3 11.3 C 8.1 km/h
466 08-01-2014 16:05:00 11.2 C 8.11 g/m*3 11.2 C 6.4 km/h
467 08-01-2014 16:10:00 11.1 C 8.16 g/m*3 11.1 C 4.8 km/h
468 08-01-2014 16:15:00 10.9 C 8.16 g/m*3 10.41 C 6.4 km/h
469 08-01-2014 16:20:00 10.6 C 8.2 g/m*3 10.6 C 4.8 km/h
470 08-01-2014 16:25:00 10.3 C 8.04 g/m*3 10.3 C 4.8 km/h
471 08-01-2014 16:30:00 10.3 C 8.04 g/m*3 9.72 C 6.4 km/h
472 08-01-2014 16:35:00 10.2 C 8.09 g/m*3 10.2 C 3.2 km/h
473 08-01-2014 16:40:00 9.9 C 7.94 g/m*3 9.9 C 4.8 km/h
474 08-01-2014 16:45:00 9.6 C 8.06 g/m*3 9.6 C 4.8 km/h
475 08-01-2014 16:50:00 9.6 C 8.06 g/m*3 9.6 C 3.2 km/h
Sensor: Nr:Datum:Temp:Abs-Feuchte:Windchill:Wind:
Aussen-T/F 476 08-01-2014 16:55:00 9.6 C 8.06 g/m*3 9.6 C 4.8 km/h
477 08-01-2014 17:00:00 9.2 C 7.95 g/m*3 9.2 C 4.8 km/h
478 08-01-2014 17:05:00 9.2 C 7.95 g/m*3 9.2 C 3.2 km/h
479 08-01-2014 17:10:00 9.2 C 7.95 g/m*3 9.2 C 3.2 km/h
480 08-01-2014 17:15:00 9 C 7.93 g/m*3 9 C 3.2 km/h
481 08-01-2014 17:20:00 8.9 C 7.88 g/m*3 8.9 C 3.2 km/h
482 08-01-2014 17:25:00 9 C 7.93 g/m*3 9 C 3.2 km/h
483 08-01-2014 17:30:00 8.9 C 7.88 g/m*3 8.9 C 3.2 km/h
484 08-01-2014 17:35:00 9 C 8.02 g/m*3 9 C 3.2 km/h
485 08-01-2014 17:40:00 9.1 C 7.99 g/m*3 9.1 C 1.6 km/h
486 08-01-2014 17:45:00 9 C 7.93 g/m*3 9 C 0 km/h
487 08-01-2014 17:50:00 8.9 C 7.88 g/m*3 8.9 C 1.6 km/h
488 08-01-2014 17:55:00 8.7 C 7.78 g/m*3 8.7 C 1.6 km/h
489 08-01-2014 18:00:00 8.6 C 7.82 g/m*3 8.6 C 3.2 km/h
490 08-01-2014 18:05:00 8.6 C 7.82 g/m*3 8.6 C 3.2 km/h
491 08-01-2014 18:10:00 8.5 C 7.77 g/m*3 8.5 C 3.2 km/h
492 08-01-2014 18:15:00 8.3 C 7.67 g/m*3 8.3 C 0 km/h
493 08-01-2014 18:20:00 8.2 C 7.7 g/m*3 8.2 C 0 km/h
494 08-01-2014 18:25:00 8.1 C 7.66 g/m*3 8.1 C 0 km/h
495 08-01-2014 18:30:00 8.1 C 7.66 g/m*3 8.1 C 0 km/h
496 08-01-2014 18:35:00 8.1 C 7.66 g/m*3 8.1 C 0 km/h
497 08-01-2014 18:40:00 8.1 C 7.74 g/m*3 8.1 C 1.6 km/h
498 08-01-2014 18:45:00 8.1 C 7.74 g/m*3 8.1 C 1.6 km/h
499 08-01-2014 18:50:00 8.1 C 7.74 g/m*3 8.1 C 3.2 km/h
500 08-01-2014 18:55:00 7.6 C 7.49 g/m*3 7.6 C 0 km/h
Sensor: Nr:Datum:Temp:Abs-Feuchte:Windchill:Wind:
Aussen-T/F 501 08-01-2014 19:00:00 7.6 C 7.49 g/m*3 7.6 C 0 km/h
502 08-01-2014 19:05:00 7.4 C 7.4 g/m*3 7.4 C 0 km/h
503 08-01-2014 19:10:00 7.4 C 7.48 g/m*3 7.4 C 0 km/h
504 08-01-2014 19:15:00 7.4 C 7.48 g/m*3 7.4 C 1.6 km/h
505 08-01-2014 19:20:00 7.3 C 7.43 g/m*3 7.3 C 0 km/h
506 08-01-2014 19:25:00 7.3 C 7.51 g/m*3 7.3 C 0 km/h
507 08-01-2014 19:30:00 7.3 C 7.51 g/m*3 7.3 C 0 km/h
508 08-01-2014 19:35:00 7.3 C 7.51 g/m*3 7.3 C 0 km/h
509 08-01-2014 19:40:00 7.3 C 7.51 g/m*3 7.3 C 0 km/h
510 08-01-2014 19:45:00 7.2 C 7.46 g/m*3 7.2 C 0 km/h
511 08-01-2014 19:50:00 7.2 C 7.46 g/m*3 7.2 C 0 km/h
512 08-01-2014 19:55:00 7.2 C 7.46 g/m*3 7.2 C 1.6 km/h
513 08-01-2014 20:00:00 7.2 C 7.46 g/m*3 7.2 C 0 km/h
514 08-01-2014 20:05:00 7.2 C 7.46 g/m*3 7.2 C 0 km/h
515 08-01-2014 20:10:00 7.2 C 7.46 g/m*3 7.2 C 0 km/h
516 08-01-2014 20:15:00 7.2 C 7.46 g/m*3 7.2 C 0 km/h
517 08-01-2014 20:20:00 7.1 C 7.41 g/m*3 7.1 C 1.6 km/h
518 08-01-2014 20:25:00 7 C 7.36 g/m*3 7 C 0 km/h
519 08-01-2014 20:30:00 6.9 C 7.31 g/m*3 6.9 C 0 km/h
520 08-01-2014 20:35:00 6.8 C 7.27 g/m*3 6.8 C 0 km/h
521 08-01-2014 20:40:00 6.8 C 7.27 g/m*3 6.8 C 0 km/h
522 08-01-2014 20:45:00 6.8 C 7.27 g/m*3 6.8 C 0 km/h
523 08-01-2014 20:50:00 6.8 C 7.34 g/m*3 6.8 C 0 km/h
524 08-01-2014 20:55:00 6.8 C 7.34 g/m*3 6.8 C 0 km/h
525 08-01-2014 21:00:00 6.8 C 7.34 g/m*3 6.8 C 0 km/h
Sensor: Nr:Datum:Temp:Abs-Feuchte:Windchill:Wind:
Aussen-T/F 526 08-01-2014 21:05:00 6.8 C 7.27 g/m*3 6.8 C 0 km/h
527 08-01-2014 21:10:00 6.8 C 7.34 g/m*3 6.8 C 0 km/h
528 08-01-2014 21:15:00 6.7 C 7.29 g/m*3 6.7 C 0 km/h
529 08-01-2014 21:20:00 6.7 C 7.29 g/m*3 6.7 C 0 km/h
530 08-01-2014 21:25:00 6.7 C 7.29 g/m*3 6.7 C 0 km/h
531 08-01-2014 21:30:00 6.7 C 7.29 g/m*3 6.7 C 0 km/h
532 08-01-2014 21:35:00 6.6 C 7.25 g/m*3 6.6 C 0 km/h
533 08-01-2014 21:40:00 6.6 C 7.25 g/m*3 6.6 C 0 km/h
534 08-01-2014 21:45:00 6.5 C 7.2 g/m*3 6.5 C 0 km/h
535 08-01-2014 21:50:00 6.4 C 7.15 g/m*3 6.4 C 0 km/h
536 08-01-2014 21:55:00 6.3 C 7.11 g/m*3 6.3 C 0 km/h
537 08-01-2014 22:00:00 6.3 C 7.11 g/m*3 6.3 C 0 km/h
538 08-01-2014 22:05:00 6.2 C 7.06 g/m*3 6.2 C 0 km/h
539 08-01-2014 22:10:00 6.2 C 7.06 g/m*3 6.2 C 0 km/h
540 08-01-2014 22:15:00 6.2 C 7.06 g/m*3 6.2 C 0 km/h
541 08-01-2014 22:20:00 6.3 C 7.11 g/m*3 6.3 C 0 km/h
542 08-01-2014 22:25:00 6.3 C 7.11 g/m*3 6.3 C 0 km/h
543 08-01-2014 22:30:00 6.3 C 7.11 g/m*3 6.3 C 0 km/h
544 08-01-2014 22:35:00 6.3 C 7.11 g/m*3 6.3 C 0 km/h
545 08-01-2014 22:40:00 6.3 C 7.11 g/m*3 6.3 C 0 km/h
546 09-01-2014 01:00:00 6.3 C 7.18 g/m*3 6.3 C 0 km/h
547 09-01-2014 01:05:00 6.3 C 7.18 g/m*3 6.3 C 0 km/h
548 09-01-2014 01:10:00 6.4 C 7.23 g/m*3 6.4 C 0 km/h
549 09-01-2014 01:15:00 6.4 C 7.23 g/m*3 6.4 C 0 km/h
550 09-01-2014 01:20:00 6.4 C 7.23 g/m*3 6.4 C 0 km/h
Sensor: Nr:Datum:Temp:Abs-Feuchte:Windchill:Wind:
Aussen-T/F 551 09-01-2014 01:25:00 6.4 C 7.23 g/m*3 6.4 C 0 km/h
552 09-01-2014 01:30:00 6.4 C 7.23 g/m*3 6.4 C 0 km/h
553 09-01-2014 01:35:00 6.5 C 7.27 g/m*3 6.5 C 0 km/h
554 09-01-2014 01:40:00 6.6 C 7.32 g/m*3 6.6 C 1.6 km/h
555 09-01-2014 01:45:00 6.7 C 7.37 g/m*3 6.7 C 0 km/h
556 09-01-2014 01:50:00 6.8 C 7.42 g/m*3 6.8 C 1.6 km/h
557 09-01-2014 01:55:00 6.8 C 7.42 g/m*3 6.8 C 0 km/h
558 09-01-2014 02:00:00 6.7 C 7.37 g/m*3 6.7 C 0 km/h
559 09-01-2014 02:05:00 6.7 C 7.37 g/m*3 6.7 C 0 km/h
560 09-01-2014 02:10:00 6.7 C 7.37 g/m*3 6.7 C 3.2 km/h
561 09-01-2014 02:15:00 6.7 C 7.37 g/m*3 6.7 C 0 km/h
562 09-01-2014 02:20:00 6.7 C 7.37 g/m*3 6.7 C 0 km/h
563 09-01-2014 02:25:00 6.7 C 7.37 g/m*3 6.7 C 0 km/h
564 09-01-2014 02:30:00 6.7 C 7.37 g/m*3 6.7 C 0 km/h
565 09-01-2014 02:35:00 6.7 C 7.37 g/m*3 6.7 C 0 km/h
566 09-01-2014 02:40:00 6.7 C 7.37 g/m*3 6.7 C 0 km/h
567 09-01-2014 02:45:00 6.7 C 7.37 g/m*3 6.7 C 0 km/h
568 09-01-2014 02:50:00 6.7 C 7.37 g/m*3 6.7 C 0 km/h
569 09-01-2014 02:55:00 6.7 C 7.37 g/m*3 6.7 C 0 km/h
570 09-01-2014 03:00:00 6.7 C 7.37 g/m*3 6.7 C 0 km/h
571 09-01-2014 03:05:00 6.7 C 7.37 g/m*3 6.7 C 0 km/h
572 09-01-2014 03:10:00 6.7 C 7.37 g/m*3 6.7 C 1.6 km/h
573 09-01-2014 03:15:00 6.7 C 7.37 g/m*3 6.7 C 0 km/h
574 09-01-2014 03:20:00 6.7 C 7.37 g/m*3 6.7 C 0 km/h
575 09-01-2014 03:25:00 6.6 C 7.32 g/m*3 6.6 C 0 km/h
Sensor: Nr:Datum:Temp:Abs-Feuchte:Windchill:Wind:
Aussen-T/F 576 09-01-2014 03:30:00 6.6 C 7.32 g/m*3 6.6 C 0 km/h
577 09-01-2014 03:35:00 6.6 C 7.32 g/m*3 6.6 C 0 km/h
578 09-01-2014 03:40:00 6.7 C 7.37 g/m*3 6.7 C 0 km/h
579 09-01-2014 03:45:00 6.7 C 7.37 g/m*3 6.7 C 1.6 km/h
580 09-01-2014 03:50:00 6.7 C 7.37 g/m*3 6.7 C 0 km/h
581 09-01-2014 03:55:00 6.8 C 7.42 g/m*3 6.8 C 1.6 km/h
582 09-01-2014 04:00:00 6.8 C 7.42 g/m*3 6.8 C 0 km/h
583 09-01-2014 04:05:00 6.8 C 7.42 g/m*3 6.8 C 0 km/h
584 09-01-2014 04:10:00 6.8 C 7.42 g/m*3 6.8 C 0 km/h
585 09-01-2014 04:15:00 6.8 C 7.42 g/m*3 6.8 C 0 km/h
586 09-01-2014 04:20:00 6.8 C 7.42 g/m*3 6.8 C 1.6 km/h
587 09-01-2014 04:25:00 6.8 C 7.42 g/m*3 6.8 C 1.6 km/h
588 09-01-2014 04:30:00 6.8 C 7.42 g/m*3 6.8 C 0 km/h
589 09-01-2014 04:35:00 6.7 C 7.37 g/m*3 6.7 C 1.6 km/h
590 09-01-2014 04:40:00 6.7 C 7.37 g/m*3 6.7 C 3.2 km/h
591 09-01-2014 04:45:00 6.7 C 7.37 g/m*3 6.7 C 0 km/h
592 09-01-2014 04:50:00 6.7 C 7.37 g/m*3 6.7 C 1.6 km/h
593 09-01-2014 04:55:00 6.7 C 7.37 g/m*3 6.7 C 0 km/h
594 09-01-2014 05:00:00 6.6 C 7.32 g/m*3 6.6 C 0 km/h
595 09-01-2014 05:05:00 6.7 C 7.45 g/m*3 6.7 C 1.6 km/h
596 09-01-2014 05:10:00 6.7 C 7.45 g/m*3 6.7 C 0 km/h
597 09-01-2014 05:15:00 6.7 C 7.45 g/m*3 6.7 C 0 km/h
598 09-01-2014 05:20:00 6.7 C 7.45 g/m*3 6.7 C 0 km/h
599 09-01-2014 05:25:00 6.8 C 7.5 g/m*3 6.8 C 0 km/h
600 09-01-2014 05:30:00 7.2 C 7.69 g/m*3 7.2 C 3.2 km/h
Sensor: Nr:Datum:Temp:Abs-Feuchte:Windchill:Wind:
Aussen-T/F 601 09-01-2014 05:35:00 7.4 C 7.79 g/m*3 7.4 C 3.2 km/h
602 09-01-2014 05:40:00 7.4 C 7.79 g/m*3 7.4 C 3.2 km/h
603 09-01-2014 05:45:00 7.4 C 7.79 g/m*3 7.4 C 1.6 km/h
604 09-01-2014 05:50:00 7.4 C 7.79 g/m*3 7.4 C 1.6 km/h
605 09-01-2014 07:20:00 8.9 C 8.41 g/m*3 8.9 C 3.2 km/h
606 09-01-2014 07:25:00 9.2 C 8.57 g/m*3 8.45 C 6.4 km/h
607 09-01-2014 07:30:00 9.3 C 8.45 g/m*3 8.56 C 6.4 km/h
608 09-01-2014 07:35:00 9.5 C 8.47 g/m*3 9.5 C 4.8 km/h
609 09-01-2014 07:40:00 9.6 C 8.52 g/m*3 9.6 C 4.8 km/h
610 09-01-2014 07:45:00 9.6 C 8.43 g/m*3 9.6 C 1.6 km/h
611 09-01-2014 07:50:00 9.6 C 8.34 g/m*3 8.91 C 6.4 km/h
612 09-01-2014 07:55:00 9.7 C 8.39 g/m*3 9.02 C 6.4 km/h
613 09-01-2014 08:00:00 9.7 C 8.3 g/m*3 9.02 C 6.4 km/h
614 09-01-2014 08:05:00 9.8 C 8.35 g/m*3 8.75 C 8.1 km/h
615 09-01-2014 08:10:00 9.9 C 8.31 g/m*3 9.9 C 3.2 km/h
616 09-01-2014 08:15:00 9.8 C 8.26 g/m*3 9.8 C 1.6 km/h
617 09-01-2014 08:20:00 9.7 C 8.2 g/m*3 9.7 C 1.6 km/h
618 09-01-2014 08:25:00 9.6 C 8.15 g/m*3 9.6 C 0 km/h
619 09-01-2014 08:30:00 9.6 C 8.15 g/m*3 9.6 C 3.2 km/h
620 09-01-2014 08:35:00 9.6 C 8.15 g/m*3 9.6 C 1.6 km/h
621 09-01-2014 08:40:00 9.3 C 8 g/m*3 9.3 C 1.6 km/h
622 09-01-2014 08:45:00 9.2 C 8.04 g/m*3 9.2 C 1.6 km/h
623 09-01-2014 08:50:00 9.1 C 7.99 g/m*3 9.1 C 0 km/h
624 09-01-2014 08:55:00 9.1 C 8.07 g/m*3 9.1 C 1.6 km/h
625 09-01-2014 09:00:00 9.1 C 8.07 g/m*3 9.1 C 3.2 km/h
Sensor: Nr:Datum:Temp:Abs-Feuchte:Windchill:Wind:
Aussen-T/F 626 09-01-2014 09:05:00 9.1 C 8.16 g/m*3 9.1 C 4.8 km/h
627 09-01-2014 09:10:00 9.2 C 8.22 g/m*3 9.2 C 0 km/h
628 09-01-2014 09:15:00 9.3 C 8.18 g/m*3 9.3 C 4.8 km/h
629 09-01-2014 09:20:00 9.4 C 8.23 g/m*3 9.4 C 0 km/h
630 09-01-2014 09:25:00 9.4 C 8.23 g/m*3 9.4 C 3.2 km/h
631 09-01-2014 09:30:00 9.4 C 8.23 g/m*3 9.4 C 3.2 km/h
632 09-01-2014 09:35:00 9.4 C 8.23 g/m*3 9.4 C 0 km/h
633 09-01-2014 09:40:00 9.3 C 8.18 g/m*3 9.3 C 1.6 km/h
634 09-01-2014 09:45:00 9.4 C 8.23 g/m*3 9.4 C 1.6 km/h
635 09-01-2014 09:50:00 9.4 C 8.14 g/m*3 9.4 C 4.8 km/h
636 09-01-2014 09:55:00 9.6 C 8.24 g/m*3 9.6 C 3.2 km/h
637 09-01-2014 10:00:00 9.7 C 8.3 g/m*3 9.7 C 4.8 km/h
638 09-01-2014 10:05:00 9.7 C 8.3 g/m*3 9.7 C 0 km/h
639 09-01-2014 10:10:00 9.8 C 8.35 g/m*3 9.8 C 3.2 km/h
640 09-01-2014 10:15:00 9.9 C 8.5 g/m*3 9.9 C 4.8 km/h
641 09-01-2014 10:20:00 9.9 C 8.31 g/m*3 9.9 C 3.2 km/h
642 09-01-2014 10:25:00 10.1 C 8.51 g/m*3 10.1 C 1.6 km/h
643 09-01-2014 10:30:00 10.2 C 8.56 g/m*3 10.2 C 1.6 km/h
644 09-01-2014 10:35:00 10.2 C 8.56 g/m*3 10.2 C 1.6 km/h
645 09-01-2014 10:40:00 10.2 C 8.56 g/m*3 10.2 C 1.6 km/h
646 09-01-2014 10:45:00 10.1 C 8.32 g/m*3 10.1 C 4.8 km/h
647 09-01-2014 10:50:00 10.2 C 8.37 g/m*3 10.2 C 0 km/h
648 09-01-2014 10:55:00 10.2 C 8.37 g/m*3 10.2 C 3.2 km/h
649 09-01-2014 11:00:00 10.3 C 8.33 g/m*3 9.04 C 9.7 km/h
650 09-01-2014 11:05:00 10.6 C 8.49 g/m*3 10.6 C 4.8 km/h
Sensor: Nr:Datum:Temp:Abs-Feuchte:Windchill:Wind:
Aussen-T/F 651 09-01-2014 11:10:00 10.6 C 8.49 g/m*3 10.06 C 6.4 km/h
652 09-01-2014 11:15:00 10.6 C 8.49 g/m*3 10.6 C 1.6 km/h
653 09-01-2014 11:20:00 10.8 C 8.5 g/m*3 10.29 C 6.4 km/h
654 09-01-2014 11:25:00 11.1 C 8.66 g/m*3 11.1 C 6.4 km/h
655 09-01-2014 11:30:00 11.4 C 8.72 g/m*3 11.4 C 9.7 km/h
656 09-01-2014 11:35:00 11.4 C 8.72 g/m*3 11.4 C 9.7 km/h
657 09-01-2014 11:40:00 11.9 C 8.58 g/m*3 11.9 C 8.1 km/h
658 09-01-2014 11:45:00 12.1 C 8.47 g/m*3 12.1 C 14.5 km/h
659 09-01-2014 11:50:00 12.3 C 8.47 g/m*3 12.3 C 9.7 km/h
660 09-01-2014 11:55:00 12.3 C 8.47 g/m*3 12.3 C 11.3 km/h
661 09-01-2014 12:00:00 12.4 C 8.52 g/m*3 12.4 C 9.7 km/h
662 09-01-2014 12:05:00 12.4 C 8.52 g/m*3 12.4 C 8.1 km/h
663 09-01-2014 12:10:00 12.4 C 8.52 g/m*3 12.4 C 12.9 km/h
664 09-01-2014 12:15:00 12.4 C 8.52 g/m*3 12.4 C 17.7 km/h
665 09-01-2014 12:20:00 12.4 C 8.52 g/m*3 12.4 C 11.3 km/h
666 09-01-2014 12:25:00 12.4 C 8.52 g/m*3 12.4 C 12.9 km/h
667 09-01-2014 12:30:00 12.4 C 8.52 g/m*3 12.4 C 11.3 km/h
668 09-01-2014 12:35:00 12.5 C 8.58 g/m*3 12.5 C 14.5 km/h
669 09-01-2014 12:40:00 12.5 C 8.58 g/m*3 12.5 C 14.5 km/h
670 09-01-2014 12:45:00 12.6 C 8.63 g/m*3 12.6 C 14.5 km/h
671 09-01-2014 12:50:00 12.6 C 8.52 g/m*3 12.6 C 9.7 km/h
672 09-01-2014 12:55:00 12.6 C 8.63 g/m*3 12.6 C 9.7 km/h
673 09-01-2014 13:00:00 12.6 C 8.52 g/m*3 12.6 C 16.1 km/h
674 09-01-2014 13:05:00 12.6 C 8.52 g/m*3 12.6 C 11.3 km/h
675 09-01-2014 13:10:00 12.6 C 8.52 g/m*3 12.6 C 12.9 km/h
Sensor: Nr:Datum:Temp:Abs-Feuchte:Windchill:Wind:
Aussen-T/F 676 09-01-2014 13:15:00 12.7 C 8.57 g/m*3 12.7 C 14.5 km/h
677 09-01-2014 13:20:00 12.7 C 8.57 g/m*3 12.7 C 9.7 km/h
678 09-01-2014 13:25:00 12.8 C 8.62 g/m*3 12.8 C 22.5 km/h
679 09-01-2014 13:30:00 12.7 C 8.57 g/m*3 12.7 C 12.9 km/h
680 09-01-2014 13:35:00 12.7 C 8.57 g/m*3 12.7 C 17.7 km/h
681 09-01-2014 13:40:00 12.8 C 8.62 g/m*3 12.8 C 11.3 km/h
682 09-01-2014 13:45:00 12.8 C 8.62 g/m*3 12.8 C 12.9 km/h
683 09-01-2014 13:50:00 12.7 C 8.57 g/m*3 12.7 C 16.1 km/h
684 09-01-2014 13:55:00 12.7 C 8.57 g/m*3 12.7 C 9.7 km/h
685 09-01-2014 14:00:00 12.8 C 8.62 g/m*3 12.8 C 16.1 km/h
686 09-01-2014 14:05:00 12.8 C 8.62 g/m*3 12.8 C 17.7 km/h
687 09-01-2014 14:10:00 12.8 C 8.62 g/m*3 12.8 C 19.3 km/h
688 09-01-2014 14:15:00 12.8 C 8.62 g/m*3 12.8 C 12.9 km/h
689 09-01-2014 14:20:00 12.8 C 8.62 g/m*3 12.8 C 16.1 km/h
690 09-01-2014 14:25:00 12.8 C 8.62 g/m*3 12.8 C 16.1 km/h
691 09-01-2014 14:30:00 12.7 C 8.57 g/m*3 12.7 C 22.5 km/h
692 09-01-2014 14:35:00 12.7 C 8.57 g/m*3 12.7 C 16.1 km/h
693 09-01-2014 14:40:00 12.7 C 8.57 g/m*3 12.7 C 16.1 km/h
694 09-01-2014 14:45:00 12.7 C 8.57 g/m*3 12.7 C 27.4 km/h
695 09-01-2014 14:50:00 12.6 C 8.63 g/m*3 12.6 C 20.9 km/h
696 09-01-2014 14:55:00 12.4 C 8.52 g/m*3 12.4 C 22.5 km/h
697 09-01-2014 15:00:00 12.3 C 8.58 g/m*3 12.3 C 11.3 km/h
698 09-01-2014 15:05:00 12.2 C 8.63 g/m*3 12.2 C 20.9 km/h
699 09-01-2014 15:10:00 12.1 C 8.69 g/m*3 12.1 C 16.1 km/h
700 09-01-2014 15:15:00 11.9 C 8.68 g/m*3 11.9 C 11.3 km/h
Sensor: Nr:Datum:Temp:Abs-Feuchte:Windchill:Wind:
Aussen-T/F 701 09-01-2014 15:20:00 11.7 C 8.68 g/m*3 11.7 C 14.5 km/h
702 09-01-2014 15:25:00 11.6 C 8.83 g/m*3 11.6 C 19.3 km/h
703 09-01-2014 15:30:00 11.3 C 8.77 g/m*3 11.3 C 11.3 km/h
704 09-01-2014 15:35:00 11.1 C 8.76 g/m*3 11.1 C 22.5 km/h
705 09-01-2014 15:40:00 10.9 C 8.36 g/m*3 8.17 C 24.1 km/h
706 09-01-2014 15:45:00 10.8 C 8.4 g/m*3 9.38 C 11.3 km/h
707 09-01-2014 15:50:00 10.8 C 8.4 g/m*3 8.96 C 14.5 km/h
708 09-01-2014 15:55:00 10.8 C 8.3 g/m*3 8.78 C 16.1 km/h
709 09-01-2014 16:00:00 10.8 C 8.11 g/m*3 8.3 C 20.9 km/h
710 09-01-2014 16:05:00 10.8 C 8.11 g/m*3 8.17 C 22.5 km/h
711 09-01-2014 16:10:00 10.7 C 8.25 g/m*3 8.84 C 14.5 km/h
712 09-01-2014 16:15:00 10.7 C 8.35 g/m*3 8.04 C 22.5 km/h
713 09-01-2014 16:20:00 10.5 C 8.15 g/m*3 7.65 C 24.1 km/h
714 09-01-2014 16:25:00 10.5 C 8.15 g/m*3 7.92 C 20.9 km/h
715 09-01-2014 16:30:00 10.4 C 8.1 g/m*3 8.11 C 17.7 km/h
716 09-01-2014 16:35:00 10.3 C 8.04 g/m*3 8.16 C 16.1 km/h
717 09-01-2014 16:40:00 10.2 C 8.18 g/m*3 8.03 C 16.1 km/h
718 09-01-2014 16:45:00 10.2 C 8.18 g/m*3 8.66 C 11.3 km/h
719 09-01-2014 16:50:00 10.1 C 8.23 g/m*3 8.1 C 14.5 km/h
720 09-01-2014 16:55:00 10.1 C 8.23 g/m*3 9.1 C 8.1 km/h
721 09-01-2014 17:00:00 10 C 8.27 g/m*3 7.98 C 14.5 km/h
722 09-01-2014 17:05:00 9.9 C 8.22 g/m*3 8.3 C 11.3 km/h
723 09-01-2014 17:10:00 9.9 C 8.03 g/m*3 7.48 C 17.7 km/h
724 09-01-2014 17:15:00 9.9 C 8.03 g/m*3 7.32 C 19.3 km/h
725 09-01-2014 17:20:00 9.9 C 8.03 g/m*3 7.66 C 16.1 km/h
Sensor: Nr:Datum:Temp:Abs-Feuchte:Windchill:Wind:
Aussen-T/F 726 09-01-2014 17:25:00 9.9 C 8.03 g/m*3 7.32 C 19.3 km/h
727 09-01-2014 17:30:00 9.9 C 8.03 g/m*3 7.32 C 19.3 km/h
728 09-01-2014 17:35:00 9.9 C 8.03 g/m*3 7.85 C 14.5 km/h
729 09-01-2014 17:40:00 9.9 C 8.03 g/m*3 7.85 C 14.5 km/h
730 09-01-2014 17:45:00 9.9 C 7.94 g/m*3 8.3 C 11.3 km/h
731 09-01-2014 17:50:00 10.1 C 7.94 g/m*3 7.73 C 17.7 km/h
732 09-01-2014 17:55:00 10.1 C 7.94 g/m*3 8.8 C 9.7 km/h
733 09-01-2014 18:00:00 10.1 C 7.94 g/m*3 8.31 C 12.9 km/h
734 09-01-2014 18:05:00 10 C 7.89 g/m*3 7.61 C 17.7 km/h
735 09-01-2014 18:10:00 10 C 7.89 g/m*3 7.98 C 14.5 km/h
736 09-01-2014 18:15:00 10 C 7.89 g/m*3 7.61 C 17.7 km/h
737 09-01-2014 18:20:00 9.9 C 7.84 g/m*3 7.48 C 17.7 km/h
738 09-01-2014 18:25:00 9.9 C 7.84 g/m*3 7.32 C 19.3 km/h
739 09-01-2014 18:30:00 9.9 C 7.84 g/m*3 7.32 C 19.3 km/h
740 09-01-2014 18:35:00 9.9 C 7.75 g/m*3 7.32 C 19.3 km/h
741 09-01-2014 18:40:00 9.9 C 7.84 g/m*3 7.48 C 17.7 km/h
742 09-01-2014 18:45:00 9.8 C 7.7 g/m*3 7.19 C 19.3 km/h
743 09-01-2014 18:50:00 9.8 C 7.79 g/m*3 7.36 C 17.7 km/h
744 09-01-2014 18:55:00 9.8 C 7.79 g/m*3 7.04 C 20.9 km/h
745 09-01-2014 19:00:00 9.8 C 7.79 g/m*3 7.36 C 17.7 km/h
746 09-01-2014 19:05:00 9.7 C 7.65 g/m*3 6.37 C 27.4 km/h
747 09-01-2014 19:10:00 9.8 C 7.7 g/m*3 7.19 C 19.3 km/h
748 09-01-2014 19:15:00 9.8 C 7.7 g/m*3 7.36 C 17.7 km/h
749 09-01-2014 19:20:00 9.8 C 7.7 g/m*3 7.19 C 19.3 km/h
750 09-01-2014 19:25:00 9.8 C 7.79 g/m*3 7.36 C 17.7 km/h
Sensor: Nr:Datum:Temp:Abs-Feuchte:Windchill:Wind:
Aussen-T/F 751 09-01-2014 19:30:00 9.7 C 7.74 g/m*3 7.61 C 14.5 km/h
752 09-01-2014 19:35:00 9.7 C 7.84 g/m*3 7.41 C 16.1 km/h
753 09-01-2014 19:40:00 9.7 C 7.84 g/m*3 7.61 C 14.5 km/h
754 09-01-2014 19:45:00 9.6 C 7.88 g/m*3 7.29 C 16.1 km/h
755 09-01-2014 19:50:00 9.6 C 7.88 g/m*3 6.94 C 19.3 km/h
756 09-01-2014 19:55:00 9.6 C 7.79 g/m*3 7.94 C 11.3 km/h
757 09-01-2014 20:00:00 9.6 C 7.79 g/m*3 7.48 C 14.5 km/h
758 09-01-2014 20:05:00 9.6 C 7.79 g/m*3 8.52 C 8.1 km/h
759 09-01-2014 20:10:00 9.6 C 7.69 g/m*3 7.11 C 17.7 km/h
760 09-01-2014 20:15:00 9.7 C 7.56 g/m*3 7.82 C 12.9 km/h
761 09-01-2014 20:20:00 9.7 C 7.38 g/m*3 7.23 C 17.7 km/h
762 09-01-2014 20:25:00 9.6 C 7.05 g/m*3 6.94 C 19.3 km/h
763 09-01-2014 20:30:00 9.6 C 7.05 g/m*3 7.11 C 17.7 km/h
764 09-01-2014 20:35:00 9.6 C 6.96 g/m*3 7.29 C 16.1 km/h
765 09-01-2014 20:40:00 9.4 C 6.96 g/m*3 7.46 C 12.9 km/h
766 09-01-2014 20:45:00 9.4 C 6.96 g/m*3 7.7 C 11.3 km/h
767 09-01-2014 20:50:00 9.3 C 6.92 g/m*3 7.33 C 12.9 km/h
768 09-01-2014 20:55:00 9.3 C 6.92 g/m*3 6.73 C 17.7 km/h
769 09-01-2014 21:00:00 9.2 C 6.97 g/m*3 7.21 C 12.9 km/h
770 09-01-2014 21:05:00 9.1 C 6.83 g/m*3 6 C 22.5 km/h
771 09-01-2014 21:10:00 8.9 C 6.57 g/m*3 6.06 C 19.3 km/h
772 09-01-2014 21:15:00 8.8 C 6.44 g/m*3 6.5 C 14.5 km/h
773 09-01-2014 21:20:00 8.7 C 6.31 g/m*3 6.38 C 14.5 km/h
774 09-01-2014 21:25:00 8.5 C 6.23 g/m*3 5.56 C 19.3 km/h
775 09-01-2014 21:30:00 8.4 C 6.28 g/m*3 6.49 C 11.3 km/h
Sensor: Nr:Datum:Temp:Abs-Feuchte:Windchill:Wind:
Aussen-T/F 776 09-01-2014 21:35:00 8.3 C 6.24 g/m*3 5.89 C 14.5 km/h
777 09-01-2014 21:40:00 8.2 C 6.2 g/m*3 5.99 C 12.9 km/h
778 09-01-2014 21:45:00 8.1 C 6.07 g/m*3 5.87 C 12.9 km/h
779 09-01-2014 21:50:00 7.9 C 6.08 g/m*3 5.63 C 12.9 km/h
780 09-01-2014 21:55:00 7.8 C 6.12 g/m*3 7.8 C 4.8 km/h
781 09-01-2014 22:00:00 7.7 C 6.08 g/m*3 5.15 C 14.5 km/h
782 09-01-2014 22:05:00 7.5 C 6 g/m*3 7.5 C 4.8 km/h
783 09-01-2014 22:10:00 7.3 C 5.93 g/m*3 7.3 C 3.2 km/h
784 09-01-2014 22:15:00 7.1 C 6.01 g/m*3 5.58 C 8.1 km/h
785 09-01-2014 22:20:00 6.9 C 5.85 g/m*3 4.99 C 9.7 km/h
786 09-01-2014 22:25:00 6.9 C 5.93 g/m*3 6.9 C 4.8 km/h
787 09-01-2014 22:30:00 6.8 C 5.74 g/m*3 6.8 C 4.8 km/h
788 09-01-2014 22:35:00 6.7 C 5.77 g/m*3 5.11 C 8.1 km/h
789 09-01-2014 22:40:00 6.7 C 5.7 g/m*3 4.75 C 9.7 km/h
790 09-01-2014 22:45:00 6.7 C 5.77 g/m*3 6.7 C 4.8 km/h
791 09-01-2014 22:50:00 6.5 C 5.7 g/m*3 4.2 C 11.3 km/h
792 09-01-2014 22:55:00 6.6 C 5.66 g/m*3 4.63 C 9.7 km/h
793 09-01-2014 23:00:00 6.6 C 5.74 g/m*3 6.6 C 4.8 km/h
794 09-01-2014 23:05:00 6.4 C 5.74 g/m*3 6.4 C 4.8 km/h
795 09-01-2014 23:10:00 6.2 C 5.81 g/m*3 4.98 C 6.4 km/h
796 09-01-2014 23:15:00 6.2 C 5.81 g/m*3 6.2 C 3.2 km/h
797 09-01-2014 23:20:00 6.2 C 5.81 g/m*3 4.52 C 8.1 km/h
798 09-01-2014 23:25:00 6.3 C 5.85 g/m*3 6.3 C 3.2 km/h
799 09-01-2014 23:30:00 6.4 C 5.81 g/m*3 5.21 C 6.4 km/h
800 09-01-2014 23:35:00 6.5 C 5.92 g/m*3 6.5 C 1.6 km/h
Sensor: Nr:Datum:Temp:Abs-Feuchte:Windchill:Wind:
Aussen-T/F 801 09-01-2014 23:40:00 6.6 C 5.96 g/m*3 5.44 C 6.4 km/h
802 09-01-2014 23:45:00 6.6 C 5.96 g/m*3 6.6 C 4.8 km/h
803 09-01-2014 23:50:00 6.6 C 5.96 g/m*3 6.6 C 1.6 km/h
804 09-01-2014 23:55:00 6.5 C 6 g/m*3 6.5 C 0 km/h
805 10-01-2014 00:00:00 6.4 C 5.96 g/m*3 6.4 C 0 km/h
806 10-01-2014 00:05:00 6.3 C 6.07 g/m*3 6.3 C 0 km/h
807 10-01-2014 00:10:00 6.2 C 6.18 g/m*3 6.2 C 0 km/h
808 10-01-2014 00:15:00 6.1 C 6.14 g/m*3 6.1 C 0 km/h
809 10-01-2014 00:20:00 6 C 6.24 g/m*3 6 C 0 km/h
810 10-01-2014 00:25:00 5.8 C 6.16 g/m*3 5.8 C 0 km/h
811 10-01-2014 00:30:00 5.8 C 6.23 g/m*3 5.8 C 0 km/h
812 10-01-2014 00:35:00 5.7 C 6.19 g/m*3 5.7 C 0 km/h
813 10-01-2014 00:40:00 5.7 C 6.19 g/m*3 5.7 C 0 km/h
814 10-01-2014 00:45:00 5.7 C 6.19 g/m*3 5.7 C 0 km/h
815 10-01-2014 00:50:00 5.7 C 6.19 g/m*3 5.7 C 0 km/h
816 10-01-2014 00:55:00 5.7 C 6.19 g/m*3 5.7 C 0 km/h
817 10-01-2014 01:00:00 5.7 C 6.26 g/m*3 5.7 C 1.6 km/h
818 10-01-2014 01:05:00 5.7 C 6.26 g/m*3 5.7 C 3.2 km/h
819 10-01-2014 01:10:00 5.7 C 6.26 g/m*3 5.7 C 3.2 km/h
820 10-01-2014 01:15:00 5.7 C 6.26 g/m*3 5.7 C 1.6 km/h
821 10-01-2014 01:20:00 5.6 C 6.29 g/m*3 5.6 C 1.6 km/h
822 10-01-2014 01:25:00 5.6 C 6.29 g/m*3 5.6 C 0 km/h
823 10-01-2014 01:30:00 5.6 C 6.29 g/m*3 5.6 C 0 km/h
824 10-01-2014 01:35:00 5.6 C 6.29 g/m*3 5.6 C 1.6 km/h
825 10-01-2014 01:40:00 5.7 C 6.33 g/m*3 5.7 C 0 km/h
Sensor: Nr:Datum:Temp:Abs-Feuchte:Windchill:Wind:
Aussen-T/F 826 10-01-2014 01:45:00 5.8 C 6.38 g/m*3 5.8 C 0 km/h
827 10-01-2014 01:50:00 5.8 C 6.38 g/m*3 5.8 C 1.6 km/h
828 10-01-2014 01:55:00 5.9 C 6.35 g/m*3 5.9 C 1.6 km/h
829 10-01-2014 02:00:00 5.9 C 6.35 g/m*3 5.9 C 3.2 km/h
830 10-01-2014 02:05:00 6 C 6.31 g/m*3 6 C 4.8 km/h
831 10-01-2014 02:10:00 6.1 C 6.36 g/m*3 6.1 C 3.2 km/h
832 10-01-2014 02:15:00 6.2 C 6.32 g/m*3 4.98 C 6.4 km/h
833 10-01-2014 02:20:00 6.2 C 6.32 g/m*3 6.2 C 3.2 km/h
834 10-01-2014 02:25:00 6.3 C 6.37 g/m*3 6.3 C 3.2 km/h
835 10-01-2014 02:30:00 6.3 C 6.37 g/m*3 6.3 C 4.8 km/h
836 10-01-2014 02:35:00 6.3 C 6.37 g/m*3 6.3 C 4.8 km/h
837 10-01-2014 02:40:00 6.3 C 6.37 g/m*3 6.3 C 4.8 km/h
838 10-01-2014 02:45:00 6.3 C 6.37 g/m*3 6.3 C 4.8 km/h
839 10-01-2014 02:50:00 6.3 C 6.37 g/m*3 6.3 C 0 km/h
840 10-01-2014 02:55:00 6.2 C 6.32 g/m*3 6.2 C 3.2 km/h
841 10-01-2014 03:00:00 6.2 C 6.32 g/m*3 6.2 C 3.2 km/h
842 10-01-2014 03:05:00 6.1 C 6.28 g/m*3 4.4 C 8.1 km/h
843 10-01-2014 03:10:00 6.1 C 6.28 g/m*3 4.4 C 8.1 km/h
844 10-01-2014 03:15:00 6.1 C 6.36 g/m*3 6.1 C 3.2 km/h
845 10-01-2014 03:20:00 6.1 C 6.28 g/m*3 6.1 C 4.8 km/h
846 10-01-2014 03:25:00 6.1 C 6.28 g/m*3 4.86 C 6.4 km/h
847 10-01-2014 03:30:00 6 C 6.24 g/m*3 6 C 3.2 km/h
848 10-01-2014 03:35:00 5.8 C 6.16 g/m*3 5.8 C 4.8 km/h
849 10-01-2014 03:40:00 5.7 C 6.19 g/m*3 5.7 C 3.2 km/h
850 10-01-2014 03:45:00 5.6 C 6.15 g/m*3 5.6 C 4.8 km/h
Sensor: Nr:Datum:Temp:Abs-Feuchte:Windchill:Wind:
Aussen-T/F 851 10-01-2014 03:50:00 5.5 C 6.11 g/m*3 5.5 C 3.2 km/h
852 10-01-2014 03:55:00 5.3 C 6.03 g/m*3 5.3 C 3.2 km/h
853 10-01-2014 04:00:00 5.1 C 6.02 g/m*3 5.1 C 3.2 km/h
854 10-01-2014 04:05:00 4.9 C 6.01 g/m*3 4.9 C 3.2 km/h
855 10-01-2014 04:10:00 4.8 C 5.97 g/m*3 4.8 C 3.2 km/h
856 10-01-2014 04:15:00 4.7 C 5.93 g/m*3 3.25 C 6.4 km/h
857 10-01-2014 04:20:00 4.7 C 5.93 g/m*3 4.7 C 4.8 km/h
858 10-01-2014 04:25:00 4.8 C 5.97 g/m*3 3.36 C 6.4 km/h
859 10-01-2014 04:30:00 4.8 C 5.97 g/m*3 4.8 C 4.8 km/h
860 10-01-2014 04:35:00 4.7 C 5.93 g/m*3 4.7 C 3.2 km/h
861 10-01-2014 04:40:00 4.7 C 5.93 g/m*3 4.7 C 4.8 km/h
862 10-01-2014 04:45:00 4.8 C 5.9 g/m*3 2.87 C 8.1 km/h
863 10-01-2014 04:50:00 4.8 C 5.9 g/m*3 4.8 C 4.8 km/h
864 10-01-2014 04:55:00 4.7 C 5.93 g/m*3 4.7 C 4.8 km/h
865 10-01-2014 05:00:00 4.6 C 5.89 g/m*3 4.6 C 4.8 km/h
866 10-01-2014 05:05:00 4.7 C 5.93 g/m*3 4.7 C 4.8 km/h
867 10-01-2014 05:10:00 4.8 C 5.9 g/m*3 2.49 C 9.7 km/h
868 10-01-2014 05:15:00 4.7 C 5.86 g/m*3 4.7 C 3.2 km/h
869 10-01-2014 05:20:00 4.7 C 5.93 g/m*3 3.25 C 6.4 km/h
870 10-01-2014 05:25:00 4.7 C 5.93 g/m*3 4.7 C 4.8 km/h
871 10-01-2014 05:30:00 4.7 C 5.93 g/m*3 2.03 C 11.3 km/h
872 10-01-2014 05:35:00 5.1 C 6.02 g/m*3 2.51 C 11.3 km/h
873 10-01-2014 05:40:00 5.4 C 6 g/m*3 2.87 C 11.3 km/h
874 10-01-2014 05:45:00 5.6 C 6.01 g/m*3 2.33 C 16.1 km/h
875 10-01-2014 05:50:00 5.6 C 6.01 g/m*3 3.11 C 11.3 km/h
Sensor: Nr:Datum:Temp:Abs-Feuchte:Windchill:Wind:
Aussen-T/F 876 10-01-2014 05:55:00 5.4 C 5.93 g/m*3 4.06 C 6.4 km/h
877 10-01-2014 06:00:00 5.2 C 5.92 g/m*3 3.82 C 6.4 km/h
878 10-01-2014 06:05:00 5.1 C 5.95 g/m*3 3.71 C 6.4 km/h
879 10-01-2014 06:10:00 4.9 C 5.87 g/m*3 4.9 C 4.8 km/h
880 10-01-2014 06:15:00 4.8 C 5.9 g/m*3 4.8 C 3.2 km/h
881 10-01-2014 06:20:00 4.6 C 5.89 g/m*3 4.6 C 3.2 km/h
882 10-01-2014 06:25:00 4.5 C 5.85 g/m*3 4.5 C 3.2 km/h
883 10-01-2014 06:30:00 4.3 C 5.84 g/m*3 4.3 C 4.8 km/h
884 10-01-2014 06:35:00 4.7 C 6 g/m*3 2.03 C 11.3 km/h
885 10-01-2014 06:40:00 4.8 C 5.97 g/m*3 4.8 C 4.8 km/h
886 10-01-2014 06:45:00 4.7 C 5.93 g/m*3 4.7 C 4.8 km/h
887 10-01-2014 06:50:00 4.7 C 5.93 g/m*3 4.7 C 3.2 km/h
888 10-01-2014 06:55:00 4.6 C 5.89 g/m*3 4.6 C 4.8 km/h
889 10-01-2014 07:00:00 4.7 C 5.93 g/m*3 4.7 C 3.2 km/h
890 10-01-2014 07:05:00 4.7 C 6 g/m*3 2.76 C 8.1 km/h
891 10-01-2014 07:10:00 5 C 6.05 g/m*3 2.72 C 9.7 km/h
892 10-01-2014 07:15:00 5.1 C 6.02 g/m*3 3.23 C 8.1 km/h
893 10-01-2014 07:20:00 5.2 C 6.06 g/m*3 2.96 C 9.7 km/h
894 10-01-2014 07:25:00 5.2 C 6.06 g/m*3 2.96 C 9.7 km/h
895 10-01-2014 07:30:00 5.2 C 5.99 g/m*3 2.96 C 9.7 km/h
896 10-01-2014 07:35:00 5.2 C 6.06 g/m*3 2.96 C 9.7 km/h
897 10-01-2014 07:40:00 5.2 C 6.06 g/m*3 2.63 C 11.3 km/h
898 10-01-2014 07:45:00 5.1 C 6.02 g/m*3 2.84 C 9.7 km/h
899 10-01-2014 07:50:00 5.1 C 6.02 g/m*3 2.84 C 9.7 km/h
900 10-01-2014 07:55:00 5 C 5.98 g/m*3 5 C 4.8 km/h
Sensor: Nr:Datum:Temp:Abs-Feuchte:Windchill:Wind:
Aussen-T/F 901 10-01-2014 08:00:00 4.9 C 5.94 g/m*3 3.48 C 6.4 km/h
902 10-01-2014 08:05:00 4.8 C 5.9 g/m*3 4.8 C 4.8 km/h
903 10-01-2014 08:10:00 4.6 C 5.89 g/m*3 3.13 C 6.4 km/h
904 10-01-2014 08:15:00 4.9 C 6.08 g/m*3 1.24 C 17.7 km/h
905 10-01-2014 08:20:00 5.2 C 6.06 g/m*3 1.61 C 17.7 km/h
906 10-01-2014 08:25:00 5.5 C 6.11 g/m*3 2.7 C 12.9 km/h
907 10-01-2014 08:30:00 5.7 C 6.12 g/m*3 3.93 C 8.1 km/h
908 10-01-2014 08:35:00 5.8 C 6.09 g/m*3 2.81 C 14.5 km/h
909 10-01-2014 08:40:00 5.8 C 6.09 g/m*3 3.68 C 9.7 km/h
910 10-01-2014 08:45:00 5.9 C 6.06 g/m*3 2.93 C 14.5 km/h
911 10-01-2014 08:50:00 6 C 6.1 g/m*3 4.28 C 8.1 km/h
912 10-01-2014 08:55:00 5.9 C 6.06 g/m*3 4.17 C 8.1 km/h
913 10-01-2014 09:00:00 5.8 C 6.09 g/m*3 3.68 C 9.7 km/h
914 10-01-2014 09:05:00 5.7 C 6.12 g/m*3 4.4 C 6.4 km/h
915 10-01-2014 09:10:00 5.4 C 6 g/m*3 5.4 C 3.2 km/h
916 10-01-2014 09:15:00 5.2 C 5.99 g/m*3 5.2 C 3.2 km/h
917 10-01-2014 09:20:00 5.1 C 6.09 g/m*3 3.71 C 6.4 km/h
918 10-01-2014 09:25:00 5.1 C 6.09 g/m*3 2.51 C 11.3 km/h
919 10-01-2014 09:30:00 5.2 C 6.13 g/m*3 3.34 C 8.1 km/h
920 10-01-2014 09:35:00 5.3 C 6.1 g/m*3 2.75 C 11.3 km/h
921 10-01-2014 09:40:00 5.3 C 6.17 g/m*3 3.94 C 6.4 km/h
922 10-01-2014 09:45:00 5.3 C 6.1 g/m*3 5.3 C 4.8 km/h
923 10-01-2014 09:50:00 5.3 C 6.17 g/m*3 3.46 C 8.1 km/h
924 10-01-2014 09:55:00 5.4 C 6.21 g/m*3 3.2 C 9.7 km/h
925 10-01-2014 10:00:00 5.4 C 6.14 g/m*3 4.06 C 6.4 km/h
Sensor: Nr:Datum:Temp:Abs-Feuchte:Windchill:Wind:
Aussen-T/F 926 10-01-2014 10:05:00 5.4 C 6.21 g/m*3 4.06 C 6.4 km/h
927 10-01-2014 10:10:00 5.4 C 6.21 g/m*3 3.58 C 8.1 km/h
928 10-01-2014 10:15:00 5.4 C 6.21 g/m*3 5.4 C 4.8 km/h
929 10-01-2014 10:20:00 5.4 C 6.21 g/m*3 2.58 C 12.9 km/h
930 10-01-2014 10:25:00 5.6 C 6.29 g/m*3 3.81 C 8.1 km/h
931 10-01-2014 10:30:00 5.7 C 6.33 g/m*3 3.56 C 9.7 km/h
932 10-01-2014 10:35:00 5.9 C 6.35 g/m*3 3.48 C 11.3 km/h
933 10-01-2014 10:40:00 5.9 C 6.27 g/m*3 4.63 C 6.4 km/h
934 10-01-2014 10:45:00 5.9 C 6.27 g/m*3 4.63 C 6.4 km/h
935 10-01-2014 10:50:00 6.1 C 6.36 g/m*3 6.1 C 4.8 km/h
936 10-01-2014 10:55:00 6.2 C 6.32 g/m*3 6.2 C 4.8 km/h
937 10-01-2014 11:00:00 6.3 C 6.37 g/m*3 5.1 C 6.4 km/h
938 10-01-2014 11:05:00 6.4 C 6.33 g/m*3 5.21 C 6.4 km/h
939 10-01-2014 11:10:00 6.4 C 6.33 g/m*3 4.08 C 11.3 km/h
940 10-01-2014 11:15:00 6.5 C 6.3 g/m*3 4.2 C 11.3 km/h
941 10-01-2014 11:20:00 6.6 C 6.34 g/m*3 4.04 C 12.9 km/h
942 10-01-2014 11:25:00 6.6 C 6.34 g/m*3 3.36 C 17.7 km/h
943 10-01-2014 11:30:00 6.7 C 6.31 g/m*3 3.69 C 16.1 km/h
944 10-01-2014 11:35:00 6.8 C 6.35 g/m*3 3.42 C 19.3 km/h
945 10-01-2014 11:40:00 6.8 C 6.35 g/m*3 3.82 C 16.1 km/h
946 10-01-2014 11:45:00 6.9 C 6.39 g/m*3 4.16 C 14.5 km/h
947 10-01-2014 11:50:00 7 C 6.43 g/m*3 4.29 C 14.5 km/h
948 10-01-2014 11:55:00 7.1 C 6.4 g/m*3 5.58 C 8.1 km/h
949 10-01-2014 12:00:00 7.1 C 6.4 g/m*3 4.92 C 11.3 km/h
950 10-01-2014 12:05:00 7.2 C 6.44 g/m*3 4.53 C 14.5 km/h
Sensor: Nr:Datum:Temp:Abs-Feuchte:Windchill:Wind:
Aussen-T/F 951 10-01-2014 12:10:00 7.2 C 6.44 g/m*3 5.04 C 11.3 km/h
952 10-01-2014 12:15:00 7.2 C 6.36 g/m*3 5.04 C 11.3 km/h
953 10-01-2014 12:20:00 7.3 C 6.48 g/m*3 4.44 C 16.1 km/h
954 10-01-2014 12:25:00 7.5 C 6.48 g/m*3 5.14 C 12.9 km/h
955 10-01-2014 12:30:00 7.6 C 6.53 g/m*3 6.6 C 6.4 km/h
956 10-01-2014 12:35:00 7.6 C 6.53 g/m*3 6.6 C 6.4 km/h
957 10-01-2014 12:40:00 7.7 C 6.57 g/m*3 5.94 C 9.7 km/h
958 10-01-2014 12:45:00 7.8 C 6.61 g/m*3 5.77 C 11.3 km/h
959 10-01-2014 12:50:00 7.9 C 6.57 g/m*3 5.63 C 12.9 km/h
960 10-01-2014 12:55:00 7.9 C 6.57 g/m*3 5.39 C 14.5 km/h
961 10-01-2014 13:00:00 7.8 C 6.53 g/m*3 5.51 C 12.9 km/h
962 10-01-2014 13:05:00 7.8 C 6.53 g/m*3 5.77 C 11.3 km/h
963 10-01-2014 13:10:00 7.7 C 6.57 g/m*3 5.65 C 11.3 km/h
964 10-01-2014 13:15:00 7.7 C 6.57 g/m*3 5.38 C 12.9 km/h
965 10-01-2014 13:20:00 7.7 C 6.57 g/m*3 4.93 C 16.1 km/h
966 10-01-2014 13:25:00 7.7 C 6.57 g/m*3 4.93 C 16.1 km/h
967 10-01-2014 13:30:00 7.7 C 6.57 g/m*3 5.65 C 11.3 km/h
968 10-01-2014 13:35:00 7.7 C 6.57 g/m*3 5.38 C 12.9 km/h
969 10-01-2014 13:40:00 7.7 C 6.49 g/m*3 4.93 C 16.1 km/h
970 10-01-2014 13:45:00 7.7 C 6.49 g/m*3 5.65 C 11.3 km/h
971 10-01-2014 13:50:00 7.7 C 6.49 g/m*3 5.38 C 12.9 km/h
972 10-01-2014 13:55:00 7.7 C 6.49 g/m*3 6.28 C 8.1 km/h
973 10-01-2014 14:00:00 7.7 C 6.57 g/m*3 5.65 C 11.3 km/h
974 10-01-2014 14:05:00 7.7 C 6.57 g/m*3 5.65 C 11.3 km/h
975 10-01-2014 14:10:00 7.7 C 6.57 g/m*3 5.15 C 14.5 km/h
Sensor: Nr:Datum:Temp:Abs-Feuchte:Windchill:Wind:
Aussen-T/F 976 10-01-2014 14:15:00 7.7 C 6.57 g/m*3 6.71 C 6.4 km/h
977 10-01-2014 14:20:00 7.7 C 6.57 g/m*3 5.94 C 9.7 km/h
978 10-01-2014 14:25:00 7.7 C 6.57 g/m*3 6.71 C 6.4 km/h
979 10-01-2014 14:30:00 7.7 C 6.57 g/m*3 5.65 C 11.3 km/h
980 10-01-2014 14:35:00 7.8 C 6.61 g/m*3 6.4 C 8.1 km/h
981 10-01-2014 14:40:00 7.8 C 6.61 g/m*3 6.83 C 6.4 km/h
982 10-01-2014 14:45:00 7.8 C 6.61 g/m*3 5.77 C 11.3 km/h
983 10-01-2014 14:50:00 7.8 C 6.61 g/m*3 5.51 C 12.9 km/h
984 10-01-2014 14:55:00 7.8 C 6.61 g/m*3 5.51 C 12.9 km/h
985 10-01-2014 15:00:00 7.8 C 6.61 g/m*3 6.4 C 8.1 km/h
986 10-01-2014 15:05:00 7.9 C 6.74 g/m*3 6.52 C 8.1 km/h
987 10-01-2014 15:10:00 7.9 C 6.65 g/m*3 5.89 C 11.3 km/h
988 10-01-2014 15:15:00 8 C 6.7 g/m*3 5.75 C 12.9 km/h
989 10-01-2014 15:20:00 8.1 C 6.74 g/m*3 8.1 C 4.8 km/h
990 10-01-2014 15:25:00 8.1 C 6.66 g/m*3 6.42 C 9.7 km/h
991 10-01-2014 15:30:00 8.1 C 6.74 g/m*3 8.1 C 4.8 km/h
992 10-01-2014 15:35:00 7.8 C 6.69 g/m*3 6.83 C 6.4 km/h
993 10-01-2014 15:40:00 7.7 C 6.57 g/m*3 5.94 C 9.7 km/h
994 10-01-2014 15:45:00 7.7 C 6.57 g/m*3 6.71 C 6.4 km/h
995 10-01-2014 15:50:00 7.7 C 6.57 g/m*3 7.7 C 4.8 km/h
996 10-01-2014 15:55:00 7.5 C 6.48 g/m*3 7.5 C 4.8 km/h
997 10-01-2014 16:00:00 7.4 C 6.52 g/m*3 7.4 C 4.8 km/h
998 10-01-2014 16:05:00 7.3 C 6.48 g/m*3 6.25 C 6.4 km/h
999 10-01-2014 16:10:00 7.2 C 6.52 g/m*3 7.2 C 4.8 km/h
1000 10-01-2014 16:15:00 7.1 C 6.47 g/m*3 6.02 C 6.4 km/h
Sensor: Nr:Datum:Temp:Abs-Feuchte:Windchill:Wind:
Aussen-T/F 1001 10-01-2014 16:20:00 6.8 C 6.42 g/m*3 6.8 C 3.2 km/h
1002 10-01-2014 16:25:00 6.6 C 6.42 g/m*3 6.6 C 4.8 km/h
1003 10-01-2014 16:30:00 6.3 C 6.29 g/m*3 6.3 C 4.8 km/h
1004 10-01-2014 16:35:00 6.3 C 6.37 g/m*3 6.3 C 3.2 km/h
1005 10-01-2014 16:40:00 6.1 C 6.28 g/m*3 6.1 C 3.2 km/h
1006 10-01-2014 16:45:00 5.8 C 6.23 g/m*3 5.8 C 3.2 km/h
1007 10-01-2014 16:50:00 5.7 C 6.26 g/m*3 5.7 C 3.2 km/h
1008 10-01-2014 16:55:00 5.4 C 6.21 g/m*3 5.4 C 3.2 km/h
1009 10-01-2014 17:00:00 5.3 C 6.17 g/m*3 5.3 C 3.2 km/h
1010 10-01-2014 17:05:00 5.2 C 6.13 g/m*3 5.2 C 3.2 km/h
1011 10-01-2014 17:10:00 5.2 C 6.2 g/m*3 5.2 C 4.8 km/h
1012 10-01-2014 17:15:00 5.1 C 6.16 g/m*3 5.1 C 4.8 km/h
1013 10-01-2014 17:20:00 5.1 C 6.16 g/m*3 5.1 C 3.2 km/h
1014 10-01-2014 17:25:00 5.2 C 6.2 g/m*3 5.2 C 3.2 km/h
1015 10-01-2014 17:30:00 5.2 C 6.13 g/m*3 5.2 C 3.2 km/h
1016 10-01-2014 17:35:00 5.1 C 6.09 g/m*3 5.1 C 4.8 km/h
1017 10-01-2014 17:40:00 5 C 6.12 g/m*3 5 C 3.2 km/h
1018 10-01-2014 17:45:00 5.1 C 6.09 g/m*3 5.1 C 3.2 km/h
1019 10-01-2014 17:50:00 4.9 C 6.01 g/m*3 4.9 C 3.2 km/h
1020 10-01-2014 17:55:00 4.8 C 6.04 g/m*3 4.8 C 3.2 km/h
1021 10-01-2014 18:00:00 4.7 C 6 g/m*3 4.7 C 3.2 km/h
1022 10-01-2014 18:05:00 4.8 C 6.04 g/m*3 4.8 C 4.8 km/h
1023 10-01-2014 18:10:00 5 C 6.12 g/m*3 5 C 4.8 km/h
1024 10-01-2014 18:15:00 5 C 6.05 g/m*3 5 C 4.8 km/h
1025 10-01-2014 18:20:00 5.2 C 6.13 g/m*3 3.82 C 6.4 km/h
Sensor: Nr:Datum:Temp:Abs-Feuchte:Windchill:Wind:
Aussen-T/F 1026 10-01-2014 18:25:00 5.5 C 6.11 g/m*3 4.17 C 6.4 km/h
1027 10-01-2014 18:30:00 5.3 C 6.03 g/m*3 5.3 C 4.8 km/h
1028 10-01-2014 18:35:00 5.2 C 6.06 g/m*3 3.82 C 6.4 km/h
1029 10-01-2014 18:40:00 5.1 C 6.02 g/m*3 5.1 C 4.8 km/h
1030 10-01-2014 18:45:00 5.1 C 6.09 g/m*3 5.1 C 4.8 km/h
1031 10-01-2014 18:50:00 5.1 C 6.02 g/m*3 5.1 C 4.8 km/h
1032 10-01-2014 18:55:00 5 C 6.05 g/m*3 5 C 4.8 km/h
1033 10-01-2014 19:00:00 4.9 C 6.01 g/m*3 4.9 C 4.8 km/h
1034 10-01-2014 19:05:00 4.9 C 6.01 g/m*3 4.9 C 4.8 km/h
1035 10-01-2014 19:10:00 5 C 6.05 g/m*3 5 C 4.8 km/h
1036 10-01-2014 19:15:00 5.1 C 6.09 g/m*3 3.71 C 6.4 km/h
1037 10-01-2014 19:20:00 5.4 C 6.14 g/m*3 4.06 C 6.4 km/h
1038 10-01-2014 19:25:00 5.6 C 6.15 g/m*3 5.6 C 4.8 km/h
1039 10-01-2014 19:30:00 5.7 C 6.19 g/m*3 5.7 C 4.8 km/h
1040 10-01-2014 19:35:00 5.6 C 6.08 g/m*3 5.6 C 4.8 km/h
1041 10-01-2014 19:40:00 5.7 C 6.12 g/m*3 3.93 C 8.1 km/h
1042 10-01-2014 19:45:00 5.6 C 6.08 g/m*3 4.29 C 6.4 km/h
1043 10-01-2014 19:50:00 5.5 C 6.04 g/m*3 5.5 C 4.8 km/h
1044 10-01-2014 19:55:00 5.4 C 6 g/m*3 5.4 C 4.8 km/h
1045 10-01-2014 20:00:00 5.4 C 6 g/m*3 5.4 C 3.2 km/h
1046 10-01-2014 20:05:00 5.1 C 5.95 g/m*3 5.1 C 3.2 km/h
1047 10-01-2014 20:10:00 4.9 C 5.94 g/m*3 4.9 C 4.8 km/h
1048 10-01-2014 20:15:00 4.8 C 5.97 g/m*3 4.8 C 4.8 km/h
1049 10-01-2014 20:20:00 4.8 C 5.97 g/m*3 4.8 C 4.8 km/h
1050 10-01-2014 20:25:00 4.7 C 5.93 g/m*3 4.7 C 4.8 km/h
Sensor: Nr:Datum:Temp:Abs-Feuchte:Windchill:Wind:
Aussen-T/F 1051 10-01-2014 20:30:00 4.6 C 5.89 g/m*3 4.6 C 3.2 km/h
1052 10-01-2014 20:35:00 4.5 C 5.85 g/m*3 4.5 C 3.2 km/h
1053 10-01-2014 20:40:00 4.4 C 5.88 g/m*3 4.4 C 4.8 km/h
1054 10-01-2014 20:45:00 4.5 C 5.85 g/m*3 4.5 C 3.2 km/h
1055 10-01-2014 20:50:00 4.4 C 5.81 g/m*3 4.4 C 3.2 km/h
1056 10-01-2014 20:55:00 4.3 C 5.84 g/m*3 4.3 C 4.8 km/h
1057 10-01-2014 21:00:00 4.4 C 5.88 g/m*3 4.4 C 3.2 km/h
1058 10-01-2014 21:05:00 4.4 C 5.88 g/m*3 4.4 C 3.2 km/h
1059 10-01-2014 21:10:00 4.4 C 5.88 g/m*3 4.4 C 3.2 km/h
1060 10-01-2014 21:15:00 4.3 C 5.84 g/m*3 4.3 C 1.6 km/h
1061 10-01-2014 21:20:00 4.2 C 5.86 g/m*3 4.2 C 0 km/h
1062 10-01-2014 21:25:00 4.2 C 5.86 g/m*3 4.2 C 1.6 km/h
1063 10-01-2014 21:30:00 4.1 C 5.82 g/m*3 4.1 C 3.2 km/h
1064 10-01-2014 21:35:00 4 C 5.79 g/m*3 4 C 0 km/h
1065 10-01-2014 21:40:00 3.8 C 5.71 g/m*3 3.8 C 0 km/h
1066 10-01-2014 21:45:00 3.8 C 5.77 g/m*3 3.8 C 0 km/h
1067 10-01-2014 21:50:00 3.7 C 5.73 g/m*3 3.7 C 1.6 km/h
1068 10-01-2014 21:55:00 3.6 C 5.69 g/m*3 3.6 C 0 km/h
1069 10-01-2014 22:00:00 3.5 C 5.66 g/m*3 3.5 C 0 km/h
1070 10-01-2014 22:05:00 3.4 C 5.68 g/m*3 3.4 C 0 km/h
1071 10-01-2014 22:10:00 3.4 C 5.68 g/m*3 3.4 C 0 km/h
1072 10-01-2014 22:15:00 3.4 C 5.68 g/m*3 3.4 C 0 km/h
1073 10-01-2014 22:20:00 3.3 C 5.64 g/m*3 3.3 C 0 km/h
1074 10-01-2014 22:25:00 3.2 C 5.6 g/m*3 3.2 C 0 km/h
1075 10-01-2014 22:30:00 3.2 C 5.6 g/m*3 3.2 C 0 km/h
Sensor: Nr:Datum:Temp:Abs-Feuchte:Windchill:Wind:
Aussen-T/F 1076 10-01-2014 22:35:00 3.1 C 5.57 g/m*3 3.1 C 0 km/h
1077 10-01-2014 22:40:00 3.1 C 5.63 g/m*3 3.1 C 3.2 km/h
1078 10-01-2014 22:45:00 3.1 C 5.63 g/m*3 3.1 C 1.6 km/h
1079 10-01-2014 22:50:00 3.1 C 5.63 g/m*3 3.1 C 0 km/h
1080 10-01-2014 22:55:00 3.2 C 5.66 g/m*3 3.2 C 0 km/h
1081 10-01-2014 23:00:00 3.1 C 5.63 g/m*3 3.1 C 0 km/h
1082 10-01-2014 23:05:00 3.1 C 5.63 g/m*3 3.1 C 0 km/h
1083 10-01-2014 23:10:00 3.1 C 5.63 g/m*3 3.1 C 0 km/h
1084 10-01-2014 23:15:00 3 C 5.59 g/m*3 3 C 0 km/h
1085 10-01-2014 23:20:00 3.1 C 5.69 g/m*3 3.1 C 0 km/h
1086 10-01-2014 23:25:00 3.1 C 5.63 g/m*3 3.1 C 0 km/h
1087 10-01-2014 23:30:00 3 C 5.59 g/m*3 3 C 0 km/h
1088 10-01-2014 23:35:00 3.1 C 5.69 g/m*3 3.1 C 0 km/h
1089 10-01-2014 23:40:00 3.1 C 5.69 g/m*3 3.1 C 0 km/h
1090 10-01-2014 23:45:00 3.1 C 5.69 g/m*3 3.1 C 0 km/h
1091 10-01-2014 23:50:00 3 C 5.65 g/m*3 3 C 0 km/h
1092 10-01-2014 23:55:00 2.9 C 5.61 g/m*3 2.9 C 0 km/h
1093 11-01-2014 00:00:00 2.8 C 5.57 g/m*3 2.8 C 0 km/h
1094 11-01-2014 00:05:00 2.8 C 5.57 g/m*3 2.8 C 0 km/h
1095 11-01-2014 00:10:00 2.8 C 5.57 g/m*3 2.8 C 0 km/h
1096 11-01-2014 00:15:00 2.7 C 5.54 g/m*3 2.7 C 0 km/h
1097 11-01-2014 00:20:00 2.6 C 5.5 g/m*3 2.6 C 0 km/h
1098 11-01-2014 00:25:00 2.5 C 5.46 g/m*3 2.5 C 0 km/h
1099 11-01-2014 00:30:00 2.4 C 5.42 g/m*3 2.4 C 0 km/h
1100 11-01-2014 00:35:00 2.3 C 5.39 g/m*3 2.3 C 0 km/h
Sensor: Nr:Datum:Temp:Abs-Feuchte:Windchill:Wind:
Aussen-T/F 1101 11-01-2014 00:40:00 2.3 C 5.39 g/m*3 2.3 C 0 km/h
1102 11-01-2014 00:45:00 2.4 C 5.42 g/m*3 2.4 C 0 km/h
1103 11-01-2014 00:50:00 2.4 C 5.42 g/m*3 2.4 C 0 km/h
1104 11-01-2014 00:55:00 2.3 C 5.39 g/m*3 2.3 C 0 km/h
1105 11-01-2014 01:00:00 2.3 C 5.39 g/m*3 2.3 C 1.6 km/h
1106 11-01-2014 01:05:00 2.3 C 5.39 g/m*3 2.3 C 0 km/h
1107 11-01-2014 01:10:00 2.3 C 5.39 g/m*3 2.3 C 0 km/h
1108 11-01-2014 01:15:00 2.2 C 5.35 g/m*3 2.2 C 0 km/h
1109 11-01-2014 01:20:00 2.2 C 5.41 g/m*3 2.2 C 0 km/h
1110 11-01-2014 01:25:00 2.2 C 5.35 g/m*3 2.2 C 0 km/h
1111 11-01-2014 01:30:00 2.1 C 5.31 g/m*3 2.1 C 0 km/h
1112 11-01-2014 01:35:00 2.1 C 5.31 g/m*3 2.1 C 0 km/h
1113 11-01-2014 01:40:00 1.9 C 5.24 g/m*3 1.9 C 0 km/h
1114 11-01-2014 01:45:00 1.9 C 5.24 g/m*3 1.9 C 0 km/h
1115 11-01-2014 01:50:00 1.8 C 5.21 g/m*3 1.8 C 0 km/h
1116 11-01-2014 01:55:00 1.7 C 5.17 g/m*3 1.7 C 0 km/h
1117 11-01-2014 02:00:00 1.7 C 5.17 g/m*3 1.7 C 0 km/h
1118 11-01-2014 02:05:00 1.7 C 5.23 g/m*3 1.7 C 1.6 km/h
1119 11-01-2014 02:10:00 1.7 C 5.23 g/m*3 1.7 C 0 km/h
1120 11-01-2014 02:15:00 1.7 C 5.23 g/m*3 1.7 C 0 km/h
1121 11-01-2014 02:20:00 1.7 C 5.23 g/m*3 1.7 C 0 km/h
1122 11-01-2014 02:25:00 1.8 C 5.26 g/m*3 1.8 C 0 km/h
1123 11-01-2014 02:30:00 1.9 C 5.3 g/m*3 1.9 C 0 km/h
1124 11-01-2014 02:35:00 1.9 C 5.3 g/m*3 1.9 C 0 km/h
1125 11-01-2014 02:40:00 1.9 C 5.3 g/m*3 1.9 C 0 km/h
Sensor: Nr:Datum:Temp:Abs-Feuchte:Windchill:Wind:
Aussen-T/F 1126 11-01-2014 02:45:00 1.8 C 5.26 g/m*3 1.8 C 1.6 km/h
1127 11-01-2014 02:50:00 1.8 C 5.26 g/m*3 1.8 C 1.6 km/h
1128 11-01-2014 02:55:00 1.8 C 5.26 g/m*3 1.8 C 0 km/h
1129 11-01-2014 03:00:00 1.8 C 5.26 g/m*3 1.8 C 0 km/h
1130 11-01-2014 03:05:00 1.8 C 5.26 g/m*3 1.8 C 0 km/h
1131 11-01-2014 03:10:00 1.8 C 5.26 g/m*3 1.8 C 0 km/h
1132 11-01-2014 03:15:00 1.7 C 5.23 g/m*3 1.7 C 0 km/h
1133 11-01-2014 03:20:00 1.5 C 5.16 g/m*3 1.5 C 0 km/h
1134 11-01-2014 03:25:00 1.4 C 5.12 g/m*3 1.4 C 0 km/h
1135 11-01-2014 03:30:00 1.4 C 5.12 g/m*3 1.4 C 1.6 km/h
1136 11-01-2014 03:35:00 1.4 C 5.12 g/m*3 1.4 C 0 km/h
1137 11-01-2014 03:40:00 1.4 C 5.12 g/m*3 1.4 C 0 km/h
1138 11-01-2014 03:45:00 1.4 C 5.12 g/m*3 1.4 C 0 km/h
1139 11-01-2014 03:50:00 1.4 C 5.12 g/m*3 1.4 C 0 km/h
1140 11-01-2014 03:55:00 1.5 C 5.16 g/m*3 1.5 C 1.6 km/h
1141 11-01-2014 04:00:00 1.5 C 5.16 g/m*3 1.5 C 0 km/h
1142 11-01-2014 04:05:00 1.4 C 5.12 g/m*3 1.4 C 0 km/h
1143 11-01-2014 04:10:00 1.4 C 5.12 g/m*3 1.4 C 0 km/h
1144 11-01-2014 04:15:00 1.3 C 5.09 g/m*3 1.3 C 0 km/h
1145 11-01-2014 04:20:00 1.3 C 5.09 g/m*3 1.3 C 0 km/h
1146 11-01-2014 04:25:00 1.3 C 5.09 g/m*3 1.3 C 0 km/h
1147 11-01-2014 04:30:00 1.3 C 5.09 g/m*3 1.3 C 0 km/h
1148 11-01-2014 04:35:00 1.3 C 5.09 g/m*3 1.3 C 0 km/h
1149 11-01-2014 04:40:00 1.3 C 5.09 g/m*3 1.3 C 0 km/h
1150 11-01-2014 04:45:00 1.4 C 5.12 g/m*3 1.4 C 3.2 km/h
Sensor: Nr:Datum:Temp:Abs-Feuchte:Windchill:Wind:
Aussen-T/F 1151 11-01-2014 04:50:00 1.4 C 5.17 g/m*3 1.4 C 1.6 km/h
1152 11-01-2014 04:55:00 1.3 C 5.14 g/m*3 1.3 C 0 km/h
1153 11-01-2014 05:00:00 1.3 C 5.14 g/m*3 1.3 C 0 km/h
1154 11-01-2014 05:05:00 1.1 C 5.02 g/m*3 1.1 C 0 km/h
1155 11-01-2014 05:10:00 0.9 C 4.95 g/m*3 0.9 C 0 km/h
1156 11-01-2014 05:15:00 0.8 C 4.91 g/m*3 0.8 C 0 km/h
1157 11-01-2014 05:20:00 0.9 C 5 g/m*3 0.9 C 0 km/h
1158 11-01-2014 05:25:00 0.8 C 4.91 g/m*3 0.8 C 0 km/h
1159 11-01-2014 05:30:00 0.8 C 4.91 g/m*3 0.8 C 0 km/h
1160 11-01-2014 05:35:00 0.8 C 4.91 g/m*3 0.8 C 0 km/h
1161 11-01-2014 05:40:00 0.8 C 4.91 g/m*3 0.8 C 0 km/h
1162 11-01-2014 05:45:00 0.8 C 4.97 g/m*3 0.8 C 0 km/h
1163 11-01-2014 05:50:00 0.9 C 5 g/m*3 0.9 C 0 km/h
1164 11-01-2014 05:55:00 0.8 C 4.97 g/m*3 0.8 C 0 km/h
1165 11-01-2014 06:00:00 0.9 C 5 g/m*3 0.9 C 0 km/h
1166 11-01-2014 06:05:00 0.9 C 5 g/m*3 0.9 C 0 km/h
1167 11-01-2014 06:10:00 1 C 5.03 g/m*3 1 C 0 km/h
1168 11-01-2014 06:15:00 1.1 C 5.07 g/m*3 1.1 C 0 km/h
1169 11-01-2014 06:20:00 1.1 C 5.07 g/m*3 1.1 C 0 km/h
1170 11-01-2014 06:25:00 1.1 C 5.07 g/m*3 1.1 C 0 km/h
1171 11-01-2014 06:30:00 1.2 C 5.1 g/m*3 1.2 C 0 km/h
1172 11-01-2014 06:35:00 1.2 C 5.1 g/m*3 1.2 C 0 km/h
1173 11-01-2014 06:40:00 1.2 C 5.1 g/m*3 1.2 C 0 km/h
1174 11-01-2014 06:45:00 1.2 C 5.1 g/m*3 1.2 C 0 km/h
1175 11-01-2014 06:50:00 1.2 C 5.1 g/m*3 1.2 C 1.6 km/h
Sensor: Nr:Datum:Temp:Abs-Feuchte:Windchill:Wind:
Aussen-T/F 1176 11-01-2014 06:55:00 1.2 C 5.1 g/m*3 -0.8 C 6.4 km/h
1177 11-01-2014 07:00:00 1.2 C 5.1 g/m*3 -0.8 C 6.4 km/h
1178 11-01-2014 07:05:00 1.3 C 5.14 g/m*3 1.3 C 0 km/h
1179 11-01-2014 07:10:00 1.3 C 5.14 g/m*3 1.3 C 1.6 km/h
1180 11-01-2014 07:15:00 1.3 C 5.14 g/m*3 1.3 C 0 km/h
1181 11-01-2014 07:20:00 1.3 C 5.14 g/m*3 1.3 C 1.6 km/h
1182 11-01-2014 07:25:00 1.3 C 5.14 g/m*3 1.3 C 3.2 km/h
1183 11-01-2014 07:30:00 1.4 C 5.17 g/m*3 1.4 C 1.6 km/h
1184 11-01-2014 07:35:00 1.4 C 5.17 g/m*3 1.4 C 1.6 km/h
1185 11-01-2014 07:40:00 1.5 C 5.21 g/m*3 1.5 C 0 km/h
1186 11-01-2014 07:45:00 1.6 C 5.25 g/m*3 1.6 C 0 km/h
1187 11-01-2014 07:50:00 1.6 C 5.25 g/m*3 1.6 C 1.6 km/h
1188 11-01-2014 07:55:00 1.6 C 5.25 g/m*3 1.6 C 3.2 km/h
1189 11-01-2014 08:00:00 1.7 C 5.28 g/m*3 1.7 C 1.6 km/h
1190 11-01-2014 08:05:00 1.7 C 5.28 g/m*3 1.7 C 1.6 km/h
1191 11-01-2014 08:10:00 1.8 C 5.32 g/m*3 1.8 C 1.6 km/h
1192 11-01-2014 08:15:00 1.8 C 5.32 g/m*3 1.8 C 0 km/h
1193 11-01-2014 08:20:00 1.8 C 5.32 g/m*3 1.8 C 0 km/h
1194 11-01-2014 08:25:00 1.9 C 5.35 g/m*3 1.9 C 0 km/h
1195 11-01-2014 08:30:00 1.9 C 5.35 g/m*3 1.9 C 1.6 km/h
1196 11-01-2014 08:35:00 1.9 C 5.35 g/m*3 1.9 C 3.2 km/h
1197 11-01-2014 08:40:00 1.9 C 5.35 g/m*3 1.9 C 1.6 km/h
1198 11-01-2014 08:45:00 1.9 C 5.35 g/m*3 1.9 C 3.2 km/h
1199 11-01-2014 08:50:00 2 C 5.39 g/m*3 2 C 0 km/h
1200 11-01-2014 08:55:00 2.1 C 5.43 g/m*3 2.1 C 0 km/h
Sensor: Nr:Datum:Temp:Abs-Feuchte:Windchill:Wind:
Aussen-T/F 1201 11-01-2014 09:00:00 2.1 C 5.43 g/m*3 2.1 C 0 km/h
1202 11-01-2014 09:05:00 2.1 C 5.43 g/m*3 2.1 C 0 km/h
1203 11-01-2014 09:10:00 2.2 C 5.46 g/m*3 2.2 C 0 km/h
1204 11-01-2014 09:15:00 2.3 C 5.5 g/m*3 2.3 C 0 km/h
1205 11-01-2014 09:20:00 2.3 C 5.5 g/m*3 2.3 C 0 km/h
1206 11-01-2014 09:25:00 2.3 C 5.5 g/m*3 2.3 C 0 km/h
1207 11-01-2014 09:30:00 2.3 C 5.5 g/m*3 2.3 C 0 km/h
1208 11-01-2014 09:35:00 2.3 C 5.5 g/m*3 2.3 C 0 km/h
1209 11-01-2014 09:40:00 2.3 C 5.5 g/m*3 2.3 C 0 km/h
1210 11-01-2014 09:45:00 2.3 C 5.5 g/m*3 2.3 C 0 km/h
1211 11-01-2014 09:50:00 2.3 C 5.5 g/m*3 2.3 C 0 km/h
1212 11-01-2014 09:55:00 2.3 C 5.5 g/m*3 2.3 C 0 km/h
1213 11-01-2014 10:00:00 2.3 C 5.5 g/m*3 2.3 C 1.6 km/h
1214 11-01-2014 10:05:00 2.3 C 5.5 g/m*3 2.3 C 1.6 km/h
1215 11-01-2014 10:10:00 2.3 C 5.5 g/m*3 2.3 C 0 km/h
1216 11-01-2014 10:15:00 2.4 C 5.54 g/m*3 2.4 C 0 km/h
1217 11-01-2014 10:20:00 2.4 C 5.54 g/m*3 2.4 C 0 km/h
1218 11-01-2014 10:25:00 2.6 C 5.61 g/m*3 2.6 C 0 km/h
1219 11-01-2014 10:30:00 2.6 C 5.61 g/m*3 2.6 C 0 km/h
1220 11-01-2014 10:35:00 2.7 C 5.65 g/m*3 2.7 C 0 km/h
1221 11-01-2014 10:40:00 2.8 C 5.69 g/m*3 2.8 C 0 km/h
1222 11-01-2014 10:45:00 2.9 C 5.73 g/m*3 2.9 C 0 km/h
1223 11-01-2014 10:50:00 2.9 C 5.73 g/m*3 2.9 C 0 km/h
1224 11-01-2014 10:55:00 3 C 5.77 g/m*3 3 C 0 km/h
1225 11-01-2014 11:00:00 3.1 C 5.81 g/m*3 3.1 C 0 km/h
Sensor: Nr:Datum:Temp:Abs-Feuchte:Windchill:Wind:
Aussen-T/F 1226 11-01-2014 11:05:00 3.2 C 5.85 g/m*3 3.2 C 0 km/h
1227 11-01-2014 11:10:00 3.3 C 5.88 g/m*3 3.3 C 0 km/h
1228 11-01-2014 11:15:00 3.4 C 5.99 g/m*3 3.4 C 0 km/h
1229 11-01-2014 11:20:00 3.5 C 6.03 g/m*3 3.5 C 0 km/h
1230 11-01-2014 11:25:00 3.7 C 6.04 g/m*3 3.7 C 0 km/h
1231 11-01-2014 11:30:00 3.8 C 6.15 g/m*3 3.8 C 1.6 km/h
1232 11-01-2014 11:35:00 3.8 C 6.15 g/m*3 3.8 C 3.2 km/h
1233 11-01-2014 11:40:00 4 C 6.17 g/m*3 4 C 3.2 km/h
1234 11-01-2014 11:45:00 4.3 C 6.36 g/m*3 2.78 C 6.4 km/h
1235 11-01-2014 11:50:00 4.6 C 6.48 g/m*3 2.25 C 9.7 km/h
1236 11-01-2014 11:55:00 4.8 C 6.57 g/m*3 2.49 C 9.7 km/h
1237 11-01-2014 12:00:00 5.1 C 6.63 g/m*3 2.84 C 9.7 km/h
1238 11-01-2014 12:05:00 5.3 C 6.65 g/m*3 2.75 C 11.3 km/h
1239 11-01-2014 12:10:00 5.6 C 6.72 g/m*3 3.81 C 8.1 km/h
1240 11-01-2014 12:15:00 5.8 C 6.66 g/m*3 3.36 C 11.3 km/h
1241 11-01-2014 12:20:00 6 C 6.68 g/m*3 3.92 C 9.7 km/h
1242 11-01-2014 12:25:00 6.1 C 6.72 g/m*3 4.4 C 8.1 km/h
1243 11-01-2014 12:30:00 6.2 C 6.69 g/m*3 3.84 C 11.3 km/h
1244 11-01-2014 12:35:00 6.2 C 6.69 g/m*3 4.52 C 8.1 km/h
1245 11-01-2014 12:40:00 6.2 C 6.62 g/m*3 4.98 C 6.4 km/h
1246 11-01-2014 12:45:00 6.3 C 6.66 g/m*3 4.64 C 8.1 km/h
1247 11-01-2014 12:50:00 6.3 C 6.66 g/m*3 3.96 C 11.3 km/h
1248 11-01-2014 12:55:00 6.6 C 6.72 g/m*3 4.32 C 11.3 km/h
1249 11-01-2014 13:00:00 6.6 C 6.72 g/m*3 4.63 C 9.7 km/h
1250 11-01-2014 13:05:00 6.6 C 6.72 g/m*3 4.04 C 12.9 km/h
Sensor: Nr:Datum:Temp:Abs-Feuchte:Windchill:Wind:
Aussen-T/F 1251 11-01-2014 13:10:00 6.6 C 6.72 g/m*3 4.99 C 8.1 km/h
1252 11-01-2014 13:15:00 6.9 C 6.7 g/m*3 4.99 C 9.7 km/h
1253 11-01-2014 13:20:00 6.9 C 6.7 g/m*3 6.9 C 4.8 km/h
1254 11-01-2014 13:25:00 6.9 C 6.7 g/m*3 5.79 C 6.4 km/h
1255 11-01-2014 13:30:00 6.8 C 6.65 g/m*3 6.8 C 4.8 km/h
1256 11-01-2014 13:35:00 6.9 C 6.7 g/m*3 5.79 C 6.4 km/h
1257 11-01-2014 13:40:00 6.8 C 6.65 g/m*3 4.56 C 11.3 km/h
1258 11-01-2014 13:45:00 6.9 C 6.7 g/m*3 4.68 C 11.3 km/h
1259 11-01-2014 13:50:00 7.1 C 6.71 g/m*3 4.92 C 11.3 km/h
1260 11-01-2014 13:55:00 7.2 C 6.83 g/m*3 5.69 C 8.1 km/h
1261 11-01-2014 14:00:00 7.3 C 6.79 g/m*3 4.23 C 17.7 km/h
1262 11-01-2014 14:05:00 7.5 C 6.8 g/m*3 4.9 C 14.5 km/h
1263 11-01-2014 14:10:00 7.7 C 6.81 g/m*3 5.15 C 14.5 km/h
1264 11-01-2014 14:15:00 7.9 C 6.9 g/m*3 5.89 C 11.3 km/h
1265 11-01-2014 14:20:00 7.9 C 6.82 g/m*3 4.8 C 19.3 km/h
1266 11-01-2014 14:25:00 8 C 6.86 g/m*3 4.93 C 19.3 km/h
1267 11-01-2014 14:30:00 7.8 C 6.77 g/m*3 5.77 C 11.3 km/h
1268 11-01-2014 14:35:00 7.8 C 6.86 g/m*3 5.27 C 14.5 km/h
1269 11-01-2014 14:40:00 7.7 C 6.81 g/m*3 5.94 C 9.7 km/h
1270 11-01-2014 14:45:00 7.6 C 6.77 g/m*3 6.16 C 8.1 km/h
1271 11-01-2014 14:50:00 7.5 C 6.8 g/m*3 6.48 C 6.4 km/h
1272 11-01-2014 14:55:00 7.3 C 6.72 g/m*3 7.3 C 3.2 km/h
1273 11-01-2014 15:00:00 7.2 C 6.75 g/m*3 7.2 C 3.2 km/h
1274 11-01-2014 15:05:00 6.9 C 6.7 g/m*3 6.9 C 3.2 km/h
1275 11-01-2014 15:10:00 6.7 C 6.69 g/m*3 6.7 C 3.2 km/h
Sensor: Nr:Datum:Temp:Abs-Feuchte:Windchill:Wind:
Aussen-T/F 1276 11-01-2014 15:15:00 6.5 C 6.67 g/m*3 6.5 C 0 km/h
1277 11-01-2014 15:20:00 6.5 C 6.67 g/m*3 4.51 C 9.7 km/h
1278 11-01-2014 15:25:00 6.8 C 6.73 g/m*3 6.8 C 3.2 km/h
1279 11-01-2014 15:30:00 7.1 C 6.86 g/m*3 5.23 C 9.7 km/h
1280 11-01-2014 15:35:00 7.4 C 6.84 g/m*3 4.56 C 16.1 km/h
1281 11-01-2014 15:40:00 7.7 C 6.89 g/m*3 4.93 C 16.1 km/h
1282 11-01-2014 15:45:00 7.7 C 6.89 g/m*3 4.93 C 16.1 km/h
1283 11-01-2014 15:50:00 7.6 C 6.85 g/m*3 5.26 C 12.9 km/h
1284 11-01-2014 15:55:00 7.5 C 6.88 g/m*3 5.7 C 9.7 km/h
1285 11-01-2014 16:00:00 7.5 C 6.88 g/m*3 6.05 C 8.1 km/h
1286 11-01-2014 16:05:00 7.6 C 6.93 g/m*3 5.53 C 11.3 km/h
1287 11-01-2014 16:10:00 7.7 C 6.89 g/m*3 5.94 C 9.7 km/h
1288 11-01-2014 16:15:00 7.7 C 6.97 g/m*3 5.94 C 9.7 km/h
1289 11-01-2014 16:20:00 7.7 C 6.97 g/m*3 5.38 C 12.9 km/h
1290 11-01-2014 16:25:00 7.6 C 7.01 g/m*3 5.53 C 11.3 km/h
1291 11-01-2014 16:30:00 7.5 C 6.96 g/m*3 5.41 C 11.3 km/h
1292 11-01-2014 16:35:00 7.3 C 7.03 g/m*3 4.9 C 12.9 km/h
1293 11-01-2014 16:40:00 7.2 C 7.06 g/m*3 5.69 C 8.1 km/h
1294 11-01-2014 16:45:00 7 C 7.05 g/m*3 4.8 C 11.3 km/h
1295 11-01-2014 16:50:00 6.9 C 7.08 g/m*3 5.79 C 6.4 km/h
1296 11-01-2014 16:55:00 6.7 C 6.99 g/m*3 5.11 C 8.1 km/h
1297 11-01-2014 17:00:00 6.7 C 7.07 g/m*3 3.69 C 16.1 km/h
1298 11-01-2014 17:05:00 6.6 C 7.02 g/m*3 6.6 C 3.2 km/h
1299 11-01-2014 17:10:00 6.6 C 7.02 g/m*3 6.6 C 4.8 km/h
1300 11-01-2014 17:15:00 6.5 C 7.05 g/m*3 4.87 C 8.1 km/h
Sensor: Nr:Datum:Temp:Abs-Feuchte:Windchill:Wind:
Aussen-T/F 1301 11-01-2014 17:20:00 6.4 C 7 g/m*3 4.75 C 8.1 km/h
1302 11-01-2014 17:25:00 6.4 C 7 g/m*3 4.75 C 8.1 km/h
1303 11-01-2014 17:30:00 6.4 C 7 g/m*3 6.4 C 3.2 km/h
1304 11-01-2014 17:35:00 6.4 C 7 g/m*3 6.4 C 4.8 km/h
1305 11-01-2014 17:40:00 6.3 C 6.96 g/m*3 6.3 C 3.2 km/h
1306 11-01-2014 17:45:00 6.3 C 6.96 g/m*3 6.3 C 1.6 km/h
1307 11-01-2014 17:50:00 6.2 C 6.99 g/m*3 6.2 C 1.6 km/h
1308 11-01-2014 17:55:00 6.2 C 6.99 g/m*3 6.2 C 1.6 km/h
1309 11-01-2014 18:00:00 6.2 C 6.99 g/m*3 3.84 C 11.3 km/h
1310 11-01-2014 18:05:00 6.2 C 6.84 g/m*3 6.2 C 4.8 km/h
1311 11-01-2014 18:10:00 6.4 C 6.71 g/m*3 4.39 C 9.7 km/h
1312 11-01-2014 18:15:00 6.5 C 6.67 g/m*3 4.87 C 8.1 km/h
1313 11-01-2014 18:20:00 6.6 C 6.64 g/m*3 6.6 C 4.8 km/h
1314 11-01-2014 18:25:00 6.4 C 6.48 g/m*3 4.39 C 9.7 km/h
1315 11-01-2014 18:30:00 6.4 C 6.48 g/m*3 5.21 C 6.4 km/h
1316 11-01-2014 18:35:00 6.3 C 6.51 g/m*3 5.1 C 6.4 km/h
1317 11-01-2014 18:40:00 6.2 C 6.4 g/m*3 4.98 C 6.4 km/h
1318 11-01-2014 18:45:00 6.1 C 6.5 g/m*3 6.1 C 4.8 km/h
1319 11-01-2014 18:50:00 5.8 C 6.45 g/m*3 5.8 C 3.2 km/h
1320 11-01-2014 18:55:00 5.8 C 6.45 g/m*3 5.8 C 1.6 km/h
1321 11-01-2014 19:00:00 5.7 C 6.48 g/m*3 5.7 C 4.8 km/h
1322 11-01-2014 19:05:00 5.8 C 6.52 g/m*3 5.8 C 3.2 km/h
1323 11-01-2014 19:10:00 5.7 C 6.48 g/m*3 5.7 C 0 km/h
1324 11-01-2014 19:15:00 5.6 C 6.36 g/m*3 3.11 C 11.3 km/h
1325 11-01-2014 19:20:00 5.8 C 6.3 g/m*3 4.05 C 8.1 km/h
Sensor: Nr:Datum:Temp:Abs-Feuchte:Windchill:Wind:
Aussen-T/F 1326 11-01-2014 19:25:00 6.1 C 6.28 g/m*3 4.4 C 8.1 km/h
1327 11-01-2014 19:30:00 6.2 C 6.32 g/m*3 4.52 C 8.1 km/h
1328 11-01-2014 19:35:00 6.1 C 6.28 g/m*3 6.1 C 3.2 km/h
1329 11-01-2014 19:40:00 5.9 C 6.27 g/m*3 5.9 C 3.2 km/h
1330 11-01-2014 19:45:00 5.4 C 6.14 g/m*3 5.4 C 1.6 km/h
1331 11-01-2014 19:50:00 5.1 C 6.16 g/m*3 5.1 C 1.6 km/h
1332 11-01-2014 19:55:00 4.9 C 6.08 g/m*3 4.9 C 0 km/h
1333 11-01-2014 20:00:00 4.7 C 6.06 g/m*3 4.7 C 3.2 km/h
1334 11-01-2014 20:05:00 4.6 C 6.09 g/m*3 4.6 C 1.6 km/h
1335 11-01-2014 20:10:00 4.4 C 6.01 g/m*3 4.4 C 3.2 km/h
1336 11-01-2014 20:15:00 4.4 C 6.07 g/m*3 4.4 C 1.6 km/h
1337 11-01-2014 20:20:00 4.3 C 6.03 g/m*3 4.3 C 3.2 km/h
1338 11-01-2014 20:25:00 4.3 C 6.03 g/m*3 4.3 C 1.6 km/h
1339 11-01-2014 20:30:00 4.3 C 6.03 g/m*3 4.3 C 3.2 km/h
1340 11-01-2014 20:35:00 4.3 C 6.03 g/m*3 4.3 C 3.2 km/h
1341 11-01-2014 20:40:00 4.3 C 5.97 g/m*3 4.3 C 3.2 km/h
1342 11-01-2014 20:45:00 4.6 C 6.09 g/m*3 4.6 C 4.8 km/h
1343 11-01-2014 20:50:00 4.7 C 6.06 g/m*3 4.7 C 4.8 km/h
1344 11-01-2014 20:55:00 4.7 C 6 g/m*3 4.7 C 3.2 km/h
1345 11-01-2014 21:00:00 4.7 C 6 g/m*3 4.7 C 4.8 km/h
1346 11-01-2014 21:05:00 4.6 C 5.96 g/m*3 4.6 C 4.8 km/h
1347 11-01-2014 21:10:00 4.4 C 5.94 g/m*3 2.9 C 6.4 km/h
1348 11-01-2014 21:15:00 4.5 C 5.98 g/m*3 4.5 C 4.8 km/h
1349 11-01-2014 21:20:00 4.4 C 5.88 g/m*3 4.4 C 3.2 km/h
1350 11-01-2014 21:25:00 4.3 C 5.9 g/m*3 4.3 C 4.8 km/h
Sensor: Nr:Datum:Temp:Abs-Feuchte:Windchill:Wind:
Aussen-T/F 1351 11-01-2014 21:30:00 4.1 C 5.89 g/m*3 4.1 C 3.2 km/h
1352 11-01-2014 21:35:00 4.1 C 5.89 g/m*3 4.1 C 4.8 km/h
1353 11-01-2014 21:40:00 4.2 C 5.93 g/m*3 4.2 C 4.8 km/h
1354 11-01-2014 21:45:00 4.3 C 5.9 g/m*3 4.3 C 3.2 km/h
1355 11-01-2014 21:50:00 4.2 C 5.86 g/m*3 2.67 C 6.4 km/h
1356 11-01-2014 21:55:00 4.2 C 5.86 g/m*3 4.2 C 4.8 km/h
1357 11-01-2014 22:00:00 4.2 C 5.8 g/m*3 2.67 C 6.4 km/h
1358 11-01-2014 22:05:00 4.2 C 5.8 g/m*3 4.2 C 4.8 km/h
1359 11-01-2014 22:10:00 3.9 C 5.75 g/m*3 3.9 C 4.8 km/h
1360 11-01-2014 22:15:00 3.8 C 5.71 g/m*3 3.8 C 4.8 km/h
1361 11-01-2014 22:20:00 3.8 C 5.71 g/m*3 3.8 C 3.2 km/h
1362 11-01-2014 22:25:00 3.6 C 5.69 g/m*3 3.6 C 0 km/h
1363 11-01-2014 22:30:00 3.4 C 5.62 g/m*3 3.4 C 1.6 km/h
1364 11-01-2014 22:35:00 3.2 C 5.54 g/m*3 3.2 C 0 km/h
1365 11-01-2014 22:40:00 3 C 5.53 g/m*3 3 C 1.6 km/h
1366 11-01-2014 22:45:00 2.8 C 5.46 g/m*3 2.8 C 1.6 km/h
1367 11-01-2014 22:50:00 2.8 C 5.46 g/m*3 2.8 C 1.6 km/h
1368 11-01-2014 22:55:00 2.8 C 5.51 g/m*3 2.8 C 3.2 km/h
1369 11-01-2014 23:00:00 2.7 C 5.48 g/m*3 2.7 C 4.8 km/h
1370 11-01-2014 23:05:00 2.7 C 5.48 g/m*3 2.7 C 3.2 km/h
1371 11-01-2014 23:10:00 2.6 C 5.44 g/m*3 2.6 C 1.6 km/h
1372 11-01-2014 23:15:00 2.6 C 5.44 g/m*3 2.6 C 3.2 km/h
1373 11-01-2014 23:20:00 2.6 C 5.44 g/m*3 2.6 C 1.6 km/h
1374 11-01-2014 23:25:00 2.5 C 5.4 g/m*3 2.5 C 3.2 km/h
1375 11-01-2014 23:30:00 2.4 C 5.37 g/m*3 2.4 C 0 km/h
Sensor: Nr:Datum:Temp:Abs-Feuchte:Windchill:Wind:
Aussen-T/F 1376 11-01-2014 23:35:00 2.4 C 5.37 g/m*3 2.4 C 3.2 km/h
1377 11-01-2014 23:40:00 2.4 C 5.42 g/m*3 2.4 C 1.6 km/h
1378 11-01-2014 23:45:00 2.4 C 5.42 g/m*3 2.4 C 1.6 km/h
1379 11-01-2014 23:50:00 2.3 C 5.33 g/m*3 2.3 C 0 km/h
1380 11-01-2014 23:55:00 2.3 C 5.33 g/m*3 2.3 C 0 km/h
1381 12-01-2014 00:00:00 2.2 C 5.35 g/m*3 2.2 C 3.2 km/h
1382 12-01-2014 00:05:00 2.2 C 5.35 g/m*3 2.2 C 4.8 km/h
1383 12-01-2014 00:10:00 2.2 C 5.35 g/m*3 2.2 C 1.6 km/h
1384 12-01-2014 00:15:00 2.1 C 5.31 g/m*3 2.1 C 3.2 km/h
1385 12-01-2014 00:20:00 2.1 C 5.31 g/m*3 2.1 C 3.2 km/h
1386 12-01-2014 00:25:00 2.1 C 5.31 g/m*3 2.1 C 3.2 km/h
1387 12-01-2014 00:30:00 1.9 C 5.24 g/m*3 1.9 C 3.2 km/h
1388 12-01-2014 00:35:00 1.8 C 5.21 g/m*3 1.8 C 3.2 km/h
1389 12-01-2014 00:40:00 1.8 C 5.21 g/m*3 1.8 C 3.2 km/h
1390 12-01-2014 00:45:00 1.8 C 5.21 g/m*3 1.8 C 3.2 km/h
1391 12-01-2014 00:50:00 1.9 C 5.24 g/m*3 1.9 C 1.6 km/h
1392 12-01-2014 00:55:00 1.9 C 5.24 g/m*3 1.9 C 3.2 km/h
1393 12-01-2014 01:00:00 1.8 C 5.21 g/m*3 1.8 C 4.8 km/h
1394 12-01-2014 01:05:00 1.8 C 5.21 g/m*3 1.8 C 3.2 km/h
1395 12-01-2014 01:10:00 1.7 C 5.17 g/m*3 1.7 C 3.2 km/h
1396 12-01-2014 01:15:00 1.7 C 5.17 g/m*3 1.7 C 1.6 km/h
1397 12-01-2014 01:20:00 1.7 C 5.17 g/m*3 1.7 C 3.2 km/h
1398 12-01-2014 01:25:00 1.6 C 5.14 g/m*3 -0.89 C 8.1 km/h
1399 12-01-2014 01:30:00 1.6 C 5.14 g/m*3 1.6 C 1.6 km/h
1400 12-01-2014 01:35:00 1.5 C 5.1 g/m*3 1.5 C 4.8 km/h
Sensor: Nr:Datum:Temp:Abs-Feuchte:Windchill:Wind:
Aussen-T/F 1401 12-01-2014 01:40:00 1.5 C 5.1 g/m*3 1.5 C 4.8 km/h
1402 12-01-2014 01:45:00 1.4 C 5.07 g/m*3 1.4 C 1.6 km/h
1403 12-01-2014 01:50:00 1.3 C 5.03 g/m*3 1.3 C 3.2 km/h
1404 12-01-2014 01:55:00 1.3 C 5.03 g/m*3 1.3 C 4.8 km/h
1405 12-01-2014 02:00:00 1.4 C 5.07 g/m*3 1.4 C 4.8 km/h
1406 12-01-2014 02:05:00 1.3 C 5.03 g/m*3 1.3 C 4.8 km/h
1407 12-01-2014 02:10:00 1.3 C 5.03 g/m*3 -1.69 C 9.7 km/h
1408 12-01-2014 02:15:00 1.3 C 5.03 g/m*3 -1.69 C 9.7 km/h
1409 12-01-2014 02:20:00 1.2 C 5 g/m*3 1.2 C 3.2 km/h
1410 12-01-2014 02:25:00 1.1 C 4.96 g/m*3 -1.48 C 8.1 km/h
1411 12-01-2014 02:30:00 1.1 C 4.96 g/m*3 -1.48 C 8.1 km/h
1412 12-01-2014 02:35:00 1 C 4.93 g/m*3 -1.59 C 8.1 km/h
1413 12-01-2014 02:40:00 0.9 C 4.9 g/m*3 0.9 C 3.2 km/h
1414 12-01-2014 02:45:00 0.8 C 4.86 g/m*3 -1.83 C 8.1 km/h
1415 12-01-2014 02:50:00 0.9 C 4.95 g/m*3 -1.14 C 6.4 km/h
1416 12-01-2014 02:55:00 0.9 C 4.95 g/m*3 -2.16 C 9.7 km/h
1417 12-01-2014 03:00:00 0.9 C 4.95 g/m*3 -2.16 C 9.7 km/h
1418 12-01-2014 03:05:00 0.9 C 4.95 g/m*3 -2.9 C 12.9 km/h
1419 12-01-2014 03:10:00 0.9 C 4.95 g/m*3 -2.9 C 12.9 km/h
1420 12-01-2014 03:15:00 0.9 C 4.95 g/m*3 -2.16 C 9.7 km/h
1421 12-01-2014 03:20:00 0.9 C 4.95 g/m*3 -1.71 C 8.1 km/h
1422 12-01-2014 03:25:00 0.9 C 4.95 g/m*3 -1.71 C 8.1 km/h
1423 12-01-2014 03:30:00 0.9 C 4.95 g/m*3 0.9 C 4.8 km/h
1424 12-01-2014 03:35:00 1 C 4.98 g/m*3 -2.04 C 9.7 km/h
1425 12-01-2014 03:40:00 1 C 4.98 g/m*3 -1.03 C 6.4 km/h
Sensor: Nr:Datum:Temp:Abs-Feuchte:Windchill:Wind:
Aussen-T/F 1426 12-01-2014 03:45:00 1.1 C 5.02 g/m*3 -0.91 C 6.4 km/h
1427 12-01-2014 03:50:00 1.1 C 5.02 g/m*3 -2.31 C 11.3 km/h
1428 12-01-2014 03:55:00 1.1 C 5.02 g/m*3 -0.91 C 6.4 km/h
1429 12-01-2014 04:00:00 1.1 C 5.02 g/m*3 -1.92 C 9.7 km/h
1430 12-01-2014 04:05:00 1.2 C 5.05 g/m*3 -1.36 C 8.1 km/h
1431 12-01-2014 04:10:00 1.2 C 5.05 g/m*3 -2.19 C 11.3 km/h
1432 12-01-2014 04:15:00 1.2 C 5.05 g/m*3 -0.8 C 6.4 km/h
1433 12-01-2014 04:20:00 1.3 C 5.09 g/m*3 -1.24 C 8.1 km/h
1434 12-01-2014 04:25:00 1.3 C 5.09 g/m*3 -1.69 C 9.7 km/h
1435 12-01-2014 04:30:00 1.3 C 5.09 g/m*3 -0.68 C 6.4 km/h
1436 12-01-2014 04:35:00 1.3 C 5.09 g/m*3 -1.69 C 9.7 km/h
1437 12-01-2014 04:40:00 1.3 C 5.09 g/m*3 -1.69 C 9.7 km/h
1438 12-01-2014 04:45:00 1.3 C 5.09 g/m*3 -1.24 C 8.1 km/h
1439 12-01-2014 04:50:00 1.2 C 5.05 g/m*3 -2.19 C 11.3 km/h
1440 12-01-2014 04:55:00 1.2 C 5.05 g/m*3 -1.36 C 8.1 km/h
1441 12-01-2014 05:00:00 1.3 C 5.09 g/m*3 -1.69 C 9.7 km/h
1442 12-01-2014 05:05:00 1.3 C 5.09 g/m*3 -2.07 C 11.3 km/h
1443 12-01-2014 05:10:00 1.3 C 5.09 g/m*3 -1.69 C 9.7 km/h
1444 12-01-2014 05:15:00 1.3 C 5.09 g/m*3 -1.69 C 9.7 km/h
1445 12-01-2014 05:20:00 1.2 C 5.05 g/m*3 -0.8 C 6.4 km/h
1446 12-01-2014 05:25:00 1.2 C 5.05 g/m*3 1.2 C 4.8 km/h
1447 12-01-2014 05:30:00 1.2 C 5.05 g/m*3 -0.8 C 6.4 km/h
1448 12-01-2014 05:35:00 1.2 C 5.05 g/m*3 -0.8 C 6.4 km/h
1449 12-01-2014 05:40:00 1.1 C 5.02 g/m*3 1.1 C 4.8 km/h
1450 12-01-2014 05:45:00 1.1 C 5.02 g/m*3 -0.91 C 6.4 km/h
Sensor: Nr:Datum:Temp:Abs-Feuchte:Windchill:Wind:
Aussen-T/F 1451 12-01-2014 05:50:00 1.1 C 5.02 g/m*3 1.1 C 4.8 km/h
1452 12-01-2014 05:55:00 1 C 4.98 g/m*3 1 C 3.2 km/h
1453 12-01-2014 06:00:00 0.9 C 4.95 g/m*3 -1.14 C 6.4 km/h
1454 12-01-2014 06:05:00 0.9 C 4.95 g/m*3 0.9 C 1.6 km/h
1455 12-01-2014 06:10:00 0.8 C 4.91 g/m*3 0.8 C 3.2 km/h
1456 12-01-2014 06:15:00 0.8 C 4.91 g/m*3 0.8 C 0 km/h
1457 12-01-2014 06:20:00 0.7 C 4.88 g/m*3 0.7 C 1.6 km/h
1458 12-01-2014 06:25:00 0.6 C 4.85 g/m*3 0.6 C 1.6 km/h
1459 12-01-2014 06:30:00 0.6 C 4.85 g/m*3 0.6 C 3.2 km/h
1460 12-01-2014 06:35:00 0.6 C 4.85 g/m*3 0.6 C 3.2 km/h
1461 12-01-2014 06:40:00 0.6 C 4.85 g/m*3 0.6 C 4.8 km/h
1462 12-01-2014 06:45:00 0.6 C 4.85 g/m*3 0.6 C 0 km/h
1463 12-01-2014 06:50:00 0.6 C 4.85 g/m*3 0.6 C 0 km/h
1464 12-01-2014 06:55:00 0.6 C 4.85 g/m*3 0.6 C 3.2 km/h
1465 12-01-2014 07:00:00 0.6 C 4.85 g/m*3 0.6 C 3.2 km/h
1466 12-01-2014 07:05:00 0.7 C 4.93 g/m*3 0.7 C 1.6 km/h
1467 12-01-2014 07:10:00 0.7 C 4.93 g/m*3 0.7 C 0 km/h
1468 12-01-2014 07:15:00 0.7 C 4.93 g/m*3 0.7 C 4.8 km/h
1469 12-01-2014 07:20:00 0.6 C 4.9 g/m*3 0.6 C 4.8 km/h
1470 12-01-2014 07:25:00 0.6 C 4.9 g/m*3 0.6 C 1.6 km/h
1471 12-01-2014 07:30:00 0.6 C 4.85 g/m*3 0.6 C 3.2 km/h
1472 12-01-2014 07:35:00 0.5 C 4.81 g/m*3 0.5 C 4.8 km/h
1473 12-01-2014 07:40:00 0.4 C 4.83 g/m*3 -1.72 C 6.4 km/h
1474 12-01-2014 07:45:00 0.4 C 4.83 g/m*3 -1.72 C 6.4 km/h
1475 12-01-2014 07:50:00 0.4 C 4.83 g/m*3 0.4 C 4.8 km/h
Sensor: Nr:Datum:Temp:Abs-Feuchte:Windchill:Wind:
Aussen-T/F 1476 12-01-2014 07:55:00 0.3 C 4.8 g/m*3 0.3 C 4.8 km/h
1477 12-01-2014 08:00:00 0.3 C 4.8 g/m*3 0.3 C 3.2 km/h
1478 12-01-2014 08:05:00 0.3 C 4.8 g/m*3 0.3 C 3.2 km/h
1479 12-01-2014 08:10:00 0.2 C 4.77 g/m*3 -3 C 9.7 km/h
1480 12-01-2014 08:15:00 0.2 C 4.77 g/m*3 -2.53 C 8.1 km/h
1481 12-01-2014 08:20:00 0.2 C 4.77 g/m*3 0.2 C 4.8 km/h
1482 12-01-2014 08:25:00 0.1 C 4.73 g/m*3 0.1 C 3.2 km/h
1483 12-01-2014 08:30:00 0.1 C 4.73 g/m*3 0.1 C 4.8 km/h
1484 12-01-2014 08:35:00 0.1 C 4.73 g/m*3 0.1 C 3.2 km/h
1485 12-01-2014 08:40:00 0 C 4.7 g/m*3 0 C 1.6 km/h
1486 12-01-2014 08:45:00 0 C 4.7 g/m*3 0 C 1.6 km/h
1487 12-01-2014 08:50:00 -0.1 C 4.67 g/m*3 -0.1 C 0 km/h
1488 12-01-2014 08:55:00 0 C 4.7 g/m*3 0 C 1.6 km/h
1489 12-01-2014 09:00:00 0 C 4.7 g/m*3 0 C 3.2 km/h
1490 12-01-2014 09:05:00 0 C 4.7 g/m*3 0 C 0 km/h
1491 12-01-2014 09:10:00 0 C 4.7 g/m*3 0 C 1.6 km/h
1492 12-01-2014 09:15:00 0 C 4.7 g/m*3 0 C 3.2 km/h
1493 12-01-2014 09:20:00 -0.1 C 4.67 g/m*3 -0.1 C 1.6 km/h
1494 12-01-2014 09:25:00 0 C 4.7 g/m*3 0 C 1.6 km/h
1495 12-01-2014 09:30:00 0 C 4.7 g/m*3 0 C 0 km/h
1496 12-01-2014 09:35:00 0 C 4.7 g/m*3 0 C 0 km/h
1497 12-01-2014 09:40:00 0 C 4.7 g/m*3 0 C 1.6 km/h
1498 12-01-2014 09:45:00 0 C 4.7 g/m*3 0 C 1.6 km/h
1499 12-01-2014 09:50:00 0.1 C 4.73 g/m*3 0.1 C 4.8 km/h
1500 12-01-2014 09:55:00 -0.1 C 4.67 g/m*3 -0.1 C 4.8 km/h
Sensor: Nr:Datum:Temp:Abs-Feuchte:Windchill:Wind:
Aussen-T/F 1501 12-01-2014 10:00:00 0 C 4.7 g/m*3 0 C 1.6 km/h
1502 12-01-2014 10:05:00 0.1 C 4.73 g/m*3 -2.07 C 6.4 km/h
1503 12-01-2014 10:10:00 0.1 C 4.73 g/m*3 0.1 C 4.8 km/h
1504 12-01-2014 10:15:00 0.1 C 4.73 g/m*3 0.1 C 1.6 km/h
1505 12-01-2014 10:20:00 0.1 C 4.73 g/m*3 0.1 C 4.8 km/h
1506 12-01-2014 10:25:00 0.2 C 4.77 g/m*3 0.2 C 3.2 km/h
1507 12-01-2014 10:30:00 0.2 C 4.77 g/m*3 0.2 C 3.2 km/h
1508 12-01-2014 10:35:00 0.2 C 4.77 g/m*3 0.2 C 4.8 km/h
1509 12-01-2014 10:40:00 0.2 C 4.77 g/m*3 -1.95 C 6.4 km/h
1510 12-01-2014 10:45:00 0.2 C 4.77 g/m*3 0.2 C 4.8 km/h
1511 12-01-2014 10:50:00 0.2 C 4.77 g/m*3 -2.53 C 8.1 km/h
1512 12-01-2014 10:55:00 0.2 C 4.77 g/m*3 -3 C 9.7 km/h
1513 12-01-2014 11:00:00 0.2 C 4.77 g/m*3 -1.95 C 6.4 km/h
1514 12-01-2014 11:05:00 0.2 C 4.77 g/m*3 -2.53 C 8.1 km/h
1515 12-01-2014 11:10:00 0.2 C 4.77 g/m*3 -2.53 C 8.1 km/h
1516 12-01-2014 11:15:00 0.2 C 4.77 g/m*3 -1.95 C 6.4 km/h
1517 12-01-2014 11:20:00 0.2 C 4.77 g/m*3 -2.53 C 8.1 km/h
1518 12-01-2014 11:25:00 0.3 C 4.85 g/m*3 -1.84 C 6.4 km/h
1519 12-01-2014 11:30:00 0.3 C 4.85 g/m*3 -1.84 C 6.4 km/h
1520 12-01-2014 11:35:00 0.3 C 4.85 g/m*3 0.3 C 1.6 km/h
1521 12-01-2014 11:40:00 0.3 C 4.85 g/m*3 0.3 C 4.8 km/h
1522 12-01-2014 11:45:00 0.3 C 4.85 g/m*3 0.3 C 4.8 km/h
1523 12-01-2014 11:50:00 0.3 C 4.85 g/m*3 0.3 C 4.8 km/h
1524 12-01-2014 11:55:00 0.3 C 4.85 g/m*3 0.3 C 1.6 km/h
1525 12-01-2014 12:00:00 0.4 C 4.88 g/m*3 0.4 C 3.2 km/h
Sensor: Nr:Datum:Temp:Abs-Feuchte:Windchill:Wind:
Aussen-T/F 1526 12-01-2014 12:05:00 0.4 C 4.88 g/m*3 0.4 C 3.2 km/h
1527 12-01-2014 12:10:00 0.4 C 4.88 g/m*3 0.4 C 1.6 km/h
1528 12-01-2014 12:15:00 0.4 C 4.88 g/m*3 0.4 C 3.2 km/h
1529 12-01-2014 12:20:00 0.4 C 4.88 g/m*3 0.4 C 1.6 km/h
1530 12-01-2014 12:25:00 0.4 C 4.88 g/m*3 0.4 C 1.6 km/h
1531 12-01-2014 12:30:00 0.5 C 4.91 g/m*3 0.5 C 3.2 km/h
1532 12-01-2014 12:35:00 0.5 C 4.91 g/m*3 0.5 C 3.2 km/h
1533 12-01-2014 12:40:00 0.5 C 4.91 g/m*3 0.5 C 3.2 km/h
1534 12-01-2014 12:45:00 0.5 C 4.91 g/m*3 0.5 C 1.6 km/h
1535 12-01-2014 12:50:00 0.6 C 4.95 g/m*3 0.6 C 0 km/h
1536 12-01-2014 12:55:00 0.6 C 4.95 g/m*3 0.6 C 1.6 km/h
1537 12-01-2014 13:00:00 0.6 C 4.95 g/m*3 0.6 C 0 km/h
1538 12-01-2014 13:05:00 0.6 C 4.95 g/m*3 0.6 C 1.6 km/h
1539 12-01-2014 13:10:00 0.7 C 4.98 g/m*3 0.7 C 0 km/h
1540 12-01-2014 13:15:00 0.7 C 4.98 g/m*3 0.7 C 1.6 km/h
1541 12-01-2014 13:20:00 0.8 C 5.02 g/m*3 0.8 C 1.6 km/h
1542 12-01-2014 13:25:00 0.8 C 5.02 g/m*3 0.8 C 1.6 km/h
1543 12-01-2014 13:30:00 0.8 C 5.02 g/m*3 0.8 C 3.2 km/h
1544 12-01-2014 13:35:00 0.8 C 5.02 g/m*3 0.8 C 0 km/h
1545 12-01-2014 13:40:00 1 C 5.09 g/m*3 1 C 4.8 km/h
1546 12-01-2014 13:45:00 1.1 C 5.12 g/m*3 1.1 C 3.2 km/h
1547 12-01-2014 13:50:00 1.1 C 5.12 g/m*3 1.1 C 4.8 km/h
1548 12-01-2014 13:55:00 1.1 C 5.12 g/m*3 1.1 C 4.8 km/h
1549 12-01-2014 14:00:00 1.1 C 5.12 g/m*3 1.1 C 0 km/h
1550 12-01-2014 14:05:00 1.2 C 5.16 g/m*3 1.2 C 1.6 km/h
Sensor: Nr:Datum:Temp:Abs-Feuchte:Windchill:Wind:
Aussen-T/F 1551 12-01-2014 14:10:00 1.3 C 5.19 g/m*3 1.3 C 4.8 km/h
1552 12-01-2014 14:15:00 1.4 C 5.23 g/m*3 1.4 C 3.2 km/h
1553 12-01-2014 14:20:00 1.4 C 5.23 g/m*3 1.4 C 1.6 km/h
1554 12-01-2014 14:25:00 1.4 C 5.23 g/m*3 1.4 C 3.2 km/h
1555 12-01-2014 14:30:00 1.4 C 5.23 g/m*3 1.4 C 1.6 km/h
1556 12-01-2014 14:35:00 1.4 C 5.23 g/m*3 1.4 C 1.6 km/h
1557 12-01-2014 14:40:00 1.4 C 5.23 g/m*3 1.4 C 0 km/h
1558 12-01-2014 14:45:00 1.4 C 5.23 g/m*3 1.4 C 3.2 km/h
1559 12-01-2014 14:50:00 1.4 C 5.23 g/m*3 1.4 C 3.2 km/h
1560 12-01-2014 14:55:00 1.4 C 5.23 g/m*3 1.4 C 0 km/h
1561 12-01-2014 15:00:00 1.4 C 5.23 g/m*3 1.4 C 1.6 km/h
1562 12-01-2014 15:05:00 1.4 C 5.23 g/m*3 1.4 C 3.2 km/h
1563 12-01-2014 15:10:00 1.3 C 5.19 g/m*3 1.3 C 3.2 km/h
1564 12-01-2014 15:15:00 1.3 C 5.19 g/m*3 1.3 C 3.2 km/h
1565 12-01-2014 15:20:00 1.2 C 5.16 g/m*3 1.2 C 3.2 km/h
1566 12-01-2014 15:25:00 1.2 C 5.16 g/m*3 1.2 C 3.2 km/h
1567 12-01-2014 15:30:00 1.2 C 5.16 g/m*3 1.2 C 1.6 km/h
1568 12-01-2014 16:05:00 1.1 C 5.12 g/m*3 1.1 C 1.6 km/h
1569 12-01-2014 16:10:00 1.1 C 5.12 g/m*3 1.1 C 0 km/h
1570 12-01-2014 16:15:00 1.1 C 5.12 g/m*3 1.1 C 0 km/h
1571 12-01-2014 16:20:00 1 C 5.09 g/m*3 1 C 1.6 km/h
1572 12-01-2014 16:25:00 1 C 5.09 g/m*3 1 C 3.2 km/h
1573 12-01-2014 16:30:00 0.9 C 5.05 g/m*3 0.9 C 1.6 km/h
1574 12-01-2014 16:35:00 0.9 C 5.05 g/m*3 0.9 C 1.6 km/h
1575 12-01-2014 16:40:00 0.9 C 5.05 g/m*3 0.9 C 0 km/h
Sensor: Nr:Datum:Temp:Abs-Feuchte:Windchill:Wind:
Aussen-T/F 1576 12-01-2014 17:20:00 0.4 C 4.88 g/m*3 0.4 C 0 km/h
1577 12-01-2014 17:25:00 0.3 C 4.85 g/m*3 0.3 C 0 km/h
1578 12-01-2014 17:30:00 0.3 C 4.85 g/m*3 0.3 C 1.6 km/h
1579 12-01-2014 17:35:00 0.2 C 4.81 g/m*3 0.2 C 1.6 km/h
1580 12-01-2014 17:40:00 0.2 C 4.81 g/m*3 0.2 C 1.6 km/h
1581 12-01-2014 17:45:00 0.1 C 4.78 g/m*3 0.1 C 0 km/h
1582 12-01-2014 17:50:00 0.1 C 4.78 g/m*3 0.1 C 0 km/h
1583 12-01-2014 17:55:00 -0.1 C 4.72 g/m*3 -0.1 C 0 km/h
1584 12-01-2014 18:00:00 -0.1 C 4.72 g/m*3 -0.1 C 3.2 km/h
1585 12-01-2014 18:05:00 -0.1 C 4.72 g/m*3 -0.1 C 4.8 km/h
1586 12-01-2014 18:10:00 -0.2 C 4.68 g/m*3 -0.2 C 0 km/h
1587 12-01-2014 18:15:00 -0.2 C 4.68 g/m*3 -0.2 C 0 km/h
1588 12-01-2014 18:20:00 -0.2 C 4.68 g/m*3 -0.2 C 0 km/h
1589 12-01-2014 18:25:00 -0.3 C 4.65 g/m*3 -0.3 C 0 km/h
1590 12-01-2014 18:30:00 -0.3 C 4.65 g/m*3 -0.3 C 0 km/h
1591 12-01-2014 18:35:00 -0.3 C 4.65 g/m*3 -0.3 C 1.6 km/h
1592 12-01-2014 18:40:00 -0.3 C 4.65 g/m*3 -0.3 C 0 km/h
1593 12-01-2014 18:45:00 -0.4 C 4.62 g/m*3 -0.4 C 0 km/h
1594 12-01-2014 18:50:00 -0.4 C 4.62 g/m*3 -0.4 C 0 km/h
1595 12-01-2014 18:55:00 -0.4 C 4.62 g/m*3 -0.4 C 0 km/h
1596 12-01-2014 19:00:00 -0.4 C 4.62 g/m*3 -0.4 C 0 km/h
1597 12-01-2014 19:05:00 -0.4 C 4.62 g/m*3 -0.4 C 1.6 km/h
1598 12-01-2014 19:10:00 -0.5 C 4.59 g/m*3 -0.5 C 1.6 km/h
1599 12-01-2014 19:15:00 -0.5 C 4.59 g/m*3 -0.5 C 0 km/h
1600 12-01-2014 19:20:00 -0.6 C 4.56 g/m*3 -0.6 C 0 km/h
Sensor: Nr:Datum:Temp:Abs-Feuchte:Windchill:Wind:
Aussen-T/F 1601 12-01-2014 19:25:00 -0.6 C 4.56 g/m*3 -0.6 C 0 km/h
1602 12-01-2014 19:30:00 -0.6 C 4.56 g/m*3 -0.6 C 0 km/h
1603 12-01-2014 19:35:00 -0.6 C 4.56 g/m*3 -0.6 C 0 km/h
1604 12-01-2014 19:40:00 -0.6 C 4.56 g/m*3 -0.6 C 0 km/h
1605 12-01-2014 19:45:00 -0.6 C 4.56 g/m*3 -0.6 C 0 km/h
1606 12-01-2014 19:50:00 -0.6 C 4.56 g/m*3 -0.6 C 0 km/h
1607 12-01-2014 19:55:00 -0.7 C 4.52 g/m*3 -0.7 C 1.6 km/h
1608 12-01-2014 20:00:00 -0.7 C 4.52 g/m*3 -0.7 C 3.2 km/h
1609 12-01-2014 20:05:00 -0.7 C 4.52 g/m*3 -0.7 C 3.2 km/h
1610 12-01-2014 20:10:00 -0.8 C 4.49 g/m*3 -0.8 C 3.2 km/h
1611 12-01-2014 20:15:00 -0.8 C 4.49 g/m*3 -0.8 C 3.2 km/h
1612 12-01-2014 20:20:00 -0.8 C 4.49 g/m*3 -0.8 C 0 km/h
1613 12-01-2014 20:25:00 -0.8 C 4.49 g/m*3 -0.8 C 0 km/h
1614 12-01-2014 20:30:00 -0.8 C 4.49 g/m*3 -0.8 C 0 km/h
1615 12-01-2014 20:35:00 -0.8 C 4.49 g/m*3 -0.8 C 0 km/h
1616 12-01-2014 20:40:00 -0.8 C 4.49 g/m*3 -0.8 C 0 km/h
1617 12-01-2014 20:45:00 -0.9 C 4.46 g/m*3 -0.9 C 0 km/h
1618 12-01-2014 20:50:00 -0.9 C 4.46 g/m*3 -0.9 C 0 km/h
1619 12-01-2014 20:55:00 -0.9 C 4.46 g/m*3 -0.9 C 1.6 km/h
1620 12-01-2014 21:00:00 -1 C 4.43 g/m*3 -1 C 3.2 km/h
1621 12-01-2014 21:05:00 -1.1 C 4.4 g/m*3 -1.1 C 1.6 km/h
1622 12-01-2014 21:10:00 -1.1 C 4.4 g/m*3 -1.1 C 3.2 km/h
1623 12-01-2014 21:15:00 -1.2 C 4.37 g/m*3 -1.2 C 3.2 km/h
1624 12-01-2014 21:20:00 -1.2 C 4.37 g/m*3 -1.2 C 0 km/h
1625 12-01-2014 21:25:00 -1.2 C 4.37 g/m*3 -1.2 C 1.6 km/h
Sensor: Nr:Datum:Temp:Abs-Feuchte:Windchill:Wind:
Aussen-T/F 1626 12-01-2014 21:30:00 -1.2 C 4.37 g/m*3 -1.2 C 3.2 km/h
1627 12-01-2014 21:35:00 -1.3 C 4.34 g/m*3 -1.3 C 4.8 km/h
1628 12-01-2014 21:40:00 -1.3 C 4.34 g/m*3 -3.68 C 6.4 km/h
1629 12-01-2014 21:45:00 -1.3 C 4.34 g/m*3 -1.3 C 0 km/h
1630 12-01-2014 21:50:00 -1.4 C 4.31 g/m*3 -1.4 C 1.6 km/h
1631 12-01-2014 21:55:00 -1.4 C 4.31 g/m*3 -1.4 C 1.6 km/h
1632 12-01-2014 22:00:00 -1.4 C 4.31 g/m*3 -1.4 C 3.2 km/h
1633 12-01-2014 22:05:00 -1.4 C 4.31 g/m*3 -1.4 C 3.2 km/h
1634 12-01-2014 22:10:00 -1.4 C 4.31 g/m*3 -1.4 C 3.2 km/h
1635 12-01-2014 22:15:00 -1.5 C 4.28 g/m*3 -1.5 C 1.6 km/h
1636 12-01-2014 22:20:00 -1.5 C 4.28 g/m*3 -1.5 C 0 km/h
1637 12-01-2014 22:25:00 -1.5 C 4.28 g/m*3 -1.5 C 0 km/h
1638 12-01-2014 22:30:00 -1.6 C 4.25 g/m*3 -1.6 C 3.2 km/h
1639 12-01-2014 22:35:00 -1.6 C 4.25 g/m*3 -1.6 C 3.2 km/h
1640 12-01-2014 22:40:00 -1.6 C 4.25 g/m*3 -1.6 C 4.8 km/h
1641 12-01-2014 22:45:00 -1.7 C 4.22 g/m*3 -1.7 C 3.2 km/h
1642 12-01-2014 22:50:00 -1.7 C 4.22 g/m*3 -1.7 C 3.2 km/h
1643 12-01-2014 22:55:00 -1.7 C 4.22 g/m*3 -1.7 C 3.2 km/h
1644 12-01-2014 23:00:00 -1.7 C 4.22 g/m*3 -1.7 C 3.2 km/h
1645 12-01-2014 23:05:00 -1.7 C 4.22 g/m*3 -1.7 C 3.2 km/h
1646 12-01-2014 23:10:00 -1.7 C 4.22 g/m*3 -1.7 C 4.8 km/h
1647 12-01-2014 23:15:00 -1.7 C 4.22 g/m*3 -1.7 C 1.6 km/h
1648 12-01-2014 23:20:00 -1.7 C 4.22 g/m*3 -1.7 C 3.2 km/h
1649 12-01-2014 23:25:00 -1.7 C 4.22 g/m*3 -1.7 C 1.6 km/h
1650 12-01-2014 23:30:00 -1.7 C 4.22 g/m*3 -1.7 C 3.2 km/h
Sensor: Nr:Datum:Temp:Abs-Feuchte:Windchill:Wind:
Aussen-T/F 1651 12-01-2014 23:35:00 -1.7 C 4.22 g/m*3 -1.7 C 1.6 km/h
1652 12-01-2014 23:40:00 -1.7 C 4.22 g/m*3 -1.7 C 0 km/h
1653 12-01-2014 23:45:00 -1.7 C 4.22 g/m*3 -1.7 C 0 km/h
1654 12-01-2014 23:50:00 -1.7 C 4.22 g/m*3 -1.7 C 1.6 km/h
1655 12-01-2014 23:55:00 -1.7 C 4.22 g/m*3 -1.7 C 0 km/h
1656 13-01-2014 00:00:00 -1.7 C 4.22 g/m*3 -1.7 C 0 km/h
1657 13-01-2014 00:05:00 -1.7 C 4.22 g/m*3 -1.7 C 0 km/h
1658 13-01-2014 00:10:00 -1.7 C 4.22 g/m*3 -1.7 C 0 km/h
1659 13-01-2014 00:15:00 -1.7 C 4.22 g/m*3 -1.7 C 0 km/h
1660 13-01-2014 00:20:00 -1.7 C 4.22 g/m*3 -1.7 C 0 km/h
1661 13-01-2014 00:25:00 -1.7 C 4.22 g/m*3 -1.7 C 0 km/h
1662 13-01-2014 00:30:00 -1.7 C 4.22 g/m*3 -1.7 C 1.6 km/h
1663 13-01-2014 00:35:00 -1.7 C 4.22 g/m*3 -1.7 C 0 km/h
1664 13-01-2014 00:40:00 -1.7 C 4.22 g/m*3 -1.7 C 0 km/h
1665 13-01-2014 00:45:00 -1.7 C 4.22 g/m*3 -1.7 C 0 km/h
1666 13-01-2014 00:50:00 -1.7 C 4.22 g/m*3 -1.7 C 1.6 km/h
1667 13-01-2014 00:55:00 -1.7 C 4.22 g/m*3 -1.7 C 0 km/h
1668 13-01-2014 01:00:00 -1.7 C 4.22 g/m*3 -1.7 C 1.6 km/h
1669 13-01-2014 01:05:00 -1.7 C 4.22 g/m*3 -1.7 C 0 km/h
1670 13-01-2014 01:10:00 -1.7 C 4.22 g/m*3 -1.7 C 0 km/h
1671 13-01-2014 01:15:00 -1.7 C 4.22 g/m*3 -1.7 C 0 km/h
1672 13-01-2014 01:20:00 -1.7 C 4.22 g/m*3 -1.7 C 0 km/h
1673 13-01-2014 01:25:00 -1.7 C 4.22 g/m*3 -1.7 C 0 km/h
1674 13-01-2014 01:30:00 -1.7 C 4.22 g/m*3 -1.7 C 0 km/h
1675 13-01-2014 01:35:00 -1.7 C 4.22 g/m*3 -1.7 C 0 km/h
Sensor: Nr:Datum:Temp:Abs-Feuchte:Windchill:Wind:
Aussen-T/F 1676 13-01-2014 01:40:00 -1.7 C 4.22 g/m*3 -1.7 C 1.6 km/h
1677 13-01-2014 01:45:00 -1.7 C 4.22 g/m*3 -1.7 C 0 km/h
1678 13-01-2014 01:50:00 -1.6 C 4.25 g/m*3 -1.6 C 0 km/h
1679 13-01-2014 01:55:00 -1.6 C 4.25 g/m*3 -1.6 C 0 km/h
1680 13-01-2014 02:00:00 -1.6 C 4.25 g/m*3 -1.6 C 0 km/h
1681 13-01-2014 02:05:00 -1.5 C 4.28 g/m*3 -1.5 C 0 km/h
1682 13-01-2014 02:10:00 -1.4 C 4.31 g/m*3 -1.4 C 0 km/h
1683 13-01-2014 02:15:00 -1.3 C 4.34 g/m*3 -1.3 C 1.6 km/h
1684 13-01-2014 02:20:00 -1.3 C 4.34 g/m*3 -1.3 C 1.6 km/h
1685 13-01-2014 02:25:00 -1.1 C 4.4 g/m*3 -1.1 C 1.6 km/h
1686 13-01-2014 02:30:00 -1 C 4.43 g/m*3 -1 C 1.6 km/h
1687 13-01-2014 02:35:00 -0.9 C 4.46 g/m*3 -0.9 C 1.6 km/h
1688 13-01-2014 02:40:00 -0.8 C 4.49 g/m*3 -0.8 C 0 km/h
1689 13-01-2014 02:45:00 -0.8 C 4.49 g/m*3 -0.8 C 0 km/h
1690 13-01-2014 02:50:00 -0.7 C 4.52 g/m*3 -0.7 C 0 km/h
1691 13-01-2014 02:55:00 -0.6 C 4.56 g/m*3 -0.6 C 0 km/h
1692 13-01-2014 03:00:00 -0.5 C 4.59 g/m*3 -0.5 C 0 km/h
1693 13-01-2014 03:05:00 -0.5 C 4.59 g/m*3 -0.5 C 0 km/h
1694 13-01-2014 03:10:00 -0.4 C 4.62 g/m*3 -0.4 C 4.8 km/h
1695 13-01-2014 03:15:00 -0.3 C 4.65 g/m*3 -0.3 C 1.6 km/h
1696 13-01-2014 03:20:00 -0.2 C 4.68 g/m*3 -0.2 C 4.8 km/h
1697 13-01-2014 03:25:00 -0.1 C 4.72 g/m*3 -0.1 C 4.8 km/h
1698 13-01-2014 03:30:00 -0.1 C 4.72 g/m*3 -0.1 C 0 km/h
1699 13-01-2014 03:35:00 -0.1 C 4.72 g/m*3 -0.1 C 4.8 km/h
1700 13-01-2014 03:40:00 -0.1 C 4.72 g/m*3 -0.1 C 1.6 km/h
Sensor: Nr:Datum:Temp:Abs-Feuchte:Windchill:Wind:
Aussen-T/F 1701 13-01-2014 03:45:00 -0.1 C 4.72 g/m*3 -0.1 C 0 km/h
1702 13-01-2014 03:50:00 -0.1 C 4.72 g/m*3 -0.1 C 1.6 km/h
1703 13-01-2014 03:55:00 0 C 4.75 g/m*3 0 C 1.6 km/h
1704 13-01-2014 04:00:00 0.1 C 4.78 g/m*3 -2.07 C 6.4 km/h
1705 13-01-2014 04:05:00 0.1 C 4.78 g/m*3 0.1 C 1.6 km/h
1706 13-01-2014 04:10:00 0.1 C 4.78 g/m*3 0.1 C 3.2 km/h
1707 13-01-2014 04:15:00 0.2 C 4.81 g/m*3 0.2 C 3.2 km/h
1708 13-01-2014 04:20:00 0.2 C 4.81 g/m*3 0.2 C 3.2 km/h
1709 13-01-2014 04:25:00 0.2 C 4.81 g/m*3 0.2 C 3.2 km/h
1710 13-01-2014 04:30:00 0.2 C 4.81 g/m*3 0.2 C 0 km/h
1711 13-01-2014 04:35:00 0.2 C 4.81 g/m*3 0.2 C 0 km/h
1712 13-01-2014 04:40:00 0.3 C 4.85 g/m*3 0.3 C 0 km/h
1713 13-01-2014 04:45:00 0.3 C 4.85 g/m*3 0.3 C 3.2 km/h
1714 13-01-2014 04:50:00 0.4 C 4.88 g/m*3 0.4 C 0 km/h
1715 13-01-2014 04:55:00 0.6 C 4.95 g/m*3 0.6 C 1.6 km/h
1716 13-01-2014 05:00:00 0.6 C 4.95 g/m*3 0.6 C 3.2 km/h
1717 13-01-2014 05:05:00 0.7 C 4.98 g/m*3 0.7 C 0 km/h
1718 13-01-2014 05:10:00 0.8 C 5.02 g/m*3 0.8 C 1.6 km/h
1719 13-01-2014 05:15:00 0.9 C 5.05 g/m*3 0.9 C 0 km/h
1720 13-01-2014 05:20:00 1 C 5.09 g/m*3 1 C 0 km/h
1721 13-01-2014 05:25:00 1.1 C 5.12 g/m*3 1.1 C 0 km/h
1722 13-01-2014 05:30:00 1.2 C 5.16 g/m*3 1.2 C 0 km/h
1723 13-01-2014 05:35:00 1.2 C 5.16 g/m*3 1.2 C 0 km/h
1724 13-01-2014 05:40:00 1.2 C 5.16 g/m*3 1.2 C 0 km/h
1725 13-01-2014 05:45:00 1.3 C 5.19 g/m*3 1.3 C 0 km/h
Sensor: Nr:Datum:Temp:Abs-Feuchte:Windchill:Wind:
Aussen-T/F 1726 13-01-2014 05:50:00 1.3 C 5.19 g/m*3 1.3 C 0 km/h
1727 13-01-2014 05:55:00 1.4 C 5.23 g/m*3 1.4 C 1.6 km/h
1728 13-01-2014 06:00:00 1.4 C 5.23 g/m*3 1.4 C 0 km/h
1729 13-01-2014 06:05:00 1.5 C 5.26 g/m*3 1.5 C 0 km/h
1730 13-01-2014 06:10:00 1.6 C 5.3 g/m*3 1.6 C 0 km/h
1731 13-01-2014 06:15:00 1.7 C 5.34 g/m*3 1.7 C 0 km/h
1732 13-01-2014 06:20:00 1.8 C 5.37 g/m*3 1.8 C 1.6 km/h
1733 13-01-2014 06:25:00 1.8 C 5.37 g/m*3 1.8 C 3.2 km/h
1734 13-01-2014 06:30:00 1.9 C 5.41 g/m*3 1.9 C 3.2 km/h
1735 13-01-2014 06:35:00 1.9 C 5.41 g/m*3 1.9 C 1.6 km/h
1736 13-01-2014 06:40:00 2 C 5.45 g/m*3 2 C 0 km/h
1737 13-01-2014 06:45:00 2 C 5.45 g/m*3 2 C 0 km/h
1738 13-01-2014 06:50:00 2.1 C 5.48 g/m*3 2.1 C 3.2 km/h
1739 13-01-2014 06:55:00 2.2 C 5.52 g/m*3 2.2 C 1.6 km/h
1740 13-01-2014 07:00:00 2.2 C 5.52 g/m*3 2.2 C 1.6 km/h
1741 13-01-2014 07:05:00 2.3 C 5.56 g/m*3 2.3 C 0 km/h
1742 13-01-2014 07:10:00 2.2 C 5.52 g/m*3 2.2 C 0 km/h
1743 13-01-2014 07:15:00 2.2 C 5.52 g/m*3 2.2 C 0 km/h
1744 13-01-2014 07:20:00 2.3 C 5.56 g/m*3 2.3 C 0 km/h
1745 13-01-2014 07:25:00 2.3 C 5.56 g/m*3 2.3 C 0 km/h
1746 13-01-2014 07:30:00 2.3 C 5.56 g/m*3 2.3 C 0 km/h
1747 13-01-2014 07:35:00 2.4 C 5.6 g/m*3 2.4 C 1.6 km/h
1748 13-01-2014 07:40:00 2.4 C 5.6 g/m*3 2.4 C 0 km/h
1749 13-01-2014 07:45:00 2.4 C 5.6 g/m*3 2.4 C 1.6 km/h
1750 13-01-2014 07:50:00 2.5 C 5.63 g/m*3 2.5 C 0 km/h
Sensor: Nr:Datum:Temp:Abs-Feuchte:Windchill:Wind:
Aussen-T/F 1751 13-01-2014 07:55:00 2.5 C 5.63 g/m*3 2.5 C 0 km/h
1752 13-01-2014 08:00:00 2.4 C 5.6 g/m*3 2.4 C 0 km/h
1753 13-01-2014 08:05:00 2.4 C 5.6 g/m*3 2.4 C 0 km/h
1754 13-01-2014 08:10:00 2.5 C 5.63 g/m*3 2.5 C 0 km/h
1755 13-01-2014 08:15:00 2.6 C 5.67 g/m*3 2.6 C 1.6 km/h
1756 13-01-2014 08:20:00 2.6 C 5.67 g/m*3 2.6 C 0 km/h
1757 13-01-2014 08:25:00 2.7 C 5.71 g/m*3 2.7 C 0 km/h
1758 13-01-2014 08:30:00 2.7 C 5.71 g/m*3 2.7 C 0 km/h
1759 13-01-2014 08:35:00 2.8 C 5.75 g/m*3 2.8 C 0 km/h
1760 13-01-2014 08:40:00 2.8 C 5.75 g/m*3 2.8 C 0 km/h
1761 13-01-2014 08:45:00 2.8 C 5.75 g/m*3 2.8 C 0 km/h
1762 13-01-2014 08:50:00 2.8 C 5.75 g/m*3 2.8 C 3.2 km/h
1763 13-01-2014 08:55:00 2.8 C 5.75 g/m*3 2.8 C 1.6 km/h
1764 13-01-2014 09:00:00 2.9 C 5.79 g/m*3 2.9 C 0 km/h
1765 13-01-2014 09:05:00 2.9 C 5.79 g/m*3 2.9 C 0 km/h
1766 13-01-2014 09:10:00 3 C 5.83 g/m*3 3 C 0 km/h
1767 13-01-2014 09:15:00 3.1 C 5.87 g/m*3 3.1 C 0 km/h
1768 13-01-2014 09:20:00 3.1 C 5.87 g/m*3 3.1 C 0 km/h
1769 13-01-2014 09:25:00 3.2 C 5.91 g/m*3 3.2 C 0 km/h
1770 13-01-2014 09:30:00 3.2 C 5.91 g/m*3 3.2 C 0 km/h
1771 13-01-2014 09:35:00 3.3 C 5.95 g/m*3 3.3 C 0 km/h
1772 13-01-2014 09:40:00 3.3 C 5.95 g/m*3 3.3 C 0 km/h
1773 13-01-2014 09:45:00 3.4 C 6.05 g/m*3 3.4 C 0 km/h
1774 13-01-2014 09:50:00 3.4 C 5.99 g/m*3 3.4 C 0 km/h
1775 13-01-2014 09:55:00 3.4 C 5.99 g/m*3 3.4 C 0 km/h
Sensor: Nr:Datum:Temp:Abs-Feuchte:Windchill:Wind:
Aussen-T/F 1776 13-01-2014 10:00:00 3.5 C 6.03 g/m*3 3.5 C 0 km/h
1777 13-01-2014 10:05:00 3.6 C 6.07 g/m*3 3.6 C 0 km/h
1778 13-01-2014 10:10:00 3.7 C 6.11 g/m*3 3.7 C 3.2 km/h
1779 13-01-2014 10:15:00 3.7 C 6.11 g/m*3 3.7 C 0 km/h
1780 13-01-2014 10:20:00 3.7 C 6.17 g/m*3 3.7 C 0 km/h
1781 13-01-2014 10:25:00 3.7 C 6.17 g/m*3 3.7 C 0 km/h
1782 13-01-2014 10:30:00 3.8 C 6.21 g/m*3 3.8 C 0 km/h
1783 13-01-2014 10:35:00 3.8 C 6.15 g/m*3 3.8 C 0 km/h
1784 13-01-2014 10:40:00 3.9 C 6.19 g/m*3 3.9 C 0 km/h
1785 13-01-2014 10:45:00 4 C 6.23 g/m*3 4 C 0 km/h
1786 13-01-2014 10:50:00 4.2 C 6.38 g/m*3 4.2 C 1.6 km/h
1787 13-01-2014 10:55:00 4.4 C 6.46 g/m*3 4.4 C 1.6 km/h
1788 13-01-2014 11:00:00 4.9 C 6.68 g/m*3 4.9 C 4.8 km/h
1789 13-01-2014 11:05:00 5.3 C 6.86 g/m*3 5.3 C 4.8 km/h
1790 13-01-2014 11:10:00 5.2 C 6.75 g/m*3 5.2 C 4.8 km/h
1791 13-01-2014 11:15:00 4.9 C 6.68 g/m*3 4.9 C 4.8 km/h
1792 13-01-2014 11:20:00 4.8 C 6.57 g/m*3 4.8 C 3.2 km/h
1793 13-01-2014 11:25:00 4.8 C 6.57 g/m*3 4.8 C 0 km/h
1794 13-01-2014 11:30:00 4.9 C 6.68 g/m*3 4.9 C 0 km/h
1795 13-01-2014 11:35:00 5.1 C 6.77 g/m*3 5.1 C 0 km/h
1796 13-01-2014 11:40:00 5.1 C 6.77 g/m*3 5.1 C 0 km/h
1797 13-01-2014 11:45:00 5.4 C 6.91 g/m*3 5.4 C 0 km/h
1798 13-01-2014 11:50:00 5.6 C 7 g/m*3 5.6 C 1.6 km/h
1799 13-01-2014 11:55:00 5.5 C 6.95 g/m*3 5.5 C 3.2 km/h
1800 13-01-2014 12:00:00 5.6 C 7 g/m*3 5.6 C 1.6 km/h
Sensor: Nr:Datum:Temp:Abs-Feuchte:Windchill:Wind:
Aussen-T/F 1801 13-01-2014 12:05:00 5.8 C 7.09 g/m*3 4.05 C 8.1 km/h
1802 13-01-2014 12:10:00 6.1 C 7.23 g/m*3 4.04 C 9.7 km/h
1803 13-01-2014 12:15:00 6.2 C 7.28 g/m*3 3.3 C 14.5 km/h
1804 13-01-2014 12:20:00 6.3 C 7.33 g/m*3 3.43 C 14.5 km/h
1805 13-01-2014 12:25:00 6.3 C 7.33 g/m*3 5.1 C 6.4 km/h
1806 13-01-2014 12:30:00 6.4 C 7.38 g/m*3 6.4 C 4.8 km/h
1807 13-01-2014 12:35:00 6.6 C 7.47 g/m*3 6.6 C 4.8 km/h
1808 13-01-2014 12:40:00 6.6 C 7.4 g/m*3 6.6 C 4.8 km/h
1809 13-01-2014 12:45:00 6.7 C 7.37 g/m*3 5.56 C 6.4 km/h
1810 13-01-2014 12:50:00 6.9 C 7.39 g/m*3 4.99 C 9.7 km/h
1811 13-01-2014 12:55:00 7.1 C 7.41 g/m*3 5.23 C 9.7 km/h
1812 13-01-2014 13:00:00 7.2 C 7.46 g/m*3 7.2 C 4.8 km/h
1813 13-01-2014 13:05:00 7.3 C 7.43 g/m*3 7.3 C 4.8 km/h
1814 13-01-2014 13:10:00 7.6 C 7.41 g/m*3 7.6 C 3.2 km/h
1815 13-01-2014 13:15:00 7.7 C 7.38 g/m*3 6.28 C 8.1 km/h
1816 13-01-2014 13:20:00 7.8 C 7.35 g/m*3 6.83 C 6.4 km/h
1817 13-01-2014 13:25:00 7.9 C 7.31 g/m*3 6.94 C 6.4 km/h
1818 13-01-2014 13:30:00 8.1 C 7.41 g/m*3 6.75 C 8.1 km/h
1819 13-01-2014 13:35:00 8.1 C 7.32 g/m*3 6.75 C 8.1 km/h
1820 13-01-2014 13:40:00 8.2 C 7.37 g/m*3 7.29 C 6.4 km/h
1821 13-01-2014 13:45:00 8.2 C 7.29 g/m*3 6.54 C 9.7 km/h
1822 13-01-2014 13:50:00 8.2 C 7.2 g/m*3 8.2 C 4.8 km/h
1823 13-01-2014 13:55:00 8.2 C 7.12 g/m*3 6.25 C 11.3 km/h
1824 13-01-2014 14:00:00 8.2 C 7.2 g/m*3 6.54 C 9.7 km/h
1825 13-01-2014 14:05:00 8.2 C 7.12 g/m*3 7.29 C 6.4 km/h
Sensor: Nr:Datum:Temp:Abs-Feuchte:Windchill:Wind:
Aussen-T/F 1826 13-01-2014 14:10:00 8.2 C 7.2 g/m*3 6.87 C 8.1 km/h
1827 13-01-2014 14:15:00 8.1 C 7.07 g/m*3 6.42 C 9.7 km/h
1828 13-01-2014 14:20:00 8.1 C 7.16 g/m*3 5.43 C 16.1 km/h
1829 13-01-2014 14:25:00 8.1 C 7.16 g/m*3 5.64 C 14.5 km/h
1830 13-01-2014 14:30:00 8 C 7.11 g/m*3 8 C 4.8 km/h
1831 13-01-2014 14:35:00 8 C 7.11 g/m*3 8 C 3.2 km/h
1832 13-01-2014 14:40:00 7.9 C 7.15 g/m*3 7.9 C 3.2 km/h
1833 13-01-2014 14:45:00 7.9 C 7.06 g/m*3 7.9 C 4.8 km/h
1834 13-01-2014 14:50:00 7.8 C 7.1 g/m*3 7.8 C 3.2 km/h
1835 13-01-2014 14:55:00 7.8 C 7.1 g/m*3 7.8 C 3.2 km/h
1836 13-01-2014 15:00:00 7.8 C 7.1 g/m*3 7.8 C 4.8 km/h
1837 13-01-2014 15:05:00 7.7 C 7.14 g/m*3 7.7 C 0 km/h
1838 13-01-2014 15:10:00 7.6 C 7.17 g/m*3 7.6 C 1.6 km/h
1839 13-01-2014 15:15:00 7.6 C 7.09 g/m*3 7.6 C 3.2 km/h
1840 13-01-2014 15:20:00 7.6 C 7.09 g/m*3 7.6 C 0 km/h
1841 13-01-2014 15:25:00 7.4 C 7.16 g/m*3 7.4 C 3.2 km/h
1842 13-01-2014 15:30:00 7.4 C 7.16 g/m*3 7.4 C 0 km/h
1843 13-01-2014 15:35:00 7.3 C 7.11 g/m*3 7.3 C 0 km/h
1844 13-01-2014 15:40:00 7.2 C 7.14 g/m*3 7.2 C 1.6 km/h
1845 13-01-2014 15:45:00 7.1 C 7.1 g/m*3 7.1 C 0 km/h
1846 13-01-2014 15:50:00 7 C 7.13 g/m*3 7 C 0 km/h
1847 13-01-2014 15:55:00 6.9 C 7.08 g/m*3 6.9 C 0 km/h
1848 13-01-2014 16:00:00 6.9 C 7.16 g/m*3 6.9 C 0 km/h
1849 13-01-2014 16:05:00 6.9 C 7.16 g/m*3 6.9 C 0 km/h
1850 13-01-2014 16:10:00 6.9 C 7.16 g/m*3 6.9 C 4.8 km/h
Sensor: Nr:Datum:Temp:Abs-Feuchte:Windchill:Wind:
Aussen-T/F 1851 13-01-2014 16:15:00 7 C 7.21 g/m*3 7 C 3.2 km/h
1852 13-01-2014 16:20:00 7 C 7.13 g/m*3 7 C 0 km/h
1853 13-01-2014 16:25:00 6.9 C 7.08 g/m*3 6.9 C 1.6 km/h
1854 13-01-2014 16:30:00 6.8 C 7.04 g/m*3 6.8 C 1.6 km/h
1855 13-01-2014 16:35:00 6.6 C 6.95 g/m*3 6.6 C 3.2 km/h
1856 13-01-2014 16:40:00 6.4 C 6.93 g/m*3 6.4 C 3.2 km/h
1857 13-01-2014 16:45:00 6.3 C 6.96 g/m*3 6.3 C 1.6 km/h
1858 13-01-2014 16:50:00 6.2 C 6.91 g/m*3 6.2 C 1.6 km/h
1859 13-01-2014 16:55:00 6.2 C 6.91 g/m*3 6.2 C 3.2 km/h
1860 13-01-2014 17:00:00 6.2 C 6.91 g/m*3 6.2 C 1.6 km/h
1861 13-01-2014 17:05:00 6.2 C 6.91 g/m*3 6.2 C 0 km/h
1862 13-01-2014 17:10:00 6.2 C 6.91 g/m*3 6.2 C 0 km/h
1863 13-01-2014 17:15:00 6.2 C 6.99 g/m*3 6.2 C 0 km/h
1864 13-01-2014 17:20:00 6.2 C 6.99 g/m*3 6.2 C 0 km/h
1865 13-01-2014 17:25:00 6.2 C 6.99 g/m*3 6.2 C 0 km/h
1866 13-01-2014 17:30:00 6.2 C 6.99 g/m*3 6.2 C 0 km/h
1867 13-01-2014 17:35:00 6.3 C 7.03 g/m*3 6.3 C 1.6 km/h
1868 13-01-2014 17:40:00 6.2 C 6.99 g/m*3 6.2 C 0 km/h
1869 13-01-2014 17:45:00 6.2 C 6.99 g/m*3 6.2 C 0 km/h
1870 13-01-2014 17:50:00 6.2 C 6.99 g/m*3 6.2 C 0 km/h
1871 13-01-2014 17:55:00 6.2 C 6.91 g/m*3 6.2 C 0 km/h
1872 13-01-2014 18:00:00 6.1 C 6.94 g/m*3 6.1 C 0 km/h
1873 13-01-2014 18:05:00 6.2 C 6.99 g/m*3 6.2 C 0 km/h
1874 13-01-2014 18:10:00 6.1 C 6.94 g/m*3 6.1 C 0 km/h
1875 13-01-2014 18:15:00 6.2 C 6.99 g/m*3 6.2 C 0 km/h
Sensor: Nr:Datum:Temp:Abs-Feuchte:Windchill:Wind:
Aussen-T/F 1876 13-01-2014 18:20:00 6.2 C 6.99 g/m*3 6.2 C 0 km/h
1877 13-01-2014 18:25:00 6.2 C 6.99 g/m*3 6.2 C 0 km/h
1878 13-01-2014 18:30:00 6.2 C 6.99 g/m*3 6.2 C 0 km/h
1879 13-01-2014 18:35:00 6.1 C 7.01 g/m*3 6.1 C 0 km/h
1880 13-01-2014 18:40:00 6.1 C 7.01 g/m*3 6.1 C 0 km/h
1881 13-01-2014 18:45:00 6.1 C 7.01 g/m*3 6.1 C 0 km/h
1882 13-01-2014 18:50:00 6.1 C 7.01 g/m*3 6.1 C 0 km/h
1883 13-01-2014 18:55:00 6.1 C 7.01 g/m*3 6.1 C 0 km/h
1884 13-01-2014 19:00:00 6.1 C 7.01 g/m*3 6.1 C 0 km/h
1885 13-01-2014 19:05:00 6.1 C 7.01 g/m*3 6.1 C 0 km/h
1886 13-01-2014 19:10:00 6.1 C 7.01 g/m*3 6.1 C 0 km/h
1887 13-01-2014 19:15:00 6.1 C 7.01 g/m*3 6.1 C 0 km/h
1888 13-01-2014 19:20:00 6.1 C 7.01 g/m*3 6.1 C 0 km/h
1889 13-01-2014 19:25:00 6 C 6.97 g/m*3 6 C 0 km/h
1890 13-01-2014 19:30:00 6 C 6.97 g/m*3 6 C 0 km/h
1891 13-01-2014 19:35:00 6 C 6.97 g/m*3 6 C 0 km/h
1892 13-01-2014 19:40:00 6 C 6.97 g/m*3 6 C 0 km/h
1893 13-01-2014 19:45:00 6 C 6.97 g/m*3 6 C 0 km/h
1894 13-01-2014 19:50:00 5.9 C 6.92 g/m*3 5.9 C 0 km/h
1895 13-01-2014 19:55:00 5.9 C 6.92 g/m*3 5.9 C 0 km/h
1896 13-01-2014 20:00:00 5.8 C 6.88 g/m*3 5.8 C 0 km/h
1897 13-01-2014 20:05:00 5.8 C 6.88 g/m*3 5.8 C 0 km/h
1898 13-01-2014 20:10:00 5.8 C 6.88 g/m*3 5.8 C 0 km/h
1899 13-01-2014 20:15:00 5.8 C 6.88 g/m*3 5.8 C 0 km/h
1900 13-01-2014 20:20:00 5.7 C 6.83 g/m*3 5.7 C 0 km/h
Sensor: Nr:Datum:Temp:Abs-Feuchte:Windchill:Wind:
Aussen-T/F 1901 13-01-2014 20:25:00 5.7 C 6.83 g/m*3 5.7 C 1.6 km/h
1902 13-01-2014 20:30:00 5.7 C 6.83 g/m*3 5.7 C 0 km/h
1903 13-01-2014 20:35:00 5.7 C 6.83 g/m*3 5.7 C 0 km/h
1904 13-01-2014 20:40:00 5.7 C 6.83 g/m*3 5.7 C 0 km/h
1905 13-01-2014 20:45:00 5.7 C 6.83 g/m*3 5.7 C 0 km/h
1906 13-01-2014 20:50:00 5.7 C 6.83 g/m*3 5.7 C 0 km/h
1907 13-01-2014 20:55:00 5.7 C 6.83 g/m*3 5.7 C 1.6 km/h
1908 13-01-2014 21:00:00 5.6 C 6.79 g/m*3 5.6 C 0 km/h
1909 13-01-2014 21:05:00 5.6 C 6.79 g/m*3 5.6 C 0 km/h
1910 13-01-2014 21:10:00 5.6 C 6.79 g/m*3 5.6 C 0 km/h
1911 13-01-2014 21:15:00 5.6 C 6.79 g/m*3 5.6 C 0 km/h
1912 13-01-2014 21:20:00 5.6 C 6.79 g/m*3 5.6 C 0 km/h
1913 13-01-2014 21:25:00 5.6 C 6.79 g/m*3 5.6 C 0 km/h
1914 13-01-2014 21:30:00 5.4 C 6.63 g/m*3 5.4 C 0 km/h
1915 13-01-2014 21:35:00 5.2 C 6.54 g/m*3 5.2 C 0 km/h
1916 13-01-2014 21:40:00 5 C 6.46 g/m*3 5 C 0 km/h
1917 13-01-2014 21:45:00 4.8 C 6.37 g/m*3 4.8 C 0 km/h
1918 13-01-2014 21:50:00 4.8 C 6.37 g/m*3 4.8 C 0 km/h
1919 13-01-2014 21:55:00 4.8 C 6.44 g/m*3 4.8 C 0 km/h
1920 13-01-2014 22:00:00 4.7 C 6.39 g/m*3 4.7 C 0 km/h
1921 13-01-2014 22:05:00 4.6 C 6.35 g/m*3 4.6 C 0 km/h
1922 13-01-2014 22:10:00 4.5 C 6.31 g/m*3 4.5 C 0 km/h
1923 13-01-2014 22:15:00 4.5 C 6.31 g/m*3 4.5 C 1.6 km/h
1924 13-01-2014 22:20:00 4.5 C 6.31 g/m*3 4.5 C 0 km/h
1925 13-01-2014 22:25:00 4.4 C 6.27 g/m*3 4.4 C 0 km/h
Sensor: Nr:Datum:Temp:Abs-Feuchte:Windchill:Wind:
Aussen-T/F 1926 13-01-2014 22:30:00 4.3 C 6.23 g/m*3 4.3 C 0 km/h
1927 13-01-2014 22:35:00 4.2 C 6.19 g/m*3 4.2 C 0 km/h
1928 13-01-2014 22:40:00 4.1 C 6.14 g/m*3 4.1 C 0 km/h
1929 13-01-2014 22:45:00 4 C 6.1 g/m*3 4 C 0 km/h
1930 13-01-2014 22:50:00 3.9 C 6.06 g/m*3 3.9 C 0 km/h
1931 13-01-2014 22:55:00 3.8 C 6.02 g/m*3 3.8 C 0 km/h
1932 13-01-2014 23:00:00 3.8 C 6.02 g/m*3 3.8 C 0 km/h
1933 13-01-2014 23:05:00 3.8 C 6.02 g/m*3 3.8 C 3.2 km/h
1934 13-01-2014 23:10:00 3.8 C 6.09 g/m*3 3.8 C 1.6 km/h
1935 13-01-2014 23:15:00 3.8 C 6.02 g/m*3 3.8 C 0 km/h
1936 13-01-2014 23:20:00 3.8 C 6.02 g/m*3 3.8 C 1.6 km/h
1937 13-01-2014 23:25:00 3.8 C 6.09 g/m*3 3.8 C 1.6 km/h
1938 13-01-2014 23:30:00 3.9 C 6.13 g/m*3 3.9 C 0 km/h
1939 13-01-2014 23:35:00 3.9 C 6.13 g/m*3 3.9 C 1.6 km/h
1940 13-01-2014 23:40:00 4.1 C 6.21 g/m*3 4.1 C 1.6 km/h
1941 13-01-2014 23:45:00 4.2 C 6.25 g/m*3 4.2 C 1.6 km/h
1942 13-01-2014 23:50:00 4.2 C 6.25 g/m*3 4.2 C 1.6 km/h
1943 13-01-2014 23:55:00 4.2 C 6.25 g/m*3 4.2 C 0 km/h
1944 14-01-2014 00:00:00 4.2 C 6.25 g/m*3 4.2 C 0 km/h
1945 14-01-2014 00:05:00 4.1 C 6.21 g/m*3 4.1 C 1.6 km/h
1946 14-01-2014 00:10:00 4.1 C 6.21 g/m*3 4.1 C 3.2 km/h
1947 14-01-2014 00:15:00 4.1 C 6.21 g/m*3 4.1 C 1.6 km/h
1948 14-01-2014 00:20:00 4 C 6.1 g/m*3 4 C 1.6 km/h
1949 14-01-2014 00:25:00 3.9 C 6.06 g/m*3 3.9 C 1.6 km/h
1950 14-01-2014 00:30:00 3.7 C 5.98 g/m*3 3.7 C 1.6 km/h
Sensor: Nr:Datum:Temp:Abs-Feuchte:Windchill:Wind:
Aussen-T/F 1951 14-01-2014 00:35:00 3.7 C 6.04 g/m*3 3.7 C 3.2 km/h
1952 14-01-2014 00:40:00 3.7 C 5.98 g/m*3 3.7 C 3.2 km/h
1953 14-01-2014 00:45:00 3.7 C 5.98 g/m*3 3.7 C 1.6 km/h
1954 14-01-2014 00:50:00 3.6 C 5.94 g/m*3 3.6 C 3.2 km/h
1955 14-01-2014 00:55:00 3.7 C 6.04 g/m*3 3.7 C 3.2 km/h
1956 14-01-2014 01:00:00 3.7 C 6.04 g/m*3 3.7 C 1.6 km/h
1957 14-01-2014 01:05:00 3.6 C 6 g/m*3 3.6 C 3.2 km/h
1958 14-01-2014 01:10:00 3.6 C 6 g/m*3 3.6 C 3.2 km/h
1959 14-01-2014 01:15:00 3.7 C 6.04 g/m*3 3.7 C 3.2 km/h
1960 14-01-2014 01:20:00 3.7 C 6.04 g/m*3 3.7 C 0 km/h
1961 14-01-2014 01:25:00 3.6 C 6 g/m*3 3.6 C 3.2 km/h
1962 14-01-2014 01:30:00 3.6 C 6 g/m*3 3.6 C 3.2 km/h
1963 14-01-2014 01:35:00 3.5 C 5.96 g/m*3 3.5 C 1.6 km/h
1964 14-01-2014 01:40:00 3.3 C 5.82 g/m*3 3.3 C 0 km/h
1965 14-01-2014 01:45:00 3.3 C 5.88 g/m*3 3.3 C 0 km/h
1966 14-01-2014 01:50:00 3.2 C 5.85 g/m*3 3.2 C 1.6 km/h
1967 14-01-2014 01:55:00 3.2 C 5.85 g/m*3 3.2 C 3.2 km/h
1968 14-01-2014 02:00:00 3.3 C 5.88 g/m*3 3.3 C 0 km/h
1969 14-01-2014 02:05:00 3.2 C 5.85 g/m*3 3.2 C 1.6 km/h
1970 14-01-2014 02:10:00 3.2 C 5.85 g/m*3 3.2 C 3.2 km/h
1971 14-01-2014 02:15:00 3.2 C 5.85 g/m*3 3.2 C 3.2 km/h
1972 14-01-2014 02:20:00 3.2 C 5.85 g/m*3 3.2 C 3.2 km/h
1973 14-01-2014 02:25:00 3.3 C 5.88 g/m*3 3.3 C 1.6 km/h
1974 14-01-2014 02:30:00 3.2 C 5.85 g/m*3 3.2 C 1.6 km/h
1975 14-01-2014 02:35:00 3.2 C 5.85 g/m*3 3.2 C 0 km/h
Sensor: Nr:Datum:Temp:Abs-Feuchte:Windchill:Wind:
Aussen-T/F 1976 14-01-2014 02:40:00 3.3 C 5.88 g/m*3 3.3 C 1.6 km/h
1977 14-01-2014 02:45:00 3.4 C 5.92 g/m*3 3.4 C 1.6 km/h
1978 14-01-2014 02:50:00 3.5 C 5.96 g/m*3 3.5 C 0 km/h
1979 14-01-2014 02:55:00 3.6 C 6 g/m*3 3.6 C 0 km/h
1980 14-01-2014 03:00:00 3.7 C 6.04 g/m*3 3.7 C 0 km/h
1981 14-01-2014 03:05:00 3.8 C 6.09 g/m*3 3.8 C 0 km/h
1982 14-01-2014 03:10:00 3.9 C 6.13 g/m*3 3.9 C 0 km/h
1983 14-01-2014 03:15:00 4 C 6.23 g/m*3 4 C 1.6 km/h
1984 14-01-2014 03:20:00 4.1 C 6.27 g/m*3 4.1 C 0 km/h
1985 14-01-2014 03:25:00 4.1 C 6.27 g/m*3 4.1 C 0 km/h
1986 14-01-2014 03:30:00 4.1 C 6.27 g/m*3 4.1 C 0 km/h
1987 14-01-2014 03:35:00 4.1 C 6.21 g/m*3 4.1 C 1.6 km/h
1988 14-01-2014 03:40:00 4.1 C 6.21 g/m*3 4.1 C 0 km/h
1989 14-01-2014 03:45:00 4.1 C 6.21 g/m*3 4.1 C 0 km/h
1990 14-01-2014 03:50:00 4.1 C 6.21 g/m*3 4.1 C 0 km/h
1991 14-01-2014 03:55:00 4.1 C 6.21 g/m*3 4.1 C 0 km/h
1992 14-01-2014 04:00:00 4.1 C 6.21 g/m*3 4.1 C 0 km/h
1993 14-01-2014 04:05:00 4.2 C 6.25 g/m*3 4.2 C 0 km/h
1994 14-01-2014 04:10:00 4.2 C 6.25 g/m*3 4.2 C 0 km/h
1995 14-01-2014 04:15:00 4.2 C 6.25 g/m*3 4.2 C 0 km/h
1996 14-01-2014 04:20:00 4.2 C 6.25 g/m*3 4.2 C 0 km/h
1997 14-01-2014 04:25:00 4.2 C 6.25 g/m*3 4.2 C 0 km/h
1998 14-01-2014 04:30:00 4.2 C 6.25 g/m*3 4.2 C 0 km/h
1999 14-01-2014 04:35:00 4.3 C 6.29 g/m*3 4.3 C 0 km/h
2000 14-01-2014 04:40:00 4.3 C 6.29 g/m*3 4.3 C 0 km/h
Sensor: Nr:Datum:Temp:Abs-Feuchte:Windchill:Wind:
Aussen-T/F 2001 14-01-2014 04:45:00 4.5 C 6.44 g/m*3 4.5 C 1.6 km/h
2002 14-01-2014 04:50:00 4.7 C 6.53 g/m*3 4.7 C 4.8 km/h
2003 14-01-2014 04:55:00 4.8 C 6.57 g/m*3 3.36 C 6.4 km/h
2004 14-01-2014 05:00:00 5 C 6.66 g/m*3 3.59 C 6.4 km/h
2005 14-01-2014 05:05:00 5.1 C 6.7 g/m*3 3.71 C 6.4 km/h
2006 14-01-2014 05:10:00 5.2 C 6.68 g/m*3 5.2 C 4.8 km/h
2007 14-01-2014 05:15:00 5.2 C 6.68 g/m*3 3.82 C 6.4 km/h
2008 14-01-2014 05:20:00 5.3 C 6.65 g/m*3 3.46 C 8.1 km/h
2009 14-01-2014 05:25:00 5.3 C 6.58 g/m*3 3.46 C 8.1 km/h
2010 14-01-2014 05:30:00 5.4 C 6.63 g/m*3 5.4 C 4.8 km/h
2011 14-01-2014 05:35:00 5.5 C 6.67 g/m*3 4.17 C 6.4 km/h
2012 14-01-2014 05:40:00 5.6 C 6.72 g/m*3 4.29 C 6.4 km/h
2013 14-01-2014 05:45:00 5.6 C 6.65 g/m*3 4.29 C 6.4 km/h
2014 14-01-2014 05:50:00 5.5 C 6.6 g/m*3 4.17 C 6.4 km/h
2015 14-01-2014 05:55:00 5.5 C 6.6 g/m*3 4.17 C 6.4 km/h
2016 14-01-2014 06:00:00 5.4 C 6.56 g/m*3 5.4 C 4.8 km/h
2017 14-01-2014 06:05:00 5.4 C 6.49 g/m*3 5.4 C 4.8 km/h
2018 14-01-2014 06:10:00 5.3 C 6.52 g/m*3 5.3 C 4.8 km/h
2019 14-01-2014 06:15:00 5.3 C 6.52 g/m*3 5.3 C 4.8 km/h
2020 14-01-2014 06:20:00 5.3 C 6.52 g/m*3 3.46 C 8.1 km/h
2021 14-01-2014 06:25:00 5.2 C 6.47 g/m*3 5.2 C 3.2 km/h
2022 14-01-2014 06:30:00 5.2 C 6.47 g/m*3 3.82 C 6.4 km/h
2023 14-01-2014 06:35:00 5.2 C 6.47 g/m*3 5.2 C 1.6 km/h
2024 14-01-2014 06:40:00 5 C 6.39 g/m*3 5 C 3.2 km/h
2025 14-01-2014 06:45:00 4.9 C 6.35 g/m*3 4.9 C 3.2 km/h
Sensor: Nr:Datum:Temp:Abs-Feuchte:Windchill:Wind:
Aussen-T/F 2026 14-01-2014 06:50:00 5 C 6.46 g/m*3 5 C 4.8 km/h
2027 14-01-2014 06:55:00 5 C 6.46 g/m*3 5 C 4.8 km/h
2028 14-01-2014 07:00:00 4.9 C 6.41 g/m*3 4.9 C 1.6 km/h
2029 14-01-2014 07:05:00 4.9 C 6.41 g/m*3 4.9 C 0 km/h
2030 14-01-2014 07:10:00 4.7 C 6.26 g/m*3 4.7 C 0 km/h
2031 14-01-2014 07:15:00 4.6 C 6.29 g/m*3 4.6 C 3.2 km/h
2032 14-01-2014 07:20:00 4.6 C 6.29 g/m*3 4.6 C 3.2 km/h
2033 14-01-2014 07:25:00 4.8 C 6.44 g/m*3 2.87 C 8.1 km/h
2034 14-01-2014 07:30:00 4.8 C 6.37 g/m*3 4.8 C 4.8 km/h
2035 14-01-2014 07:35:00 4.8 C 6.37 g/m*3 3.36 C 6.4 km/h
2036 14-01-2014 07:40:00 4.7 C 6.33 g/m*3 4.7 C 0 km/h
2037 14-01-2014 07:45:00 4.5 C 6.24 g/m*3 4.5 C 0 km/h
2038 14-01-2014 07:50:00 4.3 C 6.16 g/m*3 4.3 C 1.6 km/h
2039 14-01-2014 07:55:00 4.2 C 6.12 g/m*3 4.2 C 1.6 km/h
2040 14-01-2014 08:00:00 4.2 C 6.19 g/m*3 4.2 C 4.8 km/h
2041 14-01-2014 08:05:00 4.2 C 6.19 g/m*3 4.2 C 1.6 km/h
2042 14-01-2014 08:10:00 4.5 C 6.38 g/m*3 3.02 C 6.4 km/h
2043 14-01-2014 08:15:00 4.6 C 6.42 g/m*3 2.25 C 9.7 km/h
2044 14-01-2014 08:20:00 4.7 C 6.39 g/m*3 4.7 C 1.6 km/h
2045 14-01-2014 08:25:00 4.5 C 6.31 g/m*3 4.5 C 1.6 km/h
2046 14-01-2014 08:30:00 4.3 C 6.16 g/m*3 4.3 C 0 km/h
2047 14-01-2014 08:35:00 4.1 C 6.08 g/m*3 4.1 C 1.6 km/h
2048 14-01-2014 08:40:00 4 C 6.1 g/m*3 4 C 0 km/h
2049 14-01-2014 08:45:00 4 C 6.1 g/m*3 4 C 1.6 km/h
2050 14-01-2014 08:50:00 4 C 6.1 g/m*3 4 C 1.6 km/h
Sensor: Nr:Datum:Temp:Abs-Feuchte:Windchill:Wind:
Aussen-T/F 2051 14-01-2014 08:55:00 4.2 C 6.25 g/m*3 4.2 C 0 km/h
2052 14-01-2014 09:00:00 4.3 C 6.29 g/m*3 4.3 C 3.2 km/h
2053 14-01-2014 09:05:00 4.4 C 6.33 g/m*3 4.4 C 1.6 km/h
2054 14-01-2014 09:10:00 4.4 C 6.33 g/m*3 4.4 C 0 km/h
2055 14-01-2014 09:15:00 4.6 C 6.42 g/m*3 4.6 C 4.8 km/h
2056 14-01-2014 09:20:00 4.7 C 6.46 g/m*3 4.7 C 1.6 km/h
2057 14-01-2014 09:25:00 4.9 C 6.55 g/m*3 4.9 C 3.2 km/h
2058 14-01-2014 09:30:00 5.1 C 6.63 g/m*3 3.71 C 6.4 km/h
2059 14-01-2014 09:35:00 5.2 C 6.68 g/m*3 5.2 C 1.6 km/h
2060 14-01-2014 09:40:00 5.3 C 6.72 g/m*3 5.3 C 1.6 km/h
2061 14-01-2014 09:45:00 5.5 C 6.74 g/m*3 5.5 C 3.2 km/h
2062 14-01-2014 09:50:00 5.6 C 6.79 g/m*3 5.6 C 0 km/h
2063 14-01-2014 09:55:00 5.7 C 6.76 g/m*3 5.7 C 3.2 km/h
2064 14-01-2014 10:00:00 5.8 C 6.81 g/m*3 5.8 C 4.8 km/h
2065 14-01-2014 10:05:00 5.8 C 6.81 g/m*3 5.8 C 3.2 km/h
2066 14-01-2014 10:10:00 5.8 C 6.73 g/m*3 5.8 C 4.8 km/h
2067 14-01-2014 10:15:00 5.8 C 6.73 g/m*3 5.8 C 4.8 km/h
2068 14-01-2014 10:20:00 5.8 C 6.66 g/m*3 5.8 C 1.6 km/h
2069 14-01-2014 10:25:00 5.8 C 6.66 g/m*3 5.8 C 3.2 km/h
2070 14-01-2014 10:30:00 5.8 C 6.66 g/m*3 5.8 C 3.2 km/h
2071 14-01-2014 10:35:00 5.8 C 6.66 g/m*3 5.8 C 1.6 km/h
2072 14-01-2014 10:40:00 5.8 C 6.66 g/m*3 5.8 C 1.6 km/h
2073 14-01-2014 10:45:00 5.8 C 6.66 g/m*3 5.8 C 0 km/h
2074 14-01-2014 10:50:00 5.8 C 6.73 g/m*3 5.8 C 3.2 km/h
2075 14-01-2014 10:55:00 5.8 C 6.73 g/m*3 5.8 C 3.2 km/h
Sensor: Nr:Datum:Temp:Abs-Feuchte:Windchill:Wind:
Aussen-T/F 2076 14-01-2014 11:00:00 5.8 C 6.73 g/m*3 5.8 C 1.6 km/h
2077 14-01-2014 11:05:00 5.9 C 6.78 g/m*3 5.9 C 1.6 km/h
2078 14-01-2014 11:10:00 5.9 C 6.78 g/m*3 5.9 C 3.2 km/h
2079 14-01-2014 11:15:00 5.9 C 6.78 g/m*3 5.9 C 3.2 km/h
2080 14-01-2014 11:20:00 5.9 C 6.78 g/m*3 5.9 C 4.8 km/h
2081 14-01-2014 12:05:00 6.8 C 7.04 g/m*3 6.8 C 1.6 km/h
2082 14-01-2014 12:10:00 6.9 C 7.01 g/m*3 6.9 C 1.6 km/h
2083 14-01-2014 12:15:00 6.9 C 7.01 g/m*3 6.9 C 1.6 km/h
2084 14-01-2014 12:20:00 6.9 C 6.93 g/m*3 6.9 C 0 km/h
2085 14-01-2014 12:25:00 6.9 C 6.93 g/m*3 6.9 C 3.2 km/h
2086 14-01-2014 12:30:00 6.9 C 7.01 g/m*3 5.34 C 8.1 km/h
2087 14-01-2014 12:35:00 6.9 C 6.93 g/m*3 6.9 C 4.8 km/h
2088 14-01-2014 12:40:00 6.9 C 7.01 g/m*3 6.9 C 1.6 km/h
2089 14-01-2014 12:45:00 6.9 C 7.01 g/m*3 6.9 C 0 km/h
2090 14-01-2014 12:50:00 6.9 C 7.08 g/m*3 6.9 C 3.2 km/h
2091 14-01-2014 12:55:00 7 C 7.05 g/m*3 7 C 3.2 km/h
2092 14-01-2014 13:00:00 7.1 C 7.1 g/m*3 7.1 C 3.2 km/h
2093 14-01-2014 13:05:00 7.3 C 7.19 g/m*3 7.3 C 4.8 km/h
2094 14-01-2014 13:10:00 7.4 C 7.24 g/m*3 7.4 C 1.6 km/h
2095 14-01-2014 13:15:00 7.5 C 7.12 g/m*3 7.5 C 3.2 km/h
2096 14-01-2014 13:20:00 7.6 C 7.17 g/m*3 7.6 C 3.2 km/h
2097 14-01-2014 13:25:00 7.6 C 7.17 g/m*3 7.6 C 4.8 km/h
2098 14-01-2014 13:30:00 7.6 C 7.09 g/m*3 7.6 C 4.8 km/h
2099 14-01-2014 13:35:00 7.6 C 7.17 g/m*3 7.6 C 3.2 km/h
2100 14-01-2014 13:40:00 7.7 C 7.14 g/m*3 7.7 C 0 km/h
Sensor: Nr:Datum:Temp:Abs-Feuchte:Windchill:Wind:
Aussen-T/F 2101 14-01-2014 13:45:00 7.7 C 7.14 g/m*3 7.7 C 3.2 km/h
2102 14-01-2014 13:50:00 7.8 C 7.18 g/m*3 7.8 C 4.8 km/h
2103 14-01-2014 13:55:00 7.8 C 7.18 g/m*3 7.8 C 3.2 km/h
2104 14-01-2014 14:00:00 7.9 C 7.15 g/m*3 7.9 C 3.2 km/h
2105 14-01-2014 14:05:00 8 C 7.19 g/m*3 8 C 3.2 km/h
2106 14-01-2014 14:10:00 8.1 C 7.24 g/m*3 8.1 C 4.8 km/h
2107 14-01-2014 14:15:00 8.1 C 7.24 g/m*3 8.1 C 3.2 km/h
2108 14-01-2014 14:20:00 8.1 C 7.16 g/m*3 8.1 C 1.6 km/h
2109 14-01-2014 14:25:00 8.1 C 7.24 g/m*3 8.1 C 0 km/h
2110 14-01-2014 14:30:00 8.1 C 7.24 g/m*3 8.1 C 1.6 km/h
2111 14-01-2014 14:35:00 8 C 7.19 g/m*3 8 C 1.6 km/h
2112 14-01-2014 14:40:00 7.9 C 7.23 g/m*3 7.9 C 1.6 km/h
2113 14-01-2014 14:45:00 7.8 C 7.1 g/m*3 7.8 C 3.2 km/h
2114 14-01-2014 14:50:00 7.8 C 7.1 g/m*3 7.8 C 4.8 km/h
2115 14-01-2014 14:55:00 7.8 C 7.1 g/m*3 6.83 C 6.4 km/h
2116 14-01-2014 15:00:00 7.7 C 7.14 g/m*3 7.7 C 0 km/h
2117 14-01-2014 15:05:00 7.5 C 7.12 g/m*3 7.5 C 0 km/h
2118 14-01-2014 15:10:00 7.3 C 7.11 g/m*3 7.3 C 0 km/h
2119 14-01-2014 15:15:00 7.1 C 7.1 g/m*3 7.1 C 0 km/h
2120 14-01-2014 15:20:00 7.2 C 7.22 g/m*3 7.2 C 0 km/h
2121 14-01-2014 15:25:00 7.2 C 7.22 g/m*3 7.2 C 0 km/h
2122 14-01-2014 15:30:00 7.2 C 7.14 g/m*3 7.2 C 3.2 km/h
2123 14-01-2014 15:35:00 7.3 C 7.11 g/m*3 7.3 C 3.2 km/h
2124 14-01-2014 15:40:00 7.4 C 7.16 g/m*3 7.4 C 3.2 km/h
2125 14-01-2014 15:45:00 7.5 C 7.12 g/m*3 7.5 C 3.2 km/h
Sensor: Nr:Datum:Temp:Abs-Feuchte:Windchill:Wind:
Aussen-T/F 2126 14-01-2014 15:50:00 7.6 C 7.09 g/m*3 7.6 C 4.8 km/h
2127 14-01-2014 15:55:00 7.6 C 7.01 g/m*3 7.6 C 3.2 km/h
2128 14-01-2014 16:00:00 7.6 C 7.09 g/m*3 7.6 C 0 km/h
2129 14-01-2014 16:05:00 7.6 C 7.09 g/m*3 7.6 C 3.2 km/h
2130 14-01-2014 16:10:00 7.6 C 7.01 g/m*3 7.6 C 3.2 km/h
2131 14-01-2014 16:15:00 7.6 C 7.01 g/m*3 7.6 C 4.8 km/h
2132 14-01-2014 16:20:00 7.5 C 6.96 g/m*3 6.48 C 6.4 km/h
2133 14-01-2014 16:25:00 7.4 C 6.92 g/m*3 7.4 C 3.2 km/h
2134 14-01-2014 16:30:00 7.3 C 6.95 g/m*3 7.3 C 3.2 km/h
2135 14-01-2014 16:35:00 7.2 C 6.91 g/m*3 7.2 C 1.6 km/h
2136 14-01-2014 16:40:00 7 C 6.82 g/m*3 7 C 4.8 km/h
2137 14-01-2014 16:45:00 6.8 C 6.81 g/m*3 6.8 C 1.6 km/h
2138 14-01-2014 16:50:00 6.7 C 6.84 g/m*3 6.7 C 3.2 km/h
2139 14-01-2014 16:55:00 6.5 C 6.75 g/m*3 6.5 C 3.2 km/h
2140 14-01-2014 17:00:00 6.4 C 6.71 g/m*3 6.4 C 3.2 km/h
2141 14-01-2014 17:05:00 6.4 C 6.71 g/m*3 6.4 C 3.2 km/h
2142 14-01-2014 17:10:00 6.4 C 6.78 g/m*3 6.4 C 3.2 km/h
2143 14-01-2014 17:15:00 6.4 C 6.78 g/m*3 6.4 C 3.2 km/h
2144 14-01-2014 17:20:00 6.4 C 6.78 g/m*3 6.4 C 1.6 km/h
2145 14-01-2014 17:25:00 6.4 C 6.85 g/m*3 6.4 C 1.6 km/h
2146 14-01-2014 17:30:00 6.4 C 6.85 g/m*3 6.4 C 0 km/h
2147 14-01-2014 17:35:00 6.4 C 6.85 g/m*3 6.4 C 1.6 km/h
2148 14-01-2014 17:40:00 6.3 C 6.88 g/m*3 6.3 C 1.6 km/h
2149 14-01-2014 17:45:00 6.3 C 6.88 g/m*3 6.3 C 3.2 km/h
2150 14-01-2014 17:50:00 6.2 C 6.91 g/m*3 6.2 C 3.2 km/h
Sensor: Nr:Datum:Temp:Abs-Feuchte:Windchill:Wind:
Aussen-T/F 2151 14-01-2014 17:55:00 6.1 C 6.87 g/m*3 6.1 C 1.6 km/h
2152 14-01-2014 18:00:00 6 C 6.82 g/m*3 6 C 0 km/h
2153 14-01-2014 18:05:00 5.9 C 6.85 g/m*3 5.9 C 0 km/h
2154 14-01-2014 18:10:00 5.8 C 6.81 g/m*3 5.8 C 0 km/h
2155 14-01-2014 18:15:00 5.7 C 6.76 g/m*3 5.7 C 1.6 km/h
2156 14-01-2014 18:20:00 5.6 C 6.72 g/m*3 5.6 C 0 km/h
2157 14-01-2014 18:25:00 5.4 C 6.63 g/m*3 5.4 C 1.6 km/h
2158 14-01-2014 18:30:00 5.2 C 6.54 g/m*3 5.2 C 0 km/h
2159 14-01-2014 18:35:00 5 C 6.46 g/m*3 5 C 0 km/h
2160 14-01-2014 18:40:00 4.7 C 6.33 g/m*3 4.7 C 3.2 km/h
2161 14-01-2014 18:45:00 4.6 C 6.29 g/m*3 4.6 C 3.2 km/h
2162 14-01-2014 18:50:00 4.4 C 6.2 g/m*3 4.4 C 3.2 km/h
2163 14-01-2014 18:55:00 4.2 C 6.12 g/m*3 4.2 C 3.2 km/h
2164 14-01-2014 19:00:00 4.1 C 6.14 g/m*3 4.1 C 3.2 km/h
2165 14-01-2014 19:05:00 4.1 C 6.14 g/m*3 4.1 C 3.2 km/h
2166 14-01-2014 19:10:00 3.9 C 6.06 g/m*3 3.9 C 1.6 km/h
2167 14-01-2014 19:15:00 3.8 C 6.02 g/m*3 3.8 C 1.6 km/h
2168 14-01-2014 19:20:00 3.8 C 6.02 g/m*3 3.8 C 1.6 km/h
2169 14-01-2014 19:25:00 3.6 C 5.94 g/m*3 3.6 C 3.2 km/h
2170 14-01-2014 19:30:00 3.4 C 5.86 g/m*3 3.4 C 3.2 km/h
2171 14-01-2014 19:35:00 3.4 C 5.86 g/m*3 3.4 C 3.2 km/h
2172 14-01-2014 19:40:00 3.3 C 5.82 g/m*3 3.3 C 0 km/h
2173 14-01-2014 19:45:00 3.2 C 5.79 g/m*3 3.2 C 0 km/h
2174 14-01-2014 19:50:00 3.2 C 5.79 g/m*3 3.2 C 0 km/h
2175 14-01-2014 19:55:00 3.1 C 5.75 g/m*3 3.1 C 0 km/h
Sensor: Nr:Datum:Temp:Abs-Feuchte:Windchill:Wind:
Aussen-T/F 2176 14-01-2014 20:00:00 3 C 5.71 g/m*3 3 C 0 km/h
2177 14-01-2014 20:05:00 3.1 C 5.75 g/m*3 3.1 C 0 km/h
2178 14-01-2014 20:10:00 3.1 C 5.75 g/m*3 3.1 C 0 km/h
2179 14-01-2014 20:15:00 3.2 C 5.85 g/m*3 3.2 C 0 km/h
2180 14-01-2014 20:20:00 3.2 C 5.85 g/m*3 3.2 C 0 km/h
2181 14-01-2014 20:25:00 3.2 C 5.85 g/m*3 3.2 C 0 km/h
2182 14-01-2014 20:30:00 3.2 C 5.85 g/m*3 3.2 C 0 km/h
2183 14-01-2014 20:35:00 3.2 C 5.85 g/m*3 3.2 C 0 km/h
2184 14-01-2014 20:40:00 3.3 C 5.88 g/m*3 3.3 C 0 km/h
2185 14-01-2014 20:45:00 3.3 C 5.88 g/m*3 3.3 C 0 km/h
2186 14-01-2014 20:50:00 3.4 C 5.92 g/m*3 3.4 C 0 km/h
2187 14-01-2014 20:55:00 3.4 C 5.92 g/m*3 3.4 C 0 km/h
2188 14-01-2014 21:00:00 3.5 C 5.96 g/m*3 3.5 C 0 km/h
2189 14-01-2014 21:05:00 3.5 C 5.96 g/m*3 3.5 C 0 km/h
2190 14-01-2014 21:10:00 3.4 C 5.92 g/m*3 3.4 C 0 km/h
2191 14-01-2014 21:15:00 3.3 C 5.88 g/m*3 3.3 C 0 km/h
2192 14-01-2014 21:20:00 3.2 C 5.85 g/m*3 3.2 C 0 km/h
2193 14-01-2014 21:25:00 3.2 C 5.85 g/m*3 3.2 C 0 km/h
2194 14-01-2014 21:30:00 3.2 C 5.85 g/m*3 3.2 C 3.2 km/h
2195 14-01-2014 21:35:00 3.2 C 5.85 g/m*3 3.2 C 1.6 km/h
2196 14-01-2014 21:40:00 3.4 C 5.92 g/m*3 3.4 C 1.6 km/h
2197 14-01-2014 21:45:00 3.6 C 6 g/m*3 3.6 C 0 km/h
2198 14-01-2014 21:50:00 3.5 C 5.96 g/m*3 3.5 C 0 km/h
2199 14-01-2014 21:55:00 3.4 C 5.92 g/m*3 3.4 C 0 km/h
2200 14-01-2014 22:00:00 3.4 C 5.92 g/m*3 3.4 C 0 km/h
Sensor: Nr:Datum:Temp:Abs-Feuchte:Windchill:Wind:
Aussen-T/F 2201 14-01-2014 22:05:00 3.4 C 5.92 g/m*3 3.4 C 1.6 km/h
2202 14-01-2014 22:10:00 3.5 C 5.96 g/m*3 3.5 C 0 km/h
2203 14-01-2014 22:15:00 3.6 C 6 g/m*3 3.6 C 0 km/h
2204 14-01-2014 22:20:00 3.7 C 6.11 g/m*3 3.7 C 0 km/h
2205 14-01-2014 22:25:00 3.8 C 6.15 g/m*3 3.8 C 0 km/h
2206 14-01-2014 22:30:00 3.9 C 6.13 g/m*3 3.9 C 0 km/h
2207 14-01-2014 22:35:00 4 C 6.17 g/m*3 4 C 0 km/h
2208 14-01-2014 22:40:00 4.1 C 6.21 g/m*3 4.1 C 1.6 km/h
2209 14-01-2014 22:45:00 4.1 C 6.27 g/m*3 4.1 C 0 km/h
2210 14-01-2014 22:50:00 4.1 C 6.27 g/m*3 4.1 C 0 km/h
2211 14-01-2014 22:55:00 4.2 C 6.31 g/m*3 4.2 C 0 km/h
2212 14-01-2014 23:00:00 4.2 C 6.25 g/m*3 4.2 C 0 km/h
2213 14-01-2014 23:05:00 4.2 C 6.25 g/m*3 4.2 C 1.6 km/h
2214 14-01-2014 23:10:00 4.2 C 6.25 g/m*3 4.2 C 0 km/h
2215 14-01-2014 23:15:00 4.2 C 6.25 g/m*3 4.2 C 0 km/h
2216 14-01-2014 23:20:00 4.3 C 6.29 g/m*3 4.3 C 0 km/h
2217 14-01-2014 23:25:00 4.3 C 6.29 g/m*3 4.3 C 1.6 km/h
2218 14-01-2014 23:30:00 4.3 C 6.36 g/m*3 4.3 C 3.2 km/h
2219 14-01-2014 23:35:00 4.3 C 6.36 g/m*3 4.3 C 3.2 km/h
2220 14-01-2014 23:40:00 4.4 C 6.4 g/m*3 4.4 C 3.2 km/h
2221 14-01-2014 23:45:00 4.6 C 6.42 g/m*3 4.6 C 3.2 km/h
2222 14-01-2014 23:50:00 4.7 C 6.53 g/m*3 4.7 C 4.8 km/h
2223 14-01-2014 23:55:00 4.8 C 6.5 g/m*3 4.8 C 4.8 km/h
2224 15-01-2014 00:00:00 4.8 C 6.5 g/m*3 4.8 C 1.6 km/h
2225 15-01-2014 00:05:00 4.8 C 6.5 g/m*3 4.8 C 0 km/h
Sensor: Nr:Datum:Temp:Abs-Feuchte:Windchill:Wind:
Aussen-T/F 2226 15-01-2014 00:10:00 4.8 C 6.5 g/m*3 4.8 C 3.2 km/h
2227 15-01-2014 00:15:00 4.8 C 6.5 g/m*3 4.8 C 1.6 km/h
2228 15-01-2014 00:20:00 4.8 C 6.5 g/m*3 4.8 C 1.6 km/h
2229 15-01-2014 00:25:00 4.8 C 6.5 g/m*3 4.8 C 3.2 km/h
2230 15-01-2014 00:30:00 4.8 C 6.5 g/m*3 3.36 C 6.4 km/h
2231 15-01-2014 00:35:00 4.8 C 6.44 g/m*3 4.8 C 3.2 km/h
2232 15-01-2014 00:40:00 4.8 C 6.44 g/m*3 4.8 C 0 km/h
2233 15-01-2014 00:45:00 4.8 C 6.44 g/m*3 4.8 C 1.6 km/h
2234 15-01-2014 00:50:00 4.8 C 6.44 g/m*3 4.8 C 3.2 km/h
2235 15-01-2014 00:55:00 4.8 C 6.44 g/m*3 4.8 C 1.6 km/h
2236 15-01-2014 01:00:00 4.8 C 6.44 g/m*3 4.8 C 0 km/h
2237 15-01-2014 01:05:00 4.8 C 6.44 g/m*3 4.8 C 0 km/h
2238 15-01-2014 01:10:00 4.8 C 6.44 g/m*3 4.8 C 1.6 km/h
2239 15-01-2014 01:15:00 4.9 C 6.48 g/m*3 4.9 C 3.2 km/h
2240 15-01-2014 01:20:00 4.9 C 6.48 g/m*3 4.9 C 1.6 km/h
2241 15-01-2014 01:25:00 4.9 C 6.48 g/m*3 4.9 C 4.8 km/h
2242 15-01-2014 01:30:00 4.9 C 6.48 g/m*3 4.9 C 4.8 km/h
2243 15-01-2014 01:35:00 4.9 C 6.41 g/m*3 4.9 C 4.8 km/h
2244 15-01-2014 01:40:00 4.9 C 6.41 g/m*3 4.9 C 4.8 km/h
2245 15-01-2014 01:45:00 5 C 6.46 g/m*3 5 C 4.8 km/h
2246 15-01-2014 01:50:00 5 C 6.46 g/m*3 5 C 0 km/h
2247 15-01-2014 01:55:00 5 C 6.46 g/m*3 5 C 0 km/h
2248 15-01-2014 02:00:00 4.9 C 6.41 g/m*3 4.9 C 1.6 km/h
2249 15-01-2014 02:05:00 4.9 C 6.41 g/m*3 4.9 C 0 km/h
2250 15-01-2014 02:10:00 4.8 C 6.37 g/m*3 4.8 C 3.2 km/h
Sensor: Nr:Datum:Temp:Abs-Feuchte:Windchill:Wind:
Aussen-T/F 2251 15-01-2014 02:15:00 4.8 C 6.37 g/m*3 4.8 C 1.6 km/h
2252 15-01-2014 02:20:00 4.7 C 6.33 g/m*3 4.7 C 3.2 km/h
2253 15-01-2014 02:25:00 4.7 C 6.26 g/m*3 4.7 C 3.2 km/h
2254 15-01-2014 02:30:00 4.8 C 6.3 g/m*3 4.8 C 3.2 km/h
2255 15-01-2014 02:35:00 4.8 C 6.3 g/m*3 4.8 C 3.2 km/h
2256 15-01-2014 02:40:00 4.8 C 6.24 g/m*3 4.8 C 1.6 km/h
2257 15-01-2014 02:45:00 4.8 C 6.24 g/m*3 4.8 C 4.8 km/h
2258 15-01-2014 02:50:00 4.8 C 6.24 g/m*3 4.8 C 3.2 km/h
2259 15-01-2014 02:55:00 4.8 C 6.24 g/m*3 4.8 C 1.6 km/h
2260 15-01-2014 03:00:00 4.8 C 6.24 g/m*3 4.8 C 1.6 km/h
2261 15-01-2014 03:05:00 4.7 C 6.13 g/m*3 4.7 C 3.2 km/h
2262 15-01-2014 03:10:00 4.8 C 6.17 g/m*3 4.8 C 3.2 km/h
2263 15-01-2014 03:15:00 4.7 C 6.13 g/m*3 4.7 C 3.2 km/h
2264 15-01-2014 03:20:00 4.7 C 6.13 g/m*3 4.7 C 3.2 km/h
2265 15-01-2014 03:25:00 4.7 C 6.13 g/m*3 3.25 C 6.4 km/h
2266 15-01-2014 03:30:00 4.8 C 6.1 g/m*3 2.87 C 8.1 km/h
2267 15-01-2014 03:35:00 4.8 C 6.1 g/m*3 3.36 C 6.4 km/h
2268 15-01-2014 03:40:00 4.8 C 6.04 g/m*3 3.36 C 6.4 km/h
2269 15-01-2014 03:45:00 4.8 C 6.04 g/m*3 2.49 C 9.7 km/h
2270 15-01-2014 03:50:00 4.8 C 6.04 g/m*3 2.49 C 9.7 km/h
2271 15-01-2014 03:55:00 4.7 C 5.93 g/m*3 4.7 C 4.8 km/h
2272 15-01-2014 04:00:00 4.6 C 5.89 g/m*3 2.64 C 8.1 km/h
2273 15-01-2014 04:05:00 4.6 C 5.76 g/m*3 2.25 C 9.7 km/h
2274 15-01-2014 04:10:00 4.6 C 5.69 g/m*3 2.64 C 8.1 km/h
2275 15-01-2014 04:15:00 4.5 C 5.65 g/m*3 3.02 C 6.4 km/h
Sensor: Nr:Datum:Temp:Abs-Feuchte:Windchill:Wind:
Aussen-T/F 2276 15-01-2014 04:20:00 4.4 C 5.62 g/m*3 2.9 C 6.4 km/h
2277 15-01-2014 04:25:00 4.2 C 5.54 g/m*3 4.2 C 4.8 km/h
2278 15-01-2014 04:30:00 4.1 C 5.57 g/m*3 4.1 C 3.2 km/h
2279 15-01-2014 04:35:00 3.9 C 5.56 g/m*3 3.9 C 3.2 km/h
2280 15-01-2014 04:40:00 3.7 C 5.55 g/m*3 3.7 C 3.2 km/h
2281 15-01-2014 04:45:00 3.4 C 5.5 g/m*3 3.4 C 3.2 km/h
2282 15-01-2014 04:50:00 3.3 C 5.46 g/m*3 3.3 C 1.6 km/h
2283 15-01-2014 04:55:00 3.2 C 5.48 g/m*3 3.2 C 4.8 km/h
2284 15-01-2014 05:00:00 3.2 C 5.48 g/m*3 3.2 C 3.2 km/h
2285 15-01-2014 05:05:00 3.2 C 5.48 g/m*3 3.2 C 3.2 km/h
2286 15-01-2014 05:10:00 3.3 C 5.52 g/m*3 3.3 C 1.6 km/h
2287 15-01-2014 05:15:00 3.4 C 5.56 g/m*3 3.4 C 3.2 km/h
2288 15-01-2014 05:20:00 3.5 C 5.6 g/m*3 3.5 C 3.2 km/h
2289 15-01-2014 05:25:00 3.4 C 5.56 g/m*3 3.4 C 3.2 km/h
2290 15-01-2014 05:30:00 3.4 C 5.56 g/m*3 3.4 C 3.2 km/h
2291 15-01-2014 05:35:00 3.3 C 5.52 g/m*3 3.3 C 1.6 km/h
2292 15-01-2014 05:40:00 3.1 C 5.45 g/m*3 3.1 C 3.2 km/h
2293 15-01-2014 05:45:00 2.9 C 5.37 g/m*3 2.9 C 1.6 km/h
2294 15-01-2014 05:50:00 2.7 C 5.36 g/m*3 2.7 C 1.6 km/h
2295 15-01-2014 05:55:00 2.6 C 5.32 g/m*3 2.6 C 3.2 km/h
2296 15-01-2014 06:00:00 2.6 C 5.38 g/m*3 2.6 C 1.6 km/h
2297 15-01-2014 06:05:00 2.6 C 5.32 g/m*3 2.6 C 1.6 km/h
2298 15-01-2014 06:10:00 2.4 C 5.31 g/m*3 2.4 C 1.6 km/h
2299 15-01-2014 06:15:00 2.4 C 5.31 g/m*3 2.4 C 0 km/h
2300 15-01-2014 06:20:00 2.3 C 5.27 g/m*3 2.3 C 1.6 km/h
Sensor: Nr:Datum:Temp:Abs-Feuchte:Windchill:Wind:
Aussen-T/F 2301 15-01-2014 06:25:00 2.1 C 5.2 g/m*3 2.1 C 1.6 km/h
2302 15-01-2014 06:30:00 2.1 C 5.2 g/m*3 2.1 C 1.6 km/h
2303 15-01-2014 06:35:00 1.9 C 5.19 g/m*3 1.9 C 1.6 km/h
2304 15-01-2014 06:40:00 1.8 C 5.15 g/m*3 1.8 C 1.6 km/h
2305 15-01-2014 06:45:00 1.8 C 5.15 g/m*3 1.8 C 1.6 km/h
2306 15-01-2014 06:50:00 1.7 C 5.12 g/m*3 1.7 C 0 km/h
2307 15-01-2014 06:55:00 1.6 C 5.08 g/m*3 1.6 C 3.2 km/h
2308 15-01-2014 07:00:00 1.7 C 5.12 g/m*3 1.7 C 3.2 km/h
2309 15-01-2014 07:05:00 1.6 C 5.08 g/m*3 1.6 C 1.6 km/h
2310 15-01-2014 07:10:00 1.6 C 5.08 g/m*3 1.6 C 3.2 km/h
2311 15-01-2014 07:15:00 1.6 C 5.14 g/m*3 1.6 C 3.2 km/h
2312 15-01-2014 07:20:00 1.6 C 5.14 g/m*3 1.6 C 1.6 km/h
2313 15-01-2014 07:25:00 1.6 C 5.14 g/m*3 1.6 C 3.2 km/h
2314 15-01-2014 07:30:00 1.6 C 5.14 g/m*3 1.6 C 1.6 km/h
2315 15-01-2014 07:35:00 1.5 C 5.05 g/m*3 1.5 C 1.6 km/h
2316 15-01-2014 07:40:00 1.4 C 5.07 g/m*3 1.4 C 1.6 km/h
2317 15-01-2014 07:45:00 1.4 C 5.07 g/m*3 1.4 C 3.2 km/h
2318 15-01-2014 07:50:00 1.6 C 5.14 g/m*3 1.6 C 3.2 km/h
2319 15-01-2014 07:55:00 1.6 C 5.14 g/m*3 1.6 C 3.2 km/h
2320 15-01-2014 08:00:00 1.7 C 5.17 g/m*3 1.7 C 1.6 km/h
2321 15-01-2014 08:05:00 1.7 C 5.17 g/m*3 1.7 C 1.6 km/h
2322 15-01-2014 08:10:00 1.7 C 5.17 g/m*3 1.7 C 1.6 km/h
2323 15-01-2014 08:15:00 1.7 C 5.17 g/m*3 1.7 C 0 km/h
2324 15-01-2014 08:20:00 1.7 C 5.17 g/m*3 1.7 C 0 km/h
2325 15-01-2014 08:25:00 1.7 C 5.17 g/m*3 1.7 C 0 km/h
Sensor: Nr:Datum:Temp:Abs-Feuchte:Windchill:Wind:
Aussen-T/F 2326 15-01-2014 08:30:00 1.7 C 5.17 g/m*3 1.7 C 0 km/h
2327 15-01-2014 08:35:00 1.7 C 5.17 g/m*3 1.7 C 0 km/h
2328 15-01-2014 08:40:00 1.7 C 5.17 g/m*3 1.7 C 0 km/h
2329 15-01-2014 08:45:00 1.8 C 5.21 g/m*3 1.8 C 0 km/h
2330 15-01-2014 08:50:00 1.9 C 5.3 g/m*3 1.9 C 0 km/h
2331 15-01-2014 08:55:00 1.9 C 5.3 g/m*3 1.9 C 0 km/h
2332 15-01-2014 09:00:00 2 C 5.33 g/m*3 2 C 0 km/h
2333 15-01-2014 09:05:00 2.1 C 5.37 g/m*3 2.1 C 0 km/h
2334 15-01-2014 09:10:00 2.1 C 5.37 g/m*3 2.1 C 0 km/h
2335 15-01-2014 09:15:00 2.2 C 5.41 g/m*3 2.2 C 0 km/h
2336 15-01-2014 09:20:00 2.2 C 5.41 g/m*3 2.2 C 0 km/h
2337 15-01-2014 09:25:00 2.2 C 5.41 g/m*3 2.2 C 0 km/h
2338 15-01-2014 09:30:00 2.2 C 5.41 g/m*3 2.2 C 0 km/h
2339 15-01-2014 09:35:00 2.3 C 5.39 g/m*3 2.3 C 0 km/h
2340 15-01-2014 09:40:00 2.3 C 5.39 g/m*3 2.3 C 0 km/h
2341 15-01-2014 09:45:00 2.4 C 5.42 g/m*3 2.4 C 0 km/h
2342 15-01-2014 09:50:00 2.6 C 5.56 g/m*3 2.6 C 0 km/h
2343 15-01-2014 09:55:00 2.7 C 5.59 g/m*3 2.7 C 0 km/h
2344 15-01-2014 10:00:00 2.8 C 5.57 g/m*3 2.8 C 1.6 km/h
2345 15-01-2014 10:05:00 2.9 C 5.61 g/m*3 2.9 C 0 km/h
2346 15-01-2014 10:10:00 2.9 C 5.61 g/m*3 2.9 C 1.6 km/h
2347 15-01-2014 10:15:00 3.1 C 5.63 g/m*3 3.1 C 0 km/h
2348 15-01-2014 10:20:00 3.2 C 5.66 g/m*3 3.2 C 0 km/h
2349 15-01-2014 10:25:00 3.4 C 5.68 g/m*3 3.4 C 1.6 km/h
2350 15-01-2014 10:30:00 3.6 C 5.69 g/m*3 3.6 C 3.2 km/h
Sensor: Nr:Datum:Temp:Abs-Feuchte:Windchill:Wind:
Aussen-T/F 2351 15-01-2014 10:35:00 3.7 C 5.67 g/m*3 3.7 C 1.6 km/h
2352 15-01-2014 10:40:00 3.8 C 5.65 g/m*3 3.8 C 1.6 km/h
2353 15-01-2014 10:45:00 3.9 C 5.75 g/m*3 3.9 C 1.6 km/h
2354 15-01-2014 10:50:00 4.1 C 5.76 g/m*3 4.1 C 1.6 km/h
2355 15-01-2014 10:55:00 4.1 C 5.7 g/m*3 4.1 C 0 km/h
2356 15-01-2014 11:00:00 4.2 C 5.73 g/m*3 4.2 C 3.2 km/h
2357 15-01-2014 11:05:00 4.3 C 5.77 g/m*3 4.3 C 1.6 km/h
2358 15-01-2014 11:10:00 4.4 C 5.75 g/m*3 4.4 C 3.2 km/h
2359 15-01-2014 11:15:00 4.4 C 5.68 g/m*3 4.4 C 1.6 km/h
2360 15-01-2014 11:20:00 4.6 C 5.76 g/m*3 4.6 C 1.6 km/h
2361 15-01-2014 11:25:00 4.6 C 5.76 g/m*3 4.6 C 1.6 km/h
2362 15-01-2014 11:30:00 4.7 C 5.8 g/m*3 4.7 C 3.2 km/h
2363 15-01-2014 11:35:00 4.7 C 5.73 g/m*3 4.7 C 0 km/h
2364 15-01-2014 11:40:00 4.8 C 5.83 g/m*3 4.8 C 0 km/h
2365 15-01-2014 11:45:00 4.8 C 5.83 g/m*3 4.8 C 0 km/h
2366 15-01-2014 11:50:00 4.9 C 5.81 g/m*3 4.9 C 3.2 km/h
2367 15-01-2014 11:55:00 5 C 5.84 g/m*3 5 C 3.2 km/h
2368 15-01-2014 12:00:00 5.1 C 5.95 g/m*3 5.1 C 1.6 km/h
2369 15-01-2014 12:05:00 5.2 C 5.78 g/m*3 3.82 C 6.4 km/h
2370 15-01-2014 12:10:00 5.3 C 5.75 g/m*3 3.46 C 8.1 km/h
2371 15-01-2014 12:15:00 5.4 C 5.86 g/m*3 5.4 C 3.2 km/h
2372 15-01-2014 12:20:00 5.5 C 5.9 g/m*3 5.5 C 3.2 km/h
2373 15-01-2014 12:25:00 5.6 C 5.87 g/m*3 4.29 C 6.4 km/h
2374 15-01-2014 12:30:00 5.6 C 5.94 g/m*3 5.6 C 3.2 km/h
2375 15-01-2014 12:35:00 5.7 C 5.98 g/m*3 5.7 C 4.8 km/h
Sensor: Nr:Datum:Temp:Abs-Feuchte:Windchill:Wind:
Aussen-T/F 2376 15-01-2014 12:40:00 5.7 C 5.98 g/m*3 5.7 C 3.2 km/h
2377 15-01-2014 12:45:00 5.8 C 6.02 g/m*3 4.52 C 6.4 km/h
2378 15-01-2014 12:50:00 5.8 C 5.95 g/m*3 5.8 C 1.6 km/h
2379 15-01-2014 12:55:00 5.9 C 5.98 g/m*3 5.9 C 4.8 km/h
2380 15-01-2014 13:00:00 5.9 C 5.98 g/m*3 5.9 C 4.8 km/h
2381 15-01-2014 13:05:00 5.9 C 5.98 g/m*3 4.63 C 6.4 km/h
2382 15-01-2014 13:10:00 5.9 C 5.91 g/m*3 3.8 C 9.7 km/h
2383 15-01-2014 13:15:00 5.9 C 5.91 g/m*3 5.9 C 4.8 km/h
2384 15-01-2014 13:20:00 5.9 C 5.91 g/m*3 5.9 C 3.2 km/h
2385 15-01-2014 13:25:00 5.9 C 5.91 g/m*3 4.63 C 6.4 km/h
2386 15-01-2014 13:30:00 5.9 C 5.84 g/m*3 2.93 C 14.5 km/h
2387 15-01-2014 13:35:00 6 C 5.95 g/m*3 3.06 C 14.5 km/h
2388 15-01-2014 13:40:00 6 C 5.95 g/m*3 3.92 C 9.7 km/h
2389 15-01-2014 13:45:00 5.9 C 5.98 g/m*3 4.17 C 8.1 km/h
2390 15-01-2014 13:50:00 5.8 C 5.95 g/m*3 3.36 C 11.3 km/h
2391 15-01-2014 13:55:00 5.7 C 5.98 g/m*3 4.4 C 6.4 km/h
2392 15-01-2014 14:00:00 5.6 C 5.94 g/m*3 3.44 C 9.7 km/h
2393 15-01-2014 14:05:00 5.6 C 6.01 g/m*3 3.81 C 8.1 km/h
2394 15-01-2014 14:10:00 5.5 C 5.97 g/m*3 4.17 C 6.4 km/h
2395 15-01-2014 14:15:00 5.5 C 6.04 g/m*3 5.5 C 3.2 km/h
2396 15-01-2014 14:20:00 5.5 C 6.04 g/m*3 4.17 C 6.4 km/h
2397 15-01-2014 14:25:00 5.4 C 6 g/m*3 3.58 C 8.1 km/h
2398 15-01-2014 14:30:00 5.3 C 5.96 g/m*3 3.94 C 6.4 km/h
2399 15-01-2014 14:35:00 5.3 C 6.03 g/m*3 5.3 C 4.8 km/h
2400 15-01-2014 14:40:00 5.2 C 5.99 g/m*3 5.2 C 4.8 km/h
Sensor: Nr:Datum:Temp:Abs-Feuchte:Windchill:Wind:
Aussen-T/F 2401 15-01-2014 14:45:00 5.2 C 6.06 g/m*3 5.2 C 4.8 km/h
2402 15-01-2014 14:50:00 5.1 C 6.02 g/m*3 5.1 C 4.8 km/h
2403 15-01-2014 14:55:00 5.1 C 6.09 g/m*3 5.1 C 0 km/h
2404 15-01-2014 15:00:00 5.1 C 6.09 g/m*3 5.1 C 0 km/h
2405 15-01-2014 15:05:00 5 C 6.12 g/m*3 5 C 1.6 km/h
2406 15-01-2014 15:10:00 4.9 C 6.08 g/m*3 4.9 C 1.6 km/h
2407 15-01-2014 15:15:00 4.9 C 6.14 g/m*3 4.9 C 1.6 km/h
2408 15-01-2014 15:20:00 4.8 C 6.1 g/m*3 4.8 C 4.8 km/h
2409 15-01-2014 15:25:00 4.8 C 6.1 g/m*3 4.8 C 0 km/h
2410 15-01-2014 15:30:00 4.8 C 6.1 g/m*3 4.8 C 1.6 km/h
2411 15-01-2014 15:35:00 4.8 C 6.17 g/m*3 4.8 C 3.2 km/h
2412 15-01-2014 15:40:00 4.7 C 6.13 g/m*3 4.7 C 1.6 km/h
2413 15-01-2014 15:45:00 4.7 C 6.13 g/m*3 4.7 C 0 km/h
2414 15-01-2014 15:50:00 4.7 C 6.19 g/m*3 4.7 C 4.8 km/h
2415 15-01-2014 15:55:00 4.6 C 6.09 g/m*3 4.6 C 1.6 km/h
2416 15-01-2014 16:00:00 4.6 C 6.09 g/m*3 4.6 C 0 km/h
2417 15-01-2014 16:05:00 4.6 C 6.09 g/m*3 4.6 C 1.6 km/h
2418 15-01-2014 16:10:00 4.6 C 6.09 g/m*3 4.6 C 3.2 km/h
2419 15-01-2014 16:15:00 4.5 C 6.11 g/m*3 4.5 C 0 km/h
2420 15-01-2014 16:20:00 4.5 C 6.11 g/m*3 4.5 C 1.6 km/h
2421 15-01-2014 16:25:00 4.4 C 6.07 g/m*3 4.4 C 0 km/h
2422 15-01-2014 16:30:00 4.4 C 6.07 g/m*3 4.4 C 4.8 km/h
2423 15-01-2014 16:35:00 4.4 C 6.07 g/m*3 4.4 C 1.6 km/h
2424 15-01-2014 16:40:00 4.4 C 6.07 g/m*3 4.4 C 0 km/h
2425 15-01-2014 16:45:00 4.4 C 6.07 g/m*3 4.4 C 0 km/h
Sensor: Nr:Datum:Temp:Abs-Feuchte:Windchill:Wind:
Aussen-T/F 2426 15-01-2014 16:50:00 4.4 C 6.07 g/m*3 4.4 C 0 km/h
2427 15-01-2014 16:55:00 4.4 C 6.07 g/m*3 4.4 C 0 km/h
2428 15-01-2014 17:00:00 4.4 C 6.07 g/m*3 4.4 C 1.6 km/h
2429 15-01-2014 17:05:00 4.4 C 6.14 g/m*3 4.4 C 3.2 km/h
2430 15-01-2014 17:10:00 4.4 C 6.14 g/m*3 4.4 C 3.2 km/h
2431 15-01-2014 17:15:00 4.4 C 6.07 g/m*3 4.4 C 0 km/h
2432 15-01-2014 17:20:00 4.4 C 6.14 g/m*3 4.4 C 1.6 km/h
2433 15-01-2014 17:25:00 4.4 C 6.14 g/m*3 4.4 C 1.6 km/h
2434 15-01-2014 17:30:00 4.4 C 6.07 g/m*3 4.4 C 1.6 km/h
2435 15-01-2014 17:35:00 4.4 C 6.07 g/m*3 4.4 C 3.2 km/h
2436 15-01-2014 17:40:00 4.4 C 6.01 g/m*3 4.4 C 3.2 km/h
2437 15-01-2014 17:45:00 4.5 C 6.05 g/m*3 4.5 C 1.6 km/h
2438 15-01-2014 17:50:00 4.6 C 6.09 g/m*3 4.6 C 0 km/h
2439 15-01-2014 17:55:00 4.6 C 6.09 g/m*3 4.6 C 1.6 km/h
2440 15-01-2014 18:00:00 4.6 C 6.02 g/m*3 4.6 C 3.2 km/h
2441 15-01-2014 18:05:00 4.6 C 6.02 g/m*3 4.6 C 3.2 km/h
2442 15-01-2014 18:10:00 4.7 C 6.06 g/m*3 4.7 C 1.6 km/h
2443 15-01-2014 18:15:00 4.7 C 6.06 g/m*3 4.7 C 0 km/h
2444 15-01-2014 18:20:00 4.7 C 6.06 g/m*3 4.7 C 1.6 km/h
2445 15-01-2014 18:25:00 4.7 C 6 g/m*3 4.7 C 0 km/h
2446 15-01-2014 18:30:00 4.7 C 6 g/m*3 4.7 C 3.2 km/h
2447 15-01-2014 18:35:00 4.8 C 6.04 g/m*3 4.8 C 1.6 km/h
2448 15-01-2014 18:40:00 4.8 C 6.04 g/m*3 4.8 C 4.8 km/h
2449 15-01-2014 18:45:00 4.8 C 6.04 g/m*3 4.8 C 3.2 km/h
2450 15-01-2014 18:50:00 4.8 C 6.04 g/m*3 4.8 C 0 km/h
Sensor: Nr:Datum:Temp:Abs-Feuchte:Windchill:Wind:
Aussen-T/F 2451 15-01-2014 18:55:00 4.8 C 6.1 g/m*3 4.8 C 1.6 km/h
2452 15-01-2014 19:00:00 4.8 C 6.17 g/m*3 4.8 C 4.8 km/h
2453 15-01-2014 19:05:00 4.7 C 6.13 g/m*3 4.7 C 0 km/h
2454 15-01-2014 19:10:00 4.8 C 6.04 g/m*3 4.8 C 4.8 km/h
2455 15-01-2014 19:15:00 4.8 C 6.1 g/m*3 4.8 C 0 km/h
2456 15-01-2014 19:20:00 4.8 C 6.1 g/m*3 4.8 C 1.6 km/h
2457 15-01-2014 19:25:00 4.8 C 6.1 g/m*3 4.8 C 3.2 km/h
2458 15-01-2014 19:30:00 4.8 C 6.1 g/m*3 4.8 C 0 km/h
2459 15-01-2014 19:35:00 4.8 C 6.1 g/m*3 4.8 C 0 km/h
2460 15-01-2014 19:40:00 4.8 C 6.04 g/m*3 4.8 C 3.2 km/h
2461 15-01-2014 19:45:00 4.9 C 6.14 g/m*3 4.9 C 1.6 km/h
2462 15-01-2014 19:50:00 4.9 C 6.14 g/m*3 4.9 C 0 km/h
2463 15-01-2014 19:55:00 4.9 C 6.14 g/m*3 4.9 C 0 km/h
2464 15-01-2014 20:00:00 4.9 C 6.14 g/m*3 4.9 C 3.2 km/h
2465 15-01-2014 20:05:00 4.8 C 6.1 g/m*3 4.8 C 0 km/h
2466 15-01-2014 20:10:00 4.8 C 6.17 g/m*3 4.8 C 0 km/h
2467 15-01-2014 20:15:00 4.8 C 6.17 g/m*3 4.8 C 0 km/h
2468 15-01-2014 20:20:00 4.8 C 6.17 g/m*3 4.8 C 0 km/h
2469 15-01-2014 20:25:00 4.8 C 6.24 g/m*3 4.8 C 1.6 km/h
2470 15-01-2014 20:30:00 4.8 C 6.24 g/m*3 4.8 C 0 km/h
2471 15-01-2014 20:35:00 4.8 C 6.24 g/m*3 4.8 C 0 km/h
2472 15-01-2014 20:40:00 4.7 C 6.26 g/m*3 4.7 C 0 km/h
2473 15-01-2014 20:45:00 4.7 C 6.26 g/m*3 4.7 C 1.6 km/h
2474 15-01-2014 20:50:00 4.7 C 6.26 g/m*3 4.7 C 0 km/h
2475 15-01-2014 20:55:00 4.7 C 6.26 g/m*3 4.7 C 0 km/h
Sensor: Nr:Datum:Temp:Abs-Feuchte:Windchill:Wind:
Aussen-T/F 2476 15-01-2014 21:00:00 4.7 C 6.26 g/m*3 4.7 C 3.2 km/h
2477 15-01-2014 21:05:00 4.7 C 6.26 g/m*3 4.7 C 3.2 km/h
2478 15-01-2014 21:10:00 4.7 C 6.26 g/m*3 4.7 C 0 km/h
2479 15-01-2014 21:15:00 4.7 C 6.26 g/m*3 4.7 C 1.6 km/h
2480 15-01-2014 21:20:00 4.7 C 6.33 g/m*3 4.7 C 0 km/h
2481 15-01-2014 21:25:00 4.7 C 6.33 g/m*3 4.7 C 0 km/h
2482 15-01-2014 21:30:00 4.6 C 6.29 g/m*3 4.6 C 0 km/h
2483 15-01-2014 21:35:00 4.6 C 6.29 g/m*3 4.6 C 0 km/h
2484 15-01-2014 21:40:00 4.6 C 6.29 g/m*3 4.6 C 0 km/h
2485 15-01-2014 21:45:00 4.6 C 6.29 g/m*3 4.6 C 0 km/h
2486 15-01-2014 21:50:00 4.6 C 6.29 g/m*3 4.6 C 0 km/h
2487 15-01-2014 21:55:00 4.6 C 6.35 g/m*3 4.6 C 0 km/h
2488 15-01-2014 22:00:00 4.5 C 6.31 g/m*3 4.5 C 0 km/h
2489 15-01-2014 22:05:00 4.5 C 6.31 g/m*3 4.5 C 0 km/h
2490 15-01-2014 22:10:00 4.5 C 6.31 g/m*3 4.5 C 0 km/h
2491 15-01-2014 22:15:00 4.5 C 6.31 g/m*3 4.5 C 0 km/h
2492 15-01-2014 22:20:00 4.5 C 6.31 g/m*3 4.5 C 0 km/h
2493 15-01-2014 22:25:00 4.5 C 6.31 g/m*3 4.5 C 0 km/h
2494 15-01-2014 22:30:00 4.5 C 6.31 g/m*3 4.5 C 0 km/h
2495 15-01-2014 22:35:00 4.4 C 6.27 g/m*3 4.4 C 0 km/h
2496 15-01-2014 22:40:00 4.4 C 6.27 g/m*3 4.4 C 0 km/h
2497 15-01-2014 22:45:00 4.4 C 6.27 g/m*3 4.4 C 0 km/h
2498 15-01-2014 22:50:00 4.4 C 6.27 g/m*3 4.4 C 0 km/h
2499 15-01-2014 22:55:00 4.4 C 6.27 g/m*3 4.4 C 0 km/h
2500 15-01-2014 23:00:00 4.5 C 6.38 g/m*3 4.5 C 0 km/h
Sensor: Nr:Datum:Temp:Abs-Feuchte:Windchill:Wind:
Aussen-T/F 2501 15-01-2014 23:05:00 4.4 C 6.33 g/m*3 4.4 C 0 km/h
2502 15-01-2014 23:10:00 4.4 C 6.33 g/m*3 4.4 C 0 km/h
2503 15-01-2014 23:15:00 4.4 C 6.33 g/m*3 4.4 C 0 km/h
2504 15-01-2014 23:20:00 4.4 C 6.33 g/m*3 4.4 C 0 km/h
2505 15-01-2014 23:25:00 4.4 C 6.33 g/m*3 4.4 C 0 km/h
2506 15-01-2014 23:30:00 4.5 C 6.38 g/m*3 4.5 C 0 km/h
2507 15-01-2014 23:35:00 4.5 C 6.38 g/m*3 4.5 C 0 km/h
2508 15-01-2014 23:40:00 4.5 C 6.38 g/m*3 4.5 C 0 km/h
2509 15-01-2014 23:45:00 4.5 C 6.38 g/m*3 4.5 C 0 km/h
2510 15-01-2014 23:50:00 4.5 C 6.38 g/m*3 4.5 C 0 km/h
2511 15-01-2014 23:55:00 4.5 C 6.38 g/m*3 4.5 C 0 km/h
2512 16-01-2014 00:00:00 4.5 C 6.38 g/m*3 4.5 C 0 km/h
2513 16-01-2014 00:05:00 4.5 C 6.38 g/m*3 4.5 C 0 km/h
2514 16-01-2014 00:10:00 4.5 C 6.38 g/m*3 4.5 C 0 km/h
2515 16-01-2014 00:15:00 4.5 C 6.38 g/m*3 4.5 C 0 km/h
2516 16-01-2014 00:20:00 4.5 C 6.38 g/m*3 4.5 C 0 km/h
2517 16-01-2014 00:25:00 4.5 C 6.38 g/m*3 4.5 C 0 km/h
2518 16-01-2014 00:30:00 4.5 C 6.38 g/m*3 4.5 C 0 km/h
2519 16-01-2014 00:35:00 4.5 C 6.38 g/m*3 4.5 C 0 km/h
2520 16-01-2014 00:40:00 4.5 C 6.38 g/m*3 4.5 C 0 km/h
2521 16-01-2014 00:45:00 4.5 C 6.38 g/m*3 4.5 C 0 km/h
2522 16-01-2014 00:50:00 4.5 C 6.38 g/m*3 4.5 C 0 km/h
2523 16-01-2014 00:55:00 4.5 C 6.38 g/m*3 4.5 C 0 km/h
2524 16-01-2014 01:00:00 4.5 C 6.38 g/m*3 4.5 C 0 km/h
2525 16-01-2014 01:05:00 4.5 C 6.38 g/m*3 4.5 C 0 km/h
Sensor: Nr:Datum:Temp:Abs-Feuchte:Windchill:Wind:
Aussen-T/F 2526 16-01-2014 01:10:00 4.6 C 6.42 g/m*3 4.6 C 0 km/h
2527 16-01-2014 01:15:00 4.6 C 6.42 g/m*3 4.6 C 0 km/h
2528 16-01-2014 01:20:00 4.6 C 6.42 g/m*3 4.6 C 0 km/h
2529 16-01-2014 01:25:00 4.6 C 6.42 g/m*3 4.6 C 0 km/h
2530 16-01-2014 01:30:00 4.7 C 6.46 g/m*3 4.7 C 0 km/h
2531 16-01-2014 01:35:00 4.7 C 6.46 g/m*3 4.7 C 0 km/h
2532 16-01-2014 01:40:00 4.7 C 6.46 g/m*3 4.7 C 0 km/h
2533 16-01-2014 01:45:00 4.7 C 6.46 g/m*3 4.7 C 0 km/h
2534 16-01-2014 01:50:00 4.8 C 6.5 g/m*3 4.8 C 0 km/h
2535 16-01-2014 01:55:00 4.8 C 6.5 g/m*3 4.8 C 0 km/h
2536 16-01-2014 02:00:00 4.8 C 6.5 g/m*3 4.8 C 0 km/h
2537 16-01-2014 02:05:00 4.8 C 6.5 g/m*3 4.8 C 0 km/h
2538 16-01-2014 02:10:00 4.8 C 6.5 g/m*3 4.8 C 0 km/h
2539 16-01-2014 02:15:00 4.8 C 6.5 g/m*3 4.8 C 0 km/h
2540 16-01-2014 02:20:00 4.9 C 6.55 g/m*3 4.9 C 0 km/h
2541 16-01-2014 02:25:00 4.9 C 6.55 g/m*3 4.9 C 0 km/h
2542 16-01-2014 02:30:00 4.9 C 6.55 g/m*3 4.9 C 0 km/h
2543 16-01-2014 02:35:00 4.9 C 6.55 g/m*3 4.9 C 0 km/h
2544 16-01-2014 02:40:00 4.9 C 6.55 g/m*3 4.9 C 0 km/h
2545 16-01-2014 02:45:00 5 C 6.59 g/m*3 5 C 0 km/h
2546 16-01-2014 02:50:00 5 C 6.59 g/m*3 5 C 0 km/h
2547 16-01-2014 02:55:00 5.1 C 6.7 g/m*3 5.1 C 0 km/h
2548 16-01-2014 03:00:00 5.1 C 6.7 g/m*3 5.1 C 0 km/h
2549 16-01-2014 03:05:00 5.1 C 6.7 g/m*3 5.1 C 0 km/h
2550 16-01-2014 03:10:00 5.1 C 6.7 g/m*3 5.1 C 0 km/h
Sensor: Nr:Datum:Temp:Abs-Feuchte:Windchill:Wind:
Aussen-T/F 2551 16-01-2014 03:15:00 5.1 C 6.7 g/m*3 5.1 C 0 km/h
2552 16-01-2014 03:20:00 5.1 C 6.7 g/m*3 5.1 C 0 km/h
2553 16-01-2014 03:25:00 5.1 C 6.7 g/m*3 5.1 C 0 km/h
2554 16-01-2014 03:30:00 5.1 C 6.7 g/m*3 5.1 C 0 km/h
2555 16-01-2014 03:35:00 5.1 C 6.7 g/m*3 5.1 C 0 km/h
2556 16-01-2014 03:40:00 5.1 C 6.7 g/m*3 5.1 C 1.6 km/h
2557 16-01-2014 03:45:00 5.1 C 6.7 g/m*3 5.1 C 0 km/h
2558 16-01-2014 03:50:00 5.2 C 6.75 g/m*3 5.2 C 0 km/h
2559 16-01-2014 03:55:00 5.2 C 6.75 g/m*3 5.2 C 0 km/h
2560 16-01-2014 04:00:00 5.2 C 6.75 g/m*3 5.2 C 0 km/h
2561 16-01-2014 04:05:00 5.2 C 6.75 g/m*3 5.2 C 0 km/h
2562 16-01-2014 04:10:00 5.3 C 6.79 g/m*3 5.3 C 0 km/h
2563 16-01-2014 04:15:00 5.3 C 6.79 g/m*3 5.3 C 0 km/h
2564 16-01-2014 04:20:00 5.3 C 6.79 g/m*3 5.3 C 0 km/h
2565 16-01-2014 04:25:00 5.3 C 6.79 g/m*3 5.3 C 0 km/h
2566 16-01-2014 04:30:00 5.2 C 6.75 g/m*3 5.2 C 0 km/h
2567 16-01-2014 04:35:00 5.3 C 6.79 g/m*3 5.3 C 0 km/h
2568 16-01-2014 04:40:00 5.3 C 6.79 g/m*3 5.3 C 0 km/h
2569 16-01-2014 04:45:00 5.3 C 6.79 g/m*3 5.3 C 0 km/h
2570 16-01-2014 04:50:00 5.3 C 6.79 g/m*3 5.3 C 0 km/h
2571 16-01-2014 04:55:00 5.3 C 6.79 g/m*3 5.3 C 0 km/h
2572 16-01-2014 05:00:00 5.3 C 6.79 g/m*3 5.3 C 0 km/h
2573 16-01-2014 05:05:00 5.4 C 6.84 g/m*3 5.4 C 0 km/h
2574 16-01-2014 05:10:00 5.4 C 6.84 g/m*3 5.4 C 0 km/h
2575 16-01-2014 05:15:00 5.4 C 6.84 g/m*3 5.4 C 0 km/h
Sensor: Nr:Datum:Temp:Abs-Feuchte:Windchill:Wind:
Aussen-T/F 2576 16-01-2014 05:20:00 5.4 C 6.84 g/m*3 5.4 C 0 km/h
2577 16-01-2014 05:25:00 5.4 C 6.84 g/m*3 5.4 C 1.6 km/h
2578 16-01-2014 05:30:00 5.4 C 6.84 g/m*3 5.4 C 0 km/h
2579 16-01-2014 05:35:00 5.4 C 6.84 g/m*3 5.4 C 0 km/h
2580 16-01-2014 05:40:00 5.4 C 6.84 g/m*3 5.4 C 0 km/h
2581 16-01-2014 05:45:00 5.4 C 6.84 g/m*3 5.4 C 0 km/h
2582 16-01-2014 05:50:00 5.4 C 6.84 g/m*3 5.4 C 0 km/h
2583 16-01-2014 05:55:00 5.5 C 6.88 g/m*3 5.5 C 0 km/h
2584 16-01-2014 06:00:00 5.5 C 6.88 g/m*3 5.5 C 0 km/h
2585 16-01-2014 06:05:00 5.5 C 6.88 g/m*3 5.5 C 0 km/h
2586 16-01-2014 06:10:00 5.5 C 6.88 g/m*3 5.5 C 0 km/h
2587 16-01-2014 06:15:00 5.5 C 6.88 g/m*3 5.5 C 0 km/h
2588 16-01-2014 06:20:00 5.5 C 6.88 g/m*3 5.5 C 0 km/h
2589 16-01-2014 06:25:00 5.5 C 6.88 g/m*3 5.5 C 0 km/h
2590 16-01-2014 06:30:00 5.5 C 6.88 g/m*3 5.5 C 0 km/h
2591 16-01-2014 06:35:00 5.6 C 6.93 g/m*3 5.6 C 0 km/h
2592 16-01-2014 06:40:00 5.6 C 6.93 g/m*3 5.6 C 0 km/h
2593 16-01-2014 06:45:00 5.6 C 6.93 g/m*3 5.6 C 0 km/h
2594 16-01-2014 06:50:00 5.6 C 6.93 g/m*3 5.6 C 0 km/h
2595 16-01-2014 06:55:00 5.6 C 6.93 g/m*3 5.6 C 0 km/h
2596 16-01-2014 07:00:00 5.6 C 6.93 g/m*3 5.6 C 0 km/h
2597 16-01-2014 07:05:00 5.6 C 6.93 g/m*3 5.6 C 0 km/h
2598 16-01-2014 07:10:00 5.6 C 6.93 g/m*3 5.6 C 0 km/h
2599 16-01-2014 07:15:00 5.6 C 6.93 g/m*3 5.6 C 0 km/h
2600 16-01-2014 07:20:00 5.6 C 6.93 g/m*3 5.6 C 0 km/h
Sensor: Nr:Datum:Temp:Abs-Feuchte:Windchill:Wind:
Aussen-T/F 2601 16-01-2014 07:25:00 5.6 C 6.93 g/m*3 5.6 C 0 km/h
2602 16-01-2014 07:30:00 5.7 C 6.97 g/m*3 5.7 C 0 km/h
2603 16-01-2014 07:35:00 5.7 C 6.97 g/m*3 5.7 C 0 km/h
2604 16-01-2014 07:40:00 5.7 C 6.97 g/m*3 5.7 C 0 km/h
2605 16-01-2014 07:45:00 5.7 C 6.97 g/m*3 5.7 C 1.6 km/h
2606 16-01-2014 07:50:00 5.6 C 6.93 g/m*3 5.6 C 0 km/h
2607 16-01-2014 07:55:00 5.7 C 6.97 g/m*3 5.7 C 0 km/h
2608 16-01-2014 08:00:00 5.6 C 6.93 g/m*3 5.6 C 0 km/h
2609 16-01-2014 08:05:00 5.6 C 6.93 g/m*3 5.6 C 0 km/h
2610 16-01-2014 08:10:00 5.5 C 6.88 g/m*3 5.5 C 0 km/h
2611 16-01-2014 08:15:00 5.4 C 6.84 g/m*3 5.4 C 0 km/h
2612 16-01-2014 08:20:00 5.4 C 6.84 g/m*3 5.4 C 0 km/h
2613 16-01-2014 08:25:00 5.4 C 6.84 g/m*3 5.4 C 1.6 km/h
2614 16-01-2014 08:30:00 5.4 C 6.84 g/m*3 5.4 C 0 km/h
2615 16-01-2014 08:35:00 5.4 C 6.84 g/m*3 5.4 C 1.6 km/h
2616 16-01-2014 08:40:00 5.4 C 6.84 g/m*3 5.4 C 1.6 km/h
2617 16-01-2014 08:45:00 5.4 C 6.84 g/m*3 5.4 C 0 km/h
2618 16-01-2014 08:50:00 5.4 C 6.84 g/m*3 5.4 C 1.6 km/h
2619 16-01-2014 08:55:00 5.4 C 6.84 g/m*3 5.4 C 0 km/h
2620 16-01-2014 09:00:00 5.4 C 6.84 g/m*3 5.4 C 1.6 km/h
2621 16-01-2014 09:05:00 5.4 C 6.84 g/m*3 5.4 C 3.2 km/h
2622 16-01-2014 09:10:00 5.6 C 6.93 g/m*3 5.6 C 0 km/h
2623 16-01-2014 09:15:00 5.6 C 6.93 g/m*3 5.6 C 0 km/h
2624 16-01-2014 09:20:00 5.6 C 6.93 g/m*3 5.6 C 0 km/h
2625 16-01-2014 09:25:00 5.6 C 6.93 g/m*3 5.6 C 0 km/h
Sensor: Nr:Datum:Temp:Abs-Feuchte:Windchill:Wind:
Aussen-T/F 2626 16-01-2014 09:30:00 5.6 C 6.93 g/m*3 5.6 C 0 km/h
2627 16-01-2014 09:35:00 5.6 C 6.93 g/m*3 5.6 C 1.6 km/h
2628 16-01-2014 09:40:00 5.7 C 6.97 g/m*3 5.7 C 0 km/h
2629 16-01-2014 09:45:00 5.8 C 7.02 g/m*3 5.8 C 0 km/h
2630 16-01-2014 09:50:00 5.8 C 7.02 g/m*3 5.8 C 0 km/h
2631 16-01-2014 09:55:00 5.9 C 7.07 g/m*3 5.9 C 0 km/h
2632 16-01-2014 10:00:00 5.9 C 7.07 g/m*3 5.9 C 0 km/h
2633 16-01-2014 10:05:00 5.9 C 7.07 g/m*3 5.9 C 0 km/h
2634 16-01-2014 10:10:00 6.1 C 7.16 g/m*3 6.1 C 0 km/h
2635 16-01-2014 10:15:00 6.1 C 7.16 g/m*3 6.1 C 1.6 km/h
2636 16-01-2014 10:20:00 6.1 C 7.16 g/m*3 6.1 C 0 km/h
2637 16-01-2014 10:25:00 6.1 C 7.16 g/m*3 6.1 C 0 km/h
2638 16-01-2014 10:30:00 6.1 C 7.16 g/m*3 6.1 C 0 km/h
2639 16-01-2014 10:35:00 6.2 C 7.21 g/m*3 6.2 C 0 km/h
2640 16-01-2014 10:40:00 6.2 C 7.21 g/m*3 6.2 C 0 km/h
2641 16-01-2014 10:45:00 6.2 C 7.21 g/m*3 6.2 C 1.6 km/h
2642 16-01-2014 10:50:00 6.2 C 7.21 g/m*3 6.2 C 0 km/h
2643 16-01-2014 10:55:00 6.2 C 7.13 g/m*3 6.2 C 0 km/h
2644 16-01-2014 11:00:00 6.2 C 7.13 g/m*3 6.2 C 0 km/h
2645 16-01-2014 11:05:00 6.2 C 7.13 g/m*3 6.2 C 1.6 km/h
2646 16-01-2014 11:10:00 6.2 C 7.13 g/m*3 6.2 C 1.6 km/h
2647 16-01-2014 11:15:00 6.2 C 7.13 g/m*3 6.2 C 3.2 km/h
2648 16-01-2014 11:20:00 6.2 C 7.13 g/m*3 6.2 C 4.8 km/h
2649 16-01-2014 11:25:00 6.2 C 7.06 g/m*3 4.98 C 6.4 km/h
2650 16-01-2014 11:30:00 6.4 C 7.08 g/m*3 6.4 C 4.8 km/h
Sensor: Nr:Datum:Temp:Abs-Feuchte:Windchill:Wind:
Aussen-T/F 2651 16-01-2014 11:35:00 6.6 C 7.1 g/m*3 5.44 C 6.4 km/h
2652 16-01-2014 11:40:00 6.7 C 7.14 g/m*3 6.7 C 0 km/h
2653 16-01-2014 11:45:00 6.8 C 7.04 g/m*3 6.8 C 1.6 km/h
2654 16-01-2014 11:50:00 6.9 C 7.24 g/m*3 6.9 C 0 km/h
2655 16-01-2014 11:55:00 7 C 7.21 g/m*3 7 C 3.2 km/h
2656 16-01-2014 12:00:00 7.1 C 7.33 g/m*3 7.1 C 0 km/h
2657 16-01-2014 12:05:00 7.2 C 7.38 g/m*3 7.2 C 0 km/h
2658 16-01-2014 12:10:00 7.3 C 7.51 g/m*3 7.3 C 0 km/h
2659 16-01-2014 12:15:00 7.3 C 7.43 g/m*3 7.3 C 1.6 km/h
2660 16-01-2014 12:20:00 7.3 C 7.27 g/m*3 7.3 C 1.6 km/h
2661 16-01-2014 12:25:00 7.4 C 7.4 g/m*3 7.4 C 0 km/h
2662 16-01-2014 12:30:00 7.6 C 7.41 g/m*3 7.6 C 1.6 km/h
2663 16-01-2014 12:35:00 7.7 C 7.3 g/m*3 7.7 C 1.6 km/h
2664 16-01-2014 12:40:00 7.8 C 7.26 g/m*3 7.8 C 0 km/h
2665 16-01-2014 12:45:00 7.9 C 7.31 g/m*3 7.9 C 1.6 km/h
2666 16-01-2014 12:50:00 8 C 7.44 g/m*3 8 C 1.6 km/h
2667 16-01-2014 12:55:00 8 C 7.28 g/m*3 8 C 1.6 km/h
2668 16-01-2014 13:00:00 8.1 C 7.41 g/m*3 8.1 C 0 km/h
2669 16-01-2014 13:05:00 8.2 C 7.54 g/m*3 8.2 C 0 km/h
2670 16-01-2014 13:10:00 8.2 C 7.45 g/m*3 8.2 C 0 km/h
2671 16-01-2014 13:15:00 8.2 C 7.37 g/m*3 8.2 C 4.8 km/h
2672 16-01-2014 13:20:00 8.2 C 7.03 g/m*3 7.29 C 6.4 km/h
2673 16-01-2014 13:25:00 8.3 C 7.25 g/m*3 8.3 C 1.6 km/h
2674 16-01-2014 13:30:00 8.3 C 7.25 g/m*3 8.3 C 0 km/h
2675 16-01-2014 13:35:00 8.4 C 7.3 g/m*3 8.4 C 0 km/h
Sensor: Nr:Datum:Temp:Abs-Feuchte:Windchill:Wind:
Aussen-T/F 2676 16-01-2014 13:40:00 8.4 C 7.13 g/m*3 8.4 C 3.2 km/h
2677 16-01-2014 13:45:00 8.4 C 7.13 g/m*3 8.4 C 3.2 km/h
2678 16-01-2014 13:50:00 8.5 C 7.17 g/m*3 8.5 C 4.8 km/h
2679 16-01-2014 13:55:00 8.6 C 7.39 g/m*3 8.6 C 3.2 km/h
2680 16-01-2014 14:00:00 8.5 C 7.51 g/m*3 8.5 C 0 km/h
2681 16-01-2014 14:05:00 8.4 C 7.47 g/m*3 8.4 C 3.2 km/h
2682 16-01-2014 14:10:00 8.3 C 7.42 g/m*3 8.3 C 0 km/h
2683 16-01-2014 14:15:00 8.3 C 7.5 g/m*3 8.3 C 4.8 km/h
2684 16-01-2014 14:20:00 8.2 C 7.29 g/m*3 8.2 C 1.6 km/h
2685 16-01-2014 14:25:00 8.1 C 7.41 g/m*3 8.1 C 0 km/h
2686 16-01-2014 14:30:00 8 C 7.36 g/m*3 8 C 0 km/h
2687 16-01-2014 14:35:00 7.9 C 7.39 g/m*3 7.9 C 0 km/h
2688 16-01-2014 14:40:00 7.8 C 7.35 g/m*3 7.8 C 1.6 km/h
2689 16-01-2014 14:45:00 7.8 C 7.43 g/m*3 7.8 C 3.2 km/h
2690 16-01-2014 14:50:00 7.8 C 7.43 g/m*3 7.8 C 0 km/h
2691 16-01-2014 14:55:00 7.8 C 7.43 g/m*3 7.8 C 0 km/h
2692 16-01-2014 15:00:00 7.7 C 7.14 g/m*3 7.7 C 4.8 km/h
2693 16-01-2014 15:05:00 7.7 C 7.22 g/m*3 7.7 C 0 km/h
2694 16-01-2014 15:10:00 7.8 C 7.26 g/m*3 7.8 C 4.8 km/h
2695 16-01-2014 15:15:00 7.8 C 7.26 g/m*3 7.8 C 0 km/h
2696 16-01-2014 15:20:00 7.8 C 7.26 g/m*3 7.8 C 4.8 km/h
2697 16-01-2014 15:25:00 7.8 C 7.18 g/m*3 7.8 C 4.8 km/h
2698 16-01-2014 15:30:00 8 C 7.36 g/m*3 8 C 1.6 km/h
2699 16-01-2014 15:35:00 8.1 C 7.32 g/m*3 8.1 C 1.6 km/h
2700 16-01-2014 15:40:00 8.1 C 7.41 g/m*3 8.1 C 1.6 km/h
Sensor: Nr:Datum:Temp:Abs-Feuchte:Windchill:Wind:
Aussen-T/F 2701 16-01-2014 15:45:00 8.1 C 7.16 g/m*3 7.17 C 6.4 km/h
2702 16-01-2014 15:50:00 8.2 C 7.2 g/m*3 8.2 C 3.2 km/h
2703 16-01-2014 15:55:00 8.2 C 7.2 g/m*3 8.2 C 4.8 km/h
2704 16-01-2014 16:00:00 8.2 C 7.37 g/m*3 8.2 C 0 km/h
2705 16-01-2014 16:05:00 8.2 C 7.2 g/m*3 8.2 C 3.2 km/h
2706 16-01-2014 16:10:00 8.2 C 7.2 g/m*3 8.2 C 4.8 km/h
2707 16-01-2014 16:15:00 8.3 C 7.25 g/m*3 8.3 C 4.8 km/h
2708 16-01-2014 16:20:00 8.3 C 7.16 g/m*3 7.41 C 6.4 km/h
2709 16-01-2014 16:25:00 8.4 C 7.21 g/m*3 7.11 C 8.1 km/h
2710 16-01-2014 16:30:00 8.5 C 7.17 g/m*3 6.61 C 11.3 km/h
2711 16-01-2014 16:35:00 8.6 C 7.22 g/m*3 6.73 C 11.3 km/h
2712 16-01-2014 16:40:00 8.6 C 7.22 g/m*3 8.6 C 1.6 km/h
2713 16-01-2014 16:45:00 8.6 C 7.22 g/m*3 8.6 C 3.2 km/h
2714 16-01-2014 16:50:00 8.4 C 7.21 g/m*3 8.4 C 0 km/h
2715 16-01-2014 16:55:00 8.3 C 7.33 g/m*3 8.3 C 3.2 km/h
2716 16-01-2014 17:00:00 8.2 C 7.2 g/m*3 8.2 C 3.2 km/h
2717 16-01-2014 17:05:00 8.3 C 7.16 g/m*3 8.3 C 3.2 km/h
2718 16-01-2014 17:10:00 8.3 C 7.25 g/m*3 7.41 C 6.4 km/h
2719 16-01-2014 17:15:00 8.3 C 7.16 g/m*3 8.3 C 3.2 km/h
2720 16-01-2014 17:20:00 8.3 C 7.33 g/m*3 8.3 C 0 km/h
2721 16-01-2014 17:25:00 8.2 C 7.2 g/m*3 8.2 C 1.6 km/h
2722 16-01-2014 17:30:00 8.1 C 7.32 g/m*3 8.1 C 4.8 km/h
2723 16-01-2014 17:35:00 8.2 C 7.37 g/m*3 7.29 C 6.4 km/h
2724 16-01-2014 17:40:00 8.1 C 7.24 g/m*3 8.1 C 4.8 km/h
2725 16-01-2014 17:45:00 8.1 C 7.32 g/m*3 8.1 C 1.6 km/h
Sensor: Nr:Datum:Temp:Abs-Feuchte:Windchill:Wind:
Aussen-T/F 2726 16-01-2014 17:50:00 8.1 C 7.41 g/m*3 8.1 C 0 km/h
2727 16-01-2014 17:55:00 8.1 C 7.32 g/m*3 8.1 C 1.6 km/h
2728 16-01-2014 18:00:00 7.9 C 7.23 g/m*3 7.9 C 3.2 km/h
2729 16-01-2014 18:05:00 7.8 C 7.26 g/m*3 7.8 C 3.2 km/h
2730 16-01-2014 18:10:00 7.9 C 7.31 g/m*3 7.9 C 1.6 km/h
2731 16-01-2014 18:15:00 7.8 C 7.26 g/m*3 7.8 C 3.2 km/h
2732 16-01-2014 18:20:00 7.9 C 7.31 g/m*3 7.9 C 4.8 km/h
2733 16-01-2014 18:25:00 7.9 C 7.31 g/m*3 7.9 C 1.6 km/h
2734 16-01-2014 18:30:00 8 C 7.28 g/m*3 8 C 4.8 km/h
2735 16-01-2014 18:35:00 8 C 7.28 g/m*3 7.06 C 6.4 km/h
2736 16-01-2014 18:40:00 8.3 C 7.33 g/m*3 6.66 C 9.7 km/h
2737 16-01-2014 18:45:00 8.5 C 7.34 g/m*3 7.64 C 6.4 km/h
2738 16-01-2014 18:50:00 8.6 C 7.3 g/m*3 7.01 C 9.7 km/h
2739 16-01-2014 18:55:00 8.7 C 7.35 g/m*3 8.7 C 4.8 km/h
2740 16-01-2014 19:00:00 8.7 C 7.26 g/m*3 7.87 C 6.4 km/h
2741 16-01-2014 19:05:00 8.7 C 7.35 g/m*3 7.87 C 6.4 km/h
2742 16-01-2014 19:10:00 8.8 C 7.31 g/m*3 6.97 C 11.3 km/h
2743 16-01-2014 19:15:00 8.7 C 7.35 g/m*3 7.87 C 6.4 km/h
2744 16-01-2014 19:20:00 8.7 C 7.35 g/m*3 7.87 C 6.4 km/h
2745 16-01-2014 19:25:00 8.7 C 7.35 g/m*3 7.13 C 9.7 km/h
2746 16-01-2014 19:30:00 8.7 C 7.35 g/m*3 7.87 C 6.4 km/h
2747 16-01-2014 19:35:00 8.7 C 7.35 g/m*3 7.87 C 6.4 km/h
2748 16-01-2014 19:40:00 8.7 C 7.35 g/m*3 8.7 C 4.8 km/h
2749 16-01-2014 19:45:00 8.7 C 7.35 g/m*3 8.7 C 3.2 km/h
2750 16-01-2014 19:50:00 8.7 C 7.44 g/m*3 8.7 C 3.2 km/h
Sensor: Nr:Datum:Temp:Abs-Feuchte:Windchill:Wind:
Aussen-T/F 2751 16-01-2014 19:55:00 8.6 C 7.39 g/m*3 8.6 C 1.6 km/h
2752 16-01-2014 20:00:00 8.5 C 7.34 g/m*3 7.64 C 6.4 km/h
2753 16-01-2014 20:05:00 8.3 C 7.33 g/m*3 8.3 C 3.2 km/h
2754 16-01-2014 20:10:00 7.9 C 7.15 g/m*3 7.9 C 3.2 km/h
2755 16-01-2014 20:15:00 7.8 C 7.26 g/m*3 6.83 C 6.4 km/h
2756 16-01-2014 20:20:00 7.7 C 7.22 g/m*3 7.7 C 1.6 km/h
2757 16-01-2014 20:25:00 7.4 C 7.16 g/m*3 7.4 C 3.2 km/h
2758 16-01-2014 20:30:00 7.3 C 7.19 g/m*3 7.3 C 1.6 km/h
2759 16-01-2014 20:35:00 7.2 C 7.14 g/m*3 7.2 C 1.6 km/h
2760 16-01-2014 20:40:00 7.1 C 7.18 g/m*3 7.1 C 1.6 km/h
2761 16-01-2014 20:45:00 7.1 C 7.18 g/m*3 7.1 C 1.6 km/h
2762 16-01-2014 20:50:00 7.1 C 7.25 g/m*3 7.1 C 0 km/h
2763 16-01-2014 20:55:00 7.1 C 7.25 g/m*3 7.1 C 0 km/h
2764 16-01-2014 21:00:00 7.2 C 7.3 g/m*3 7.2 C 3.2 km/h
2765 16-01-2014 21:05:00 7.2 C 7.22 g/m*3 7.2 C 3.2 km/h
2766 16-01-2014 21:10:00 7.1 C 7.18 g/m*3 7.1 C 1.6 km/h
2767 16-01-2014 21:15:00 7.1 C 7.18 g/m*3 7.1 C 3.2 km/h
2768 16-01-2014 21:20:00 6.9 C 7.08 g/m*3 6.9 C 1.6 km/h
2769 16-01-2014 21:25:00 7 C 7.21 g/m*3 7 C 3.2 km/h
2770 16-01-2014 21:30:00 7 C 7.21 g/m*3 7 C 1.6 km/h
2771 16-01-2014 21:35:00 7 C 7.21 g/m*3 7 C 0 km/h
2772 16-01-2014 21:40:00 7 C 7.21 g/m*3 7 C 1.6 km/h
2773 16-01-2014 21:45:00 6.9 C 7.16 g/m*3 6.9 C 0 km/h
2774 16-01-2014 21:50:00 6.9 C 7.16 g/m*3 6.9 C 3.2 km/h
2775 16-01-2014 21:55:00 6.9 C 7.16 g/m*3 6.9 C 1.6 km/h
Sensor: Nr:Datum:Temp:Abs-Feuchte:Windchill:Wind:
Aussen-T/F 2776 16-01-2014 22:00:00 6.9 C 7.16 g/m*3 6.9 C 1.6 km/h
2777 16-01-2014 22:05:00 6.9 C 7.16 g/m*3 6.9 C 3.2 km/h
2778 16-01-2014 22:10:00 6.9 C 7.16 g/m*3 6.9 C 0 km/h
2779 16-01-2014 22:15:00 6.9 C 7.24 g/m*3 6.9 C 0 km/h
2780 16-01-2014 22:20:00 6.9 C 7.16 g/m*3 6.9 C 3.2 km/h
2781 16-01-2014 22:25:00 6.9 C 7.16 g/m*3 6.9 C 0 km/h
2782 16-01-2014 22:30:00 6.8 C 7.11 g/m*3 6.8 C 1.6 km/h
2783 16-01-2014 22:35:00 6.7 C 7.07 g/m*3 6.7 C 1.6 km/h
2784 16-01-2014 22:40:00 6.7 C 7.07 g/m*3 6.7 C 3.2 km/h
2785 16-01-2014 22:45:00 6.7 C 7.07 g/m*3 6.7 C 1.6 km/h
2786 16-01-2014 22:50:00 6.6 C 7.02 g/m*3 6.6 C 0 km/h
2787 16-01-2014 22:55:00 6.6 C 6.95 g/m*3 6.6 C 0 km/h
2788 16-01-2014 23:00:00 6.4 C 6.85 g/m*3 6.4 C 1.6 km/h
2789 16-01-2014 23:05:00 6.3 C 6.81 g/m*3 6.3 C 0 km/h
2790 16-01-2014 23:10:00 6.1 C 6.79 g/m*3 6.1 C 3.2 km/h
2791 16-01-2014 23:15:00 5.8 C 6.59 g/m*3 5.8 C 1.6 km/h
2792 16-01-2014 23:20:00 5.7 C 6.62 g/m*3 5.7 C 3.2 km/h
2793 16-01-2014 23:25:00 5.6 C 6.65 g/m*3 5.6 C 3.2 km/h
2794 16-01-2014 23:30:00 5.4 C 6.56 g/m*3 5.4 C 3.2 km/h
2795 16-01-2014 23:35:00 5.3 C 6.52 g/m*3 5.3 C 3.2 km/h
2796 16-01-2014 23:40:00 5.3 C 6.52 g/m*3 5.3 C 4.8 km/h
2797 16-01-2014 23:45:00 5.2 C 6.54 g/m*3 5.2 C 4.8 km/h
2798 16-01-2014 23:50:00 5.1 C 6.43 g/m*3 5.1 C 4.8 km/h
2799 16-01-2014 23:55:00 5.1 C 6.5 g/m*3 5.1 C 4.8 km/h
2800 17-01-2014 00:00:00 5.1 C 6.5 g/m*3 5.1 C 3.2 km/h
Sensor: Nr:Datum:Temp:Abs-Feuchte:Windchill:Wind:
Aussen-T/F 2801 17-01-2014 00:05:00 5.1 C 6.5 g/m*3 5.1 C 3.2 km/h
2802 17-01-2014 00:10:00 5.2 C 6.54 g/m*3 5.2 C 3.2 km/h
2803 17-01-2014 00:15:00 5.3 C 6.65 g/m*3 5.3 C 3.2 km/h
2804 17-01-2014 00:20:00 5.4 C 6.7 g/m*3 5.4 C 1.6 km/h
2805 17-01-2014 00:25:00 5.7 C 6.83 g/m*3 5.7 C 0 km/h
2806 17-01-2014 00:30:00 5.8 C 6.88 g/m*3 5.8 C 3.2 km/h
2807 17-01-2014 00:35:00 6.1 C 7.01 g/m*3 6.1 C 1.6 km/h
2808 17-01-2014 00:40:00 6.3 C 7.03 g/m*3 6.3 C 1.6 km/h
2809 17-01-2014 00:45:00 6.4 C 7 g/m*3 6.4 C 3.2 km/h
2810 17-01-2014 00:50:00 6.4 C 7 g/m*3 5.21 C 6.4 km/h
2811 17-01-2014 00:55:00 6.4 C 7 g/m*3 6.4 C 1.6 km/h
2812 17-01-2014 01:00:00 6.4 C 7 g/m*3 6.4 C 0 km/h
2813 17-01-2014 01:05:00 6.4 C 7 g/m*3 6.4 C 1.6 km/h
2814 17-01-2014 01:10:00 6.4 C 7 g/m*3 6.4 C 0 km/h
2815 17-01-2014 01:15:00 6.4 C 7 g/m*3 5.21 C 6.4 km/h
2816 17-01-2014 01:20:00 6.6 C 7.1 g/m*3 6.6 C 1.6 km/h
2817 17-01-2014 01:25:00 6.6 C 7.02 g/m*3 6.6 C 1.6 km/h
2818 17-01-2014 01:30:00 6.7 C 7.07 g/m*3 6.7 C 1.6 km/h
2819 17-01-2014 01:35:00 6.7 C 7.07 g/m*3 6.7 C 0 km/h
2820 17-01-2014 01:40:00 6.7 C 7.07 g/m*3 6.7 C 0 km/h
2821 17-01-2014 01:45:00 6.7 C 7.07 g/m*3 6.7 C 1.6 km/h
2822 17-01-2014 01:50:00 6.7 C 7.07 g/m*3 6.7 C 1.6 km/h
2823 17-01-2014 01:55:00 6.8 C 7.11 g/m*3 6.8 C 1.6 km/h
2824 17-01-2014 02:00:00 6.8 C 7.04 g/m*3 6.8 C 4.8 km/h
2825 17-01-2014 02:05:00 6.9 C 7.08 g/m*3 6.9 C 3.2 km/h
Sensor: Nr:Datum:Temp:Abs-Feuchte:Windchill:Wind:
Aussen-T/F 2826 17-01-2014 02:10:00 6.9 C 7.08 g/m*3 6.9 C 0 km/h
2827 17-01-2014 02:15:00 6.9 C 7.08 g/m*3 6.9 C 0 km/h
2828 17-01-2014 02:20:00 6.9 C 7.08 g/m*3 6.9 C 0 km/h
2829 17-01-2014 02:25:00 6.9 C 7.08 g/m*3 6.9 C 0 km/h
2830 17-01-2014 02:30:00 6.9 C 7.08 g/m*3 6.9 C 0 km/h
2831 17-01-2014 02:35:00 6.9 C 7.08 g/m*3 6.9 C 0 km/h
2832 17-01-2014 02:40:00 6.9 C 7.16 g/m*3 6.9 C 0 km/h
2833 17-01-2014 02:45:00 6.9 C 7.16 g/m*3 6.9 C 0 km/h
2834 17-01-2014 02:50:00 6.8 C 7.11 g/m*3 6.8 C 1.6 km/h
2835 17-01-2014 02:55:00 6.8 C 7.11 g/m*3 6.8 C 0 km/h
2836 17-01-2014 03:00:00 6.8 C 7.11 g/m*3 6.8 C 0 km/h
2837 17-01-2014 03:05:00 6.8 C 7.19 g/m*3 6.8 C 1.6 km/h
2838 17-01-2014 03:10:00 6.8 C 7.19 g/m*3 6.8 C 1.6 km/h
2839 17-01-2014 03:15:00 6.8 C 7.19 g/m*3 6.8 C 0 km/h
2840 17-01-2014 03:20:00 6.8 C 7.19 g/m*3 6.8 C 1.6 km/h
2841 17-01-2014 03:25:00 6.8 C 7.19 g/m*3 6.8 C 0 km/h
2842 17-01-2014 03:30:00 6.8 C 7.19 g/m*3 6.8 C 1.6 km/h
2843 17-01-2014 03:35:00 6.8 C 7.27 g/m*3 6.8 C 3.2 km/h
2844 17-01-2014 03:40:00 6.8 C 7.27 g/m*3 6.8 C 0 km/h
2845 17-01-2014 03:45:00 6.8 C 7.27 g/m*3 6.8 C 3.2 km/h
2846 17-01-2014 03:50:00 6.8 C 7.27 g/m*3 6.8 C 1.6 km/h
2847 17-01-2014 03:55:00 6.8 C 7.34 g/m*3 6.8 C 3.2 km/h
2848 17-01-2014 04:00:00 6.8 C 7.34 g/m*3 6.8 C 1.6 km/h
2849 17-01-2014 04:05:00 6.8 C 7.34 g/m*3 6.8 C 0 km/h
2850 17-01-2014 04:10:00 6.8 C 7.34 g/m*3 6.8 C 0 km/h
Sensor: Nr:Datum:Temp:Abs-Feuchte:Windchill:Wind:
Aussen-T/F 2851 17-01-2014 04:15:00 6.7 C 7.29 g/m*3 6.7 C 0 km/h
2852 17-01-2014 04:20:00 6.7 C 7.29 g/m*3 6.7 C 0 km/h
2853 17-01-2014 04:25:00 6.7 C 7.29 g/m*3 6.7 C 3.2 km/h
2854 17-01-2014 04:30:00 6.7 C 7.29 g/m*3 6.7 C 0 km/h
2855 17-01-2014 04:35:00 6.7 C 7.29 g/m*3 6.7 C 0 km/h
2856 17-01-2014 04:40:00 6.7 C 7.37 g/m*3 6.7 C 1.6 km/h
2857 17-01-2014 04:45:00 6.7 C 7.37 g/m*3 6.7 C 0 km/h
2858 17-01-2014 04:50:00 6.7 C 7.37 g/m*3 6.7 C 0 km/h
2859 17-01-2014 04:55:00 6.7 C 7.29 g/m*3 6.7 C 1.6 km/h
2860 17-01-2014 05:00:00 6.7 C 7.29 g/m*3 6.7 C 0 km/h
2861 17-01-2014 05:05:00 6.7 C 7.37 g/m*3 6.7 C 1.6 km/h
2862 17-01-2014 05:10:00 6.7 C 7.37 g/m*3 6.7 C 0 km/h
2863 17-01-2014 05:15:00 6.7 C 7.37 g/m*3 6.7 C 0 km/h
2864 17-01-2014 05:20:00 6.7 C 7.37 g/m*3 6.7 C 3.2 km/h
2865 17-01-2014 05:25:00 6.6 C 7.32 g/m*3 6.6 C 0 km/h
2866 17-01-2014 05:30:00 6.4 C 7.23 g/m*3 6.4 C 0 km/h
2867 17-01-2014 05:35:00 6.3 C 7.18 g/m*3 6.3 C 0 km/h
2868 17-01-2014 05:40:00 6.3 C 7.18 g/m*3 6.3 C 1.6 km/h
2869 17-01-2014 05:45:00 6.3 C 7.18 g/m*3 6.3 C 1.6 km/h
2870 17-01-2014 05:50:00 6.4 C 7.23 g/m*3 6.4 C 1.6 km/h
2871 17-01-2014 05:55:00 6.4 C 7.23 g/m*3 6.4 C 3.2 km/h
2872 17-01-2014 06:00:00 6.4 C 7.23 g/m*3 6.4 C 3.2 km/h
2873 17-01-2014 06:05:00 6.4 C 7.23 g/m*3 6.4 C 0 km/h
2874 17-01-2014 06:10:00 6.4 C 7.23 g/m*3 6.4 C 0 km/h
2875 17-01-2014 06:15:00 6.4 C 7.23 g/m*3 6.4 C 3.2 km/h
Sensor: Nr:Datum:Temp:Abs-Feuchte:Windchill:Wind:
Aussen-T/F 2876 17-01-2014 06:20:00 6.5 C 7.27 g/m*3 6.5 C 3.2 km/h
2877 17-01-2014 06:25:00 6.5 C 7.27 g/m*3 6.5 C 1.6 km/h
2878 17-01-2014 06:30:00 6.4 C 7.23 g/m*3 6.4 C 1.6 km/h
2879 17-01-2014 06:35:00 6.4 C 7.23 g/m*3 6.4 C 0 km/h
2880 17-01-2014 06:40:00 6.4 C 7.23 g/m*3 6.4 C 0 km/h
2881 17-01-2014 06:45:00 6.4 C 7.23 g/m*3 6.4 C 1.6 km/h
2882 17-01-2014 06:50:00 6.4 C 7.23 g/m*3 6.4 C 0 km/h
2883 17-01-2014 06:55:00 6.4 C 7.23 g/m*3 6.4 C 3.2 km/h
2884 17-01-2014 07:00:00 6.4 C 7.23 g/m*3 6.4 C 4.8 km/h
2885 17-01-2014 07:05:00 6.4 C 7.23 g/m*3 6.4 C 3.2 km/h
2886 17-01-2014 07:10:00 6.4 C 7.23 g/m*3 6.4 C 1.6 km/h
2887 17-01-2014 07:15:00 6.3 C 7.18 g/m*3 6.3 C 0 km/h
2888 17-01-2014 07:20:00 6.3 C 7.18 g/m*3 6.3 C 3.2 km/h
2889 17-01-2014 07:25:00 6.2 C 7.13 g/m*3 6.2 C 1.6 km/h
2890 17-01-2014 07:30:00 5.9 C 6.92 g/m*3 5.9 C 3.2 km/h
2891 17-01-2014 07:35:00 5.8 C 6.88 g/m*3 5.8 C 0 km/h
2892 17-01-2014 07:40:00 5.8 C 6.95 g/m*3 5.8 C 3.2 km/h
2893 17-01-2014 07:45:00 5.9 C 6.99 g/m*3 5.9 C 3.2 km/h
2894 17-01-2014 07:50:00 5.9 C 6.99 g/m*3 5.9 C 3.2 km/h
2895 17-01-2014 07:55:00 5.9 C 6.99 g/m*3 5.9 C 0 km/h
2896 17-01-2014 08:00:00 5.9 C 6.99 g/m*3 5.9 C 1.6 km/h
2897 17-01-2014 08:05:00 5.8 C 6.95 g/m*3 5.8 C 3.2 km/h
2898 17-01-2014 08:10:00 5.6 C 6.86 g/m*3 5.6 C 3.2 km/h
2899 17-01-2014 08:15:00 5.4 C 6.77 g/m*3 5.4 C 3.2 km/h
2900 17-01-2014 08:20:00 5.4 C 6.77 g/m*3 5.4 C 1.6 km/h
Sensor: Nr:Datum:Temp:Abs-Feuchte:Windchill:Wind:
Aussen-T/F 2901 17-01-2014 08:25:00 5.3 C 6.72 g/m*3 5.3 C 1.6 km/h
2902 17-01-2014 08:30:00 5.4 C 6.77 g/m*3 5.4 C 3.2 km/h
2903 17-01-2014 08:35:00 5.3 C 6.72 g/m*3 5.3 C 4.8 km/h
2904 17-01-2014 08:40:00 5.4 C 6.77 g/m*3 5.4 C 3.2 km/h
2905 17-01-2014 08:45:00 5.4 C 6.77 g/m*3 5.4 C 3.2 km/h
2906 17-01-2014 08:50:00 5.4 C 6.77 g/m*3 5.4 C 1.6 km/h
2907 17-01-2014 08:55:00 5.5 C 6.81 g/m*3 5.5 C 3.2 km/h
2908 17-01-2014 09:00:00 5.6 C 6.86 g/m*3 5.6 C 3.2 km/h
2909 17-01-2014 09:05:00 5.7 C 6.9 g/m*3 5.7 C 1.6 km/h
2910 17-01-2014 09:10:00 5.8 C 6.95 g/m*3 5.8 C 0 km/h
2911 17-01-2014 09:15:00 5.9 C 6.99 g/m*3 5.9 C 0 km/h
2912 17-01-2014 09:20:00 5.9 C 6.99 g/m*3 5.9 C 0 km/h
2913 17-01-2014 09:25:00 6.1 C 7.09 g/m*3 6.1 C 0 km/h
2914 17-01-2014 09:30:00 6.2 C 7.13 g/m*3 6.2 C 0 km/h
2915 17-01-2014 09:35:00 6.3 C 7.25 g/m*3 6.3 C 4.8 km/h
2916 17-01-2014 09:40:00 6.3 C 7.18 g/m*3 6.3 C 4.8 km/h
2917 17-01-2014 09:45:00 6.3 C 7.18 g/m*3 6.3 C 3.2 km/h
2918 17-01-2014 09:50:00 6.1 C 7.09 g/m*3 6.1 C 1.6 km/h
2919 17-01-2014 09:55:00 5.9 C 6.92 g/m*3 5.9 C 3.2 km/h
2920 17-01-2014 10:00:00 5.9 C 6.92 g/m*3 5.9 C 3.2 km/h
2921 17-01-2014 10:05:00 5.9 C 6.99 g/m*3 5.9 C 3.2 km/h
2922 17-01-2014 10:10:00 6.1 C 7.09 g/m*3 6.1 C 0 km/h
2923 17-01-2014 10:15:00 6.3 C 7.18 g/m*3 6.3 C 0 km/h
2924 17-01-2014 10:20:00 6.4 C 7.23 g/m*3 6.4 C 1.6 km/h
2925 17-01-2014 10:25:00 6.6 C 7.32 g/m*3 6.6 C 1.6 km/h
Sensor: Nr:Datum:Temp:Abs-Feuchte:Windchill:Wind:
Aussen-T/F 2926 17-01-2014 10:30:00 6.7 C 7.37 g/m*3 6.7 C 1.6 km/h
2927 17-01-2014 10:35:00 6.8 C 7.42 g/m*3 6.8 C 1.6 km/h
2928 17-01-2014 10:40:00 6.9 C 7.39 g/m*3 6.9 C 4.8 km/h
2929 17-01-2014 10:45:00 7.2 C 7.54 g/m*3 7.2 C 0 km/h
2930 17-01-2014 10:50:00 7.3 C 7.51 g/m*3 6.25 C 6.4 km/h
2931 17-01-2014 10:55:00 7.4 C 7.55 g/m*3 7.4 C 0 km/h
2932 17-01-2014 11:00:00 7.4 C 7.55 g/m*3 7.4 C 1.6 km/h
2933 17-01-2014 11:05:00 7.5 C 7.6 g/m*3 7.5 C 3.2 km/h
2934 17-01-2014 11:10:00 7.7 C 7.46 g/m*3 6.71 C 6.4 km/h
2935 17-01-2014 11:15:00 7.9 C 7.56 g/m*3 7.9 C 3.2 km/h
2936 17-01-2014 11:20:00 8.1 C 7.49 g/m*3 8.1 C 0 km/h
2937 17-01-2014 11:25:00 8.2 C 7.62 g/m*3 8.2 C 0 km/h
2938 17-01-2014 11:30:00 8.3 C 7.67 g/m*3 8.3 C 1.6 km/h
2939 17-01-2014 11:35:00 8.3 C 7.59 g/m*3 8.3 C 4.8 km/h
2940 17-01-2014 11:40:00 8.3 C 7.59 g/m*3 8.3 C 4.8 km/h
2941 17-01-2014 11:45:00 8.4 C 7.8 g/m*3 8.4 C 3.2 km/h
2942 17-01-2014 11:50:00 8.4 C 7.8 g/m*3 8.4 C 1.6 km/h
2943 17-01-2014 11:55:00 8.4 C 7.72 g/m*3 8.4 C 1.6 km/h
2944 17-01-2014 12:00:00 8.6 C 7.73 g/m*3 8.6 C 1.6 km/h
2945 17-01-2014 12:05:00 8.7 C 7.7 g/m*3 8.7 C 4.8 km/h
2946 17-01-2014 12:10:00 8.8 C 7.75 g/m*3 6.97 C 11.3 km/h
2947 17-01-2014 12:15:00 9 C 7.58 g/m*3 7.21 C 11.3 km/h
2948 17-01-2014 12:20:00 9.1 C 7.54 g/m*3 9.1 C 4.8 km/h
2949 17-01-2014 12:25:00 9.2 C 7.68 g/m*3 9.2 C 3.2 km/h
2950 17-01-2014 12:30:00 9.3 C 7.73 g/m*3 9.3 C 1.6 km/h
Sensor: Nr:Datum:Temp:Abs-Feuchte:Windchill:Wind:
Aussen-T/F 2951 17-01-2014 12:35:00 9.3 C 7.55 g/m*3 9.3 C 1.6 km/h
2952 17-01-2014 12:40:00 9.4 C 7.6 g/m*3 9.4 C 3.2 km/h
2953 17-01-2014 12:45:00 9.5 C 7.55 g/m*3 9.5 C 1.6 km/h
2954 17-01-2014 12:50:00 9.6 C 7.51 g/m*3 9.6 C 4.8 km/h
2955 17-01-2014 12:55:00 9.7 C 7.56 g/m*3 9.7 C 3.2 km/h
2956 17-01-2014 13:00:00 9.7 C 7.47 g/m*3 9.7 C 4.8 km/h
2957 17-01-2014 13:05:00 9.7 C 7.56 g/m*3 9.7 C 1.6 km/h
2958 17-01-2014 13:10:00 9.8 C 7.61 g/m*3 9.8 C 1.6 km/h
2959 17-01-2014 13:15:00 9.8 C 7.7 g/m*3 9.8 C 0 km/h
2960 17-01-2014 13:20:00 9.9 C 7.66 g/m*3 9.9 C 0 km/h
2961 17-01-2014 13:25:00 9.9 C 7.75 g/m*3 9.9 C 0 km/h
2962 17-01-2014 13:30:00 10 C 7.61 g/m*3 10 C 0 km/h
2963 17-01-2014 13:35:00 10 C 7.71 g/m*3 10 C 1.6 km/h
2964 17-01-2014 13:40:00 10.1 C 7.85 g/m*3 10.1 C 0 km/h
2965 17-01-2014 13:45:00 10.1 C 8.13 g/m*3 10.1 C 0 km/h
2966 17-01-2014 13:50:00 10.1 C 8.04 g/m*3 10.1 C 0 km/h
2967 17-01-2014 13:55:00 10.1 C 8.04 g/m*3 10.1 C 0 km/h
2968 17-01-2014 14:00:00 10.1 C 7.85 g/m*3 10.1 C 1.6 km/h
2969 17-01-2014 14:05:00 10.1 C 8.13 g/m*3 10.1 C 0 km/h
2970 17-01-2014 14:10:00 10.1 C 7.75 g/m*3 10.1 C 0 km/h
2971 17-01-2014 14:15:00 10.1 C 7.75 g/m*3 10.1 C 0 km/h
2972 17-01-2014 14:20:00 10.1 C 8.13 g/m*3 10.1 C 0 km/h
2973 17-01-2014 14:25:00 10.1 C 8.04 g/m*3 10.1 C 0 km/h
2974 17-01-2014 14:30:00 10.1 C 8.23 g/m*3 10.1 C 0 km/h
2975 17-01-2014 14:35:00 10 C 8.08 g/m*3 10 C 0 km/h
Sensor: Nr:Datum:Temp:Abs-Feuchte:Windchill:Wind:
Aussen-T/F 2976 17-01-2014 14:40:00 10 C 7.8 g/m*3 10 C 4.8 km/h
2977 17-01-2014 14:45:00 9.9 C 7.84 g/m*3 9.9 C 3.2 km/h
2978 17-01-2014 14:50:00 9.9 C 8.03 g/m*3 9.9 C 1.6 km/h
2979 17-01-2014 14:55:00 9.8 C 7.7 g/m*3 9.8 C 3.2 km/h
2980 17-01-2014 15:00:00 9.8 C 7.79 g/m*3 9.8 C 4.8 km/h
2981 17-01-2014 15:05:00 9.7 C 8.11 g/m*3 9.7 C 0 km/h
2982 17-01-2014 15:10:00 9.4 C 7.96 g/m*3 9.4 C 1.6 km/h
2983 17-01-2014 15:15:00 9.2 C 7.95 g/m*3 9.2 C 1.6 km/h
2984 17-01-2014 15:20:00 9.1 C 7.99 g/m*3 9.1 C 3.2 km/h
2985 17-01-2014 15:25:00 9.1 C 8.07 g/m*3 9.1 C 1.6 km/h
2986 17-01-2014 15:30:00 9.1 C 8.07 g/m*3 9.1 C 0 km/h
2987 17-01-2014 15:35:00 9.2 C 8.13 g/m*3 9.2 C 1.6 km/h
2988 17-01-2014 15:40:00 9.2 C 8.13 g/m*3 9.2 C 3.2 km/h
2989 17-01-2014 15:45:00 9.2 C 8.04 g/m*3 9.2 C 1.6 km/h
2990 17-01-2014 15:50:00 9.2 C 8.04 g/m*3 9.2 C 1.6 km/h
2991 17-01-2014 15:55:00 9.2 C 7.95 g/m*3 9.2 C 3.2 km/h
2992 17-01-2014 16:00:00 9.2 C 7.95 g/m*3 9.2 C 3.2 km/h
2993 17-01-2014 16:05:00 9 C 7.76 g/m*3 9 C 4.8 km/h
2994 17-01-2014 16:10:00 8.9 C 7.71 g/m*3 8.9 C 3.2 km/h
2995 17-01-2014 16:15:00 8.8 C 7.75 g/m*3 8.8 C 1.6 km/h
2996 17-01-2014 16:20:00 8.7 C 7.7 g/m*3 8.7 C 3.2 km/h
2997 17-01-2014 16:25:00 8.6 C 7.48 g/m*3 8.6 C 3.2 km/h
2998 17-01-2014 16:30:00 8.6 C 7.56 g/m*3 8.6 C 3.2 km/h
2999 17-01-2014 16:35:00 8.4 C 7.38 g/m*3 8.4 C 3.2 km/h
3000 17-01-2014 16:40:00 8.3 C 7.42 g/m*3 8.3 C 3.2 km/h
Sensor: Nr:Datum:Temp:Abs-Feuchte:Windchill:Wind:
Aussen-T/F 3001 17-01-2014 16:45:00 8.1 C 7.32 g/m*3 8.1 C 3.2 km/h
3002 17-01-2014 16:50:00 7.9 C 7.23 g/m*3 7.9 C 3.2 km/h
3003 17-01-2014 16:55:00 7.7 C 7.22 g/m*3 7.7 C 3.2 km/h
3004 17-01-2014 17:00:00 7.4 C 7.08 g/m*3 7.4 C 3.2 km/h
3005 17-01-2014 17:05:00 7.3 C 7.03 g/m*3 7.3 C 4.8 km/h
3006 17-01-2014 17:10:00 7.1 C 6.94 g/m*3 7.1 C 4.8 km/h
3007 17-01-2014 17:15:00 6.9 C 6.93 g/m*3 6.9 C 4.8 km/h
3008 17-01-2014 17:20:00 6.8 C 6.88 g/m*3 6.8 C 3.2 km/h
3009 17-01-2014 17:25:00 6.7 C 6.84 g/m*3 6.7 C 3.2 km/h
3010 17-01-2014 17:30:00 6.5 C 6.82 g/m*3 6.5 C 3.2 km/h
3011 17-01-2014 17:35:00 6.4 C 6.78 g/m*3 6.4 C 3.2 km/h
3012 17-01-2014 17:40:00 6.3 C 6.81 g/m*3 6.3 C 1.6 km/h
3013 17-01-2014 17:45:00 6.2 C 6.77 g/m*3 6.2 C 4.8 km/h
3014 17-01-2014 17:50:00 6.3 C 6.88 g/m*3 6.3 C 1.6 km/h
3015 17-01-2014 17:55:00 6.3 C 6.88 g/m*3 6.3 C 3.2 km/h
3016 17-01-2014 18:00:00 6.4 C 6.93 g/m*3 6.4 C 3.2 km/h
3017 17-01-2014 18:05:00 6.4 C 6.93 g/m*3 6.4 C 4.8 km/h
3018 17-01-2014 18:10:00 6.3 C 6.88 g/m*3 6.3 C 3.2 km/h
3019 17-01-2014 18:15:00 6.2 C 6.84 g/m*3 6.2 C 1.6 km/h
3020 17-01-2014 18:20:00 6.1 C 6.79 g/m*3 6.1 C 3.2 km/h
3021 17-01-2014 18:25:00 6 C 6.75 g/m*3 6 C 1.6 km/h
3022 17-01-2014 18:30:00 5.9 C 6.71 g/m*3 5.9 C 1.6 km/h
3023 17-01-2014 18:35:00 5.9 C 6.71 g/m*3 5.9 C 3.2 km/h
3024 17-01-2014 18:40:00 5.8 C 6.66 g/m*3 5.8 C 4.8 km/h
3025 17-01-2014 18:45:00 5.8 C 6.66 g/m*3 5.8 C 1.6 km/h
Sensor: Nr:Datum:Temp:Abs-Feuchte:Windchill:Wind:
Aussen-T/F 3026 17-01-2014 18:50:00 5.7 C 6.62 g/m*3 5.7 C 3.2 km/h
3027 17-01-2014 18:55:00 5.7 C 6.62 g/m*3 5.7 C 3.2 km/h
3028 17-01-2014 19:00:00 5.7 C 6.69 g/m*3 5.7 C 3.2 km/h
3029 17-01-2014 19:05:00 5.7 C 6.69 g/m*3 5.7 C 1.6 km/h
3030 17-01-2014 19:10:00 5.6 C 6.65 g/m*3 5.6 C 3.2 km/h
3031 17-01-2014 19:15:00 5.6 C 6.65 g/m*3 5.6 C 3.2 km/h
3032 17-01-2014 19:20:00 5.6 C 6.65 g/m*3 5.6 C 3.2 km/h
3033 17-01-2014 19:25:00 5.6 C 6.65 g/m*3 5.6 C 3.2 km/h
3034 17-01-2014 19:30:00 5.6 C 6.57 g/m*3 5.6 C 3.2 km/h
3035 17-01-2014 19:35:00 5.6 C 6.57 g/m*3 5.6 C 1.6 km/h
3036 17-01-2014 19:40:00 5.6 C 6.57 g/m*3 5.6 C 3.2 km/h
3037 17-01-2014 19:45:00 5.4 C 6.49 g/m*3 5.4 C 4.8 km/h
3038 17-01-2014 19:50:00 5.4 C 6.49 g/m*3 5.4 C 1.6 km/h
3039 17-01-2014 19:55:00 5.3 C 6.52 g/m*3 5.3 C 4.8 km/h
3040 17-01-2014 20:00:00 5.3 C 6.52 g/m*3 5.3 C 4.8 km/h
3041 17-01-2014 20:05:00 5.3 C 6.52 g/m*3 5.3 C 1.6 km/h
3042 17-01-2014 20:10:00 5.3 C 6.52 g/m*3 5.3 C 3.2 km/h
3043 17-01-2014 20:15:00 5.2 C 6.4 g/m*3 5.2 C 3.2 km/h
3044 17-01-2014 20:20:00 5.2 C 6.47 g/m*3 5.2 C 3.2 km/h
3045 17-01-2014 20:25:00 5.2 C 6.47 g/m*3 5.2 C 4.8 km/h
3046 17-01-2014 20:30:00 5.2 C 6.4 g/m*3 5.2 C 3.2 km/h
3047 17-01-2014 20:35:00 5.2 C 6.4 g/m*3 5.2 C 1.6 km/h
3048 17-01-2014 20:40:00 5.2 C 6.4 g/m*3 5.2 C 3.2 km/h
3049 17-01-2014 20:45:00 5.2 C 6.4 g/m*3 5.2 C 3.2 km/h
3050 17-01-2014 20:50:00 5.2 C 6.4 g/m*3 5.2 C 3.2 km/h
Sensor: Nr:Datum:Temp:Abs-Feuchte:Windchill:Wind:
Aussen-T/F 3051 17-01-2014 20:55:00 5.1 C 6.36 g/m*3 5.1 C 4.8 km/h
3052 17-01-2014 21:00:00 5 C 6.32 g/m*3 5 C 3.2 km/h
3053 17-01-2014 21:05:00 4.9 C 6.28 g/m*3 4.9 C 3.2 km/h
3054 17-01-2014 21:10:00 4.9 C 6.28 g/m*3 4.9 C 4.8 km/h
3055 17-01-2014 21:15:00 4.9 C 6.28 g/m*3 4.9 C 3.2 km/h
3056 17-01-2014 21:20:00 4.9 C 6.35 g/m*3 4.9 C 3.2 km/h
3057 17-01-2014 21:25:00 5 C 6.39 g/m*3 5 C 4.8 km/h
3058 17-01-2014 21:30:00 4.9 C 6.28 g/m*3 4.9 C 3.2 km/h
3059 17-01-2014 21:35:00 4.9 C 6.28 g/m*3 4.9 C 3.2 km/h
3060 17-01-2014 21:40:00 4.8 C 6.24 g/m*3 4.8 C 3.2 km/h
3061 17-01-2014 21:45:00 4.8 C 6.24 g/m*3 4.8 C 3.2 km/h
3062 17-01-2014 21:50:00 4.7 C 6.26 g/m*3 4.7 C 3.2 km/h
3063 17-01-2014 21:55:00 4.6 C 6.22 g/m*3 4.6 C 4.8 km/h
3064 17-01-2014 22:00:00 4.7 C 6.26 g/m*3 4.7 C 3.2 km/h
3065 17-01-2014 22:05:00 4.6 C 6.22 g/m*3 4.6 C 3.2 km/h
3066 17-01-2014 22:10:00 4.6 C 6.22 g/m*3 4.6 C 3.2 km/h
3067 17-01-2014 22:15:00 4.7 C 6.26 g/m*3 4.7 C 4.8 km/h
3068 17-01-2014 22:20:00 4.7 C 6.26 g/m*3 4.7 C 3.2 km/h
3069 17-01-2014 22:25:00 4.6 C 6.22 g/m*3 4.6 C 4.8 km/h
3070 17-01-2014 22:30:00 4.6 C 6.22 g/m*3 4.6 C 3.2 km/h
3071 17-01-2014 22:35:00 4.6 C 6.22 g/m*3 4.6 C 3.2 km/h
3072 17-01-2014 22:40:00 4.4 C 6.14 g/m*3 4.4 C 4.8 km/h
3073 17-01-2014 22:45:00 4.4 C 6.14 g/m*3 4.4 C 1.6 km/h
3074 17-01-2014 22:50:00 4.3 C 6.1 g/m*3 4.3 C 1.6 km/h
3075 17-01-2014 22:55:00 4.3 C 6.1 g/m*3 4.3 C 3.2 km/h
Sensor: Nr:Datum:Temp:Abs-Feuchte:Windchill:Wind:
Aussen-T/F 3076 17-01-2014 23:00:00 4.3 C 6.1 g/m*3 4.3 C 3.2 km/h
3077 17-01-2014 23:05:00 4.3 C 6.1 g/m*3 4.3 C 0 km/h
3078 17-01-2014 23:10:00 4.3 C 6.1 g/m*3 4.3 C 3.2 km/h
3079 17-01-2014 23:15:00 4.3 C 6.1 g/m*3 4.3 C 3.2 km/h
3080 17-01-2014 23:20:00 4.2 C 6.06 g/m*3 4.2 C 3.2 km/h
3081 17-01-2014 23:25:00 4.2 C 6.06 g/m*3 4.2 C 3.2 km/h
3082 17-01-2014 23:30:00 4.2 C 6.12 g/m*3 4.2 C 3.2 km/h
3083 17-01-2014 23:35:00 4.2 C 6.12 g/m*3 4.2 C 3.2 km/h
3084 17-01-2014 23:40:00 4.2 C 6.12 g/m*3 4.2 C 1.6 km/h
3085 17-01-2014 23:45:00 4.1 C 6.02 g/m*3 4.1 C 3.2 km/h
3086 17-01-2014 23:50:00 4.1 C 6.02 g/m*3 4.1 C 3.2 km/h
3087 17-01-2014 23:55:00 4 C 6.04 g/m*3 4 C 1.6 km/h
3088 18-01-2014 00:00:00 4 C 6.04 g/m*3 4 C 1.6 km/h
3089 18-01-2014 00:05:00 3.9 C 6 g/m*3 3.9 C 3.2 km/h
3090 18-01-2014 00:10:00 3.8 C 5.9 g/m*3 3.8 C 1.6 km/h
3091 18-01-2014 00:15:00 3.8 C 5.9 g/m*3 3.8 C 3.2 km/h
3092 18-01-2014 00:20:00 3.8 C 5.96 g/m*3 3.8 C 3.2 km/h
3093 18-01-2014 00:25:00 3.8 C 5.96 g/m*3 3.8 C 3.2 km/h
3094 18-01-2014 00:30:00 3.8 C 5.96 g/m*3 3.8 C 3.2 km/h
3095 18-01-2014 00:35:00 3.7 C 5.86 g/m*3 3.7 C 0 km/h
3096 18-01-2014 00:40:00 3.7 C 5.92 g/m*3 3.7 C 3.2 km/h
3097 18-01-2014 00:45:00 3.7 C 5.92 g/m*3 3.7 C 3.2 km/h
3098 18-01-2014 00:50:00 3.6 C 5.88 g/m*3 3.6 C 1.6 km/h
3099 18-01-2014 00:55:00 3.7 C 5.92 g/m*3 3.7 C 3.2 km/h
3100 18-01-2014 01:00:00 3.7 C 5.92 g/m*3 3.7 C 3.2 km/h
Sensor: Nr:Datum:Temp:Abs-Feuchte:Windchill:Wind:
Aussen-T/F 3101 18-01-2014 01:05:00 3.8 C 5.96 g/m*3 3.8 C 3.2 km/h
3102 18-01-2014 01:10:00 3.7 C 5.92 g/m*3 3.7 C 3.2 km/h
3103 18-01-2014 01:15:00 3.6 C 5.88 g/m*3 3.6 C 0 km/h
3104 18-01-2014 01:20:00 3.6 C 5.88 g/m*3 3.6 C 0 km/h
3105 18-01-2014 01:25:00 3.6 C 5.88 g/m*3 3.6 C 0 km/h
3106 18-01-2014 01:30:00 3.5 C 5.84 g/m*3 3.5 C 3.2 km/h
3107 18-01-2014 01:35:00 3.4 C 5.8 g/m*3 3.4 C 1.6 km/h
3108 18-01-2014 01:40:00 3.4 C 5.8 g/m*3 3.4 C 1.6 km/h
3109 18-01-2014 01:45:00 3.4 C 5.8 g/m*3 3.4 C 1.6 km/h
3110 18-01-2014 01:50:00 3.3 C 5.76 g/m*3 3.3 C 1.6 km/h
3111 18-01-2014 01:55:00 3.3 C 5.76 g/m*3 3.3 C 1.6 km/h
3112 18-01-2014 02:00:00 3.3 C 5.76 g/m*3 3.3 C 1.6 km/h
3113 18-01-2014 02:05:00 3.3 C 5.76 g/m*3 3.3 C 1.6 km/h
3114 18-01-2014 02:10:00 3.2 C 5.72 g/m*3 3.2 C 0 km/h
3115 18-01-2014 02:15:00 3.1 C 5.69 g/m*3 3.1 C 1.6 km/h
3116 18-01-2014 02:20:00 3.1 C 5.69 g/m*3 3.1 C 1.6 km/h
3117 18-01-2014 02:25:00 3 C 5.65 g/m*3 3 C 0 km/h
3118 18-01-2014 02:30:00 3 C 5.65 g/m*3 3 C 0 km/h
3119 18-01-2014 02:35:00 2.9 C 5.61 g/m*3 2.9 C 0 km/h
3120 18-01-2014 02:40:00 2.9 C 5.61 g/m*3 2.9 C 0 km/h
3121 18-01-2014 02:45:00 2.8 C 5.57 g/m*3 2.8 C 0 km/h
3122 18-01-2014 02:50:00 2.8 C 5.57 g/m*3 2.8 C 0 km/h
3123 18-01-2014 02:55:00 2.7 C 5.54 g/m*3 2.7 C 1.6 km/h
3124 18-01-2014 03:00:00 2.7 C 5.54 g/m*3 2.7 C 0 km/h
3125 18-01-2014 03:05:00 2.7 C 5.59 g/m*3 2.7 C 0 km/h
Sensor: Nr:Datum:Temp:Abs-Feuchte:Windchill:Wind:
Aussen-T/F 3126 18-01-2014 03:10:00 2.7 C 5.59 g/m*3 2.7 C 0 km/h
3127 18-01-2014 03:15:00 2.7 C 5.59 g/m*3 2.7 C 0 km/h
3128 18-01-2014 03:20:00 2.8 C 5.63 g/m*3 2.8 C 0 km/h
3129 18-01-2014 03:25:00 2.8 C 5.63 g/m*3 2.8 C 1.6 km/h
3130 18-01-2014 03:30:00 2.9 C 5.67 g/m*3 2.9 C 0 km/h
3131 18-01-2014 03:35:00 2.9 C 5.67 g/m*3 2.9 C 0 km/h
3132 18-01-2014 03:40:00 2.9 C 5.67 g/m*3 2.9 C 0 km/h
3133 18-01-2014 03:45:00 3 C 5.71 g/m*3 3 C 0 km/h
3134 18-01-2014 03:50:00 2.9 C 5.67 g/m*3 2.9 C 0 km/h
3135 18-01-2014 03:55:00 2.9 C 5.67 g/m*3 2.9 C 0 km/h
3136 18-01-2014 04:00:00 2.8 C 5.63 g/m*3 2.8 C 0 km/h
3137 18-01-2014 04:05:00 2.8 C 5.63 g/m*3 2.8 C 1.6 km/h
3138 18-01-2014 04:10:00 2.8 C 5.63 g/m*3 2.8 C 0 km/h
3139 18-01-2014 04:15:00 2.7 C 5.59 g/m*3 2.7 C 0 km/h
3140 18-01-2014 04:20:00 2.7 C 5.59 g/m*3 2.7 C 0 km/h
3141 18-01-2014 04:25:00 2.6 C 5.56 g/m*3 2.6 C 0 km/h
3142 18-01-2014 04:30:00 2.7 C 5.59 g/m*3 2.7 C 3.2 km/h
3143 18-01-2014 04:35:00 2.6 C 5.56 g/m*3 2.6 C 0 km/h
3144 18-01-2014 04:40:00 2.5 C 5.52 g/m*3 2.5 C 0 km/h
3145 18-01-2014 04:45:00 2.4 C 5.48 g/m*3 2.4 C 1.6 km/h
3146 18-01-2014 04:50:00 2.4 C 5.48 g/m*3 2.4 C 0 km/h
3147 18-01-2014 04:55:00 2.3 C 5.44 g/m*3 2.3 C 0 km/h
3148 18-01-2014 05:00:00 2.2 C 5.35 g/m*3 2.2 C 0 km/h
3149 18-01-2014 05:05:00 2.1 C 5.37 g/m*3 2.1 C 0 km/h
3150 18-01-2014 05:10:00 2 C 5.33 g/m*3 2 C 0 km/h
Sensor: Nr:Datum:Temp:Abs-Feuchte:Windchill:Wind:
Aussen-T/F 3151 18-01-2014 05:15:00 1.9 C 5.3 g/m*3 1.9 C 0 km/h
3152 18-01-2014 05:20:00 1.9 C 5.3 g/m*3 1.9 C 0 km/h
3153 18-01-2014 05:25:00 1.8 C 5.26 g/m*3 1.8 C 0 km/h
3154 18-01-2014 05:30:00 1.8 C 5.26 g/m*3 1.8 C 1.6 km/h
3155 18-01-2014 05:35:00 1.9 C 5.3 g/m*3 1.9 C 1.6 km/h
3156 18-01-2014 05:40:00 1.9 C 5.3 g/m*3 1.9 C 0 km/h
3157 18-01-2014 05:45:00 1.8 C 5.26 g/m*3 1.8 C 0 km/h
3158 18-01-2014 05:50:00 1.8 C 5.26 g/m*3 1.8 C 1.6 km/h
3159 18-01-2014 05:55:00 1.8 C 5.26 g/m*3 1.8 C 0 km/h
3160 18-01-2014 06:00:00 1.8 C 5.26 g/m*3 1.8 C 1.6 km/h
3161 18-01-2014 06:05:00 1.8 C 5.32 g/m*3 1.8 C 1.6 km/h
3162 18-01-2014 06:10:00 1.8 C 5.32 g/m*3 1.8 C 1.6 km/h
3163 18-01-2014 06:15:00 1.8 C 5.32 g/m*3 1.8 C 1.6 km/h
3164 18-01-2014 06:20:00 1.8 C 5.32 g/m*3 1.8 C 0 km/h
3165 18-01-2014 06:25:00 1.8 C 5.32 g/m*3 1.8 C 0 km/h
3166 18-01-2014 06:30:00 1.8 C 5.26 g/m*3 1.8 C 0 km/h
3167 18-01-2014 06:35:00 1.8 C 5.32 g/m*3 1.8 C 0 km/h
3168 18-01-2014 06:40:00 1.8 C 5.32 g/m*3 1.8 C 1.6 km/h
3169 18-01-2014 06:45:00 2 C 5.39 g/m*3 2 C 3.2 km/h
3170 18-01-2014 06:50:00 2.4 C 5.54 g/m*3 0.05 C 8.1 km/h
3171 18-01-2014 06:55:00 2.6 C 5.61 g/m*3 2.6 C 1.6 km/h
3172 18-01-2014 07:00:00 2.7 C 5.65 g/m*3 2.7 C 3.2 km/h
3173 18-01-2014 07:05:00 2.8 C 5.69 g/m*3 2.8 C 3.2 km/h
3174 18-01-2014 07:10:00 2.8 C 5.69 g/m*3 2.8 C 1.6 km/h
3175 18-01-2014 07:15:00 2.8 C 5.69 g/m*3 2.8 C 0 km/h
Sensor: Nr:Datum:Temp:Abs-Feuchte:Windchill:Wind:
Aussen-T/F 3176 18-01-2014 07:20:00 2.7 C 5.59 g/m*3 2.7 C 0 km/h
3177 18-01-2014 07:25:00 2.6 C 5.56 g/m*3 2.6 C 0 km/h
3178 18-01-2014 07:30:00 2.5 C 5.52 g/m*3 2.5 C 0 km/h
3179 18-01-2014 07:35:00 2.5 C 5.52 g/m*3 2.5 C 0 km/h
3180 18-01-2014 07:40:00 2.6 C 5.61 g/m*3 2.6 C 1.6 km/h
3181 18-01-2014 07:45:00 2.6 C 5.56 g/m*3 2.6 C 0 km/h
3182 18-01-2014 07:50:00 2.7 C 5.65 g/m*3 2.7 C 3.2 km/h
3183 18-01-2014 07:55:00 2.8 C 5.69 g/m*3 2.8 C 0 km/h
3184 18-01-2014 08:00:00 3 C 5.77 g/m*3 3 C 4.8 km/h
3185 18-01-2014 08:05:00 3.2 C 5.85 g/m*3 3.2 C 4.8 km/h
3186 18-01-2014 08:10:00 3.2 C 5.85 g/m*3 0.58 C 9.7 km/h
3187 18-01-2014 08:15:00 4.1 C 6.08 g/m*3 1.65 C 9.7 km/h
3188 18-01-2014 08:20:00 4.3 C 6.1 g/m*3 1.89 C 9.7 km/h
3189 18-01-2014 08:25:00 4.4 C 6.07 g/m*3 2.01 C 9.7 km/h
3190 18-01-2014 08:30:00 4.6 C 6.09 g/m*3 4.6 C 4.8 km/h
3191 18-01-2014 08:35:00 4.6 C 6.09 g/m*3 2.64 C 8.1 km/h
3192 18-01-2014 08:40:00 4.6 C 6.09 g/m*3 3.13 C 6.4 km/h
3193 18-01-2014 08:45:00 4.8 C 6.04 g/m*3 2.15 C 11.3 km/h
3194 18-01-2014 08:50:00 4.8 C 6.04 g/m*3 2.15 C 11.3 km/h
3195 18-01-2014 08:55:00 4.8 C 5.97 g/m*3 2.15 C 11.3 km/h
3196 18-01-2014 09:00:00 4.8 C 5.97 g/m*3 4.8 C 4.8 km/h
3197 18-01-2014 09:05:00 4.8 C 5.97 g/m*3 2.49 C 9.7 km/h
3198 18-01-2014 09:10:00 4.8 C 5.97 g/m*3 1.58 C 14.5 km/h
3199 18-01-2014 09:15:00 4.8 C 5.97 g/m*3 2.87 C 8.1 km/h
3200 18-01-2014 09:20:00 4.8 C 5.97 g/m*3 2.87 C 8.1 km/h
Sensor: Nr:Datum:Temp:Abs-Feuchte:Windchill:Wind:
Aussen-T/F 3201 18-01-2014 09:25:00 4.8 C 5.97 g/m*3 4.8 C 3.2 km/h
3202 18-01-2014 09:30:00 4.7 C 5.93 g/m*3 3.25 C 6.4 km/h
3203 18-01-2014 09:35:00 4.7 C 5.93 g/m*3 4.7 C 4.8 km/h
3204 18-01-2014 09:40:00 4.8 C 5.97 g/m*3 4.8 C 3.2 km/h
3205 18-01-2014 09:45:00 4.8 C 5.97 g/m*3 4.8 C 3.2 km/h
3206 18-01-2014 09:50:00 4.8 C 5.97 g/m*3 4.8 C 3.2 km/h
3207 18-01-2014 09:55:00 4.8 C 5.97 g/m*3 4.8 C 3.2 km/h
3208 18-01-2014 10:00:00 4.8 C 5.97 g/m*3 2.87 C 8.1 km/h
3209 18-01-2014 10:05:00 4.8 C 5.97 g/m*3 4.8 C 4.8 km/h
3210 18-01-2014 10:10:00 4.9 C 6.01 g/m*3 4.9 C 4.8 km/h
3211 18-01-2014 10:15:00 4.8 C 5.97 g/m*3 4.8 C 4.8 km/h
3212 18-01-2014 10:20:00 4.8 C 5.97 g/m*3 4.8 C 1.6 km/h
3213 18-01-2014 10:25:00 4.8 C 5.97 g/m*3 4.8 C 4.8 km/h
3214 18-01-2014 10:30:00 4.8 C 5.97 g/m*3 4.8 C 4.8 km/h
3215 18-01-2014 10:35:00 5 C 6.05 g/m*3 2.72 C 9.7 km/h
3216 18-01-2014 10:40:00 5.2 C 6.13 g/m*3 5.2 C 4.8 km/h
3217 18-01-2014 10:45:00 5.3 C 6.1 g/m*3 3.46 C 8.1 km/h
3218 18-01-2014 10:50:00 5.3 C 6.1 g/m*3 2.75 C 11.3 km/h
3219 18-01-2014 10:55:00 5.3 C 6.1 g/m*3 3.46 C 8.1 km/h
3220 18-01-2014 11:00:00 5.3 C 6.1 g/m*3 3.46 C 8.1 km/h
3221 18-01-2014 11:05:00 5.8 C 6.3 g/m*3 5.8 C 4.8 km/h
3222 18-01-2014 11:10:00 5.8 C 6.3 g/m*3 5.8 C 4.8 km/h
3223 18-01-2014 11:30:00 6.2 C 7.35 g/m*3 4.98 C 6.4 km/h
3224 18-01-2014 11:35:00 6.2 C 7.35 g/m*3 4.52 C 8.1 km/h
3225 18-01-2014 11:40:00 6.2 C 7.35 g/m*3 6.2 C 4.8 km/h
Sensor: Nr:Datum:Temp:Abs-Feuchte:Windchill:Wind:
Aussen-T/F 3226 18-01-2014 12:40:00 6.9 C 6.62 g/m*3 6.9 C 0 km/h
3227 18-01-2014 12:45:00 6.9 C 6.54 g/m*3 6.9 C 4.8 km/h
3228 18-01-2014 12:50:00 6.9 C 6.47 g/m*3 6.9 C 1.6 km/h
3229 18-01-2014 12:55:00 6.9 C 6.54 g/m*3 6.9 C 3.2 km/h
3230 18-01-2014 13:00:00 6.9 C